PWSweather.com
Personal Weather Stations
Station Observations
HVALPSUND
Hvalpsund, FarsoeDK 9640

HvalpsundFarsoeDK 9640

Lat: 56.705311, Lon: 9.203638

Elevation: 5

Station Type: Vantage Pro2

http://hvalpsundvejr.dk

High Low Average
Temperature 33.4°F0.8°C 28.8°F-1.8°C 31.4°F-0.3°C
Dew Point 29.7°F-1.3°C 24.6°F-4.1°C 27.2°F-2.7°C
Winds 15.5 mph 24.9 kmh 4.1 mph 6.6 kmh 10.0 mph SE16.1 kmh SE
Wind Gusts 26.0 mph41.8 kmh 8.0 mph12.9 kmh 15.0 mph24.1 kmh
Humidity 89% 80% 84%
Pressure 29.94 in1013.9 mb 29.65 in1004.1 mb -
Precipitation 0.00 in0.0 mm - -
<
Hour Temp Dew Point Humidity Winds Wind Gusts Pressure Precip Precip Rate Daily Precip Total
12:00 AM 29.7°F-1.3°C 25.5°F-3.6°C 84% 9.7 mph SE15.6 kmh SE 14.0 mph22.5 kmh 29.94 in1013.9 mb 0.00 in0.0 mm 0.00 in0.0 mm 0.00 in0.0 mm
12:01 AM 29.8°F-1.2°C 25.6°F-3.6°C 84% 10.5 mph SE16.9 kmh SE 14.0 mph22.5 kmh 29.94 in1013.9 mb 0.00 in0.0 mm 0.00 in0.0 mm 0.00 in0.0 mm
12:02 AM 29.8°F-1.2°C 25.6°F-3.6°C 84% 10.9 mph SE17.5 kmh SE 14.0 mph22.5 kmh 29.94 in1013.9 mb 0.00 in0.0 mm 0.00 in0.0 mm 0.00 in0.0 mm
12:03 AM 29.7°F-1.3°C 25.5°F-3.6°C 84% 10.3 mph SE16.6 kmh SE 14.0 mph22.5 kmh 29.94 in1013.9 mb 0.00 in0.0 mm 0.00 in0.0 mm 0.00 in0.0 mm
12:04 AM 29.8°F-1.2°C 25.6°F-3.6°C 84% 11.9 mph SE19.2 kmh SE 15.0 mph24.1 kmh 29.94 in1013.9 mb 0.00 in0.0 mm 0.00 in0.0 mm 0.00 in0.0 mm
12:05 AM 29.8°F-1.2°C 25.6°F-3.6°C 84% 12.1 mph SE19.5 kmh SE 15.0 mph24.1 kmh 29.94 in1013.9 mb 0.00 in0.0 mm 0.00 in0.0 mm 0.00 in0.0 mm
12:06 AM 29.7°F-1.3°C 25.5°F-3.6°C 84% 10.7 mph SE17.2 kmh SE 15.0 mph24.1 kmh 29.94 in1013.9 mb 0.00 in0.0 mm 0.00 in0.0 mm 0.00 in0.0 mm
12:07 AM 29.8°F-1.2°C 25.6°F-3.6°C 84% 8.3 mph SE13.4 kmh SE 15.0 mph24.1 kmh 29.94 in1013.9 mb 0.00 in0.0 mm 0.00 in0.0 mm 0.00 in0.0 mm
12:08 AM 29.8°F-1.2°C 25.6°F-3.6°C 84% 10.1 mph SE16.3 kmh SE 13.0 mph20.9 kmh 29.94 in1013.9 mb 0.00 in0.0 mm 0.00 in0.0 mm 0.00 in0.0 mm
12:09 AM 29.8°F-1.2°C 25.6°F-3.6°C 84% 11.6 mph SE18.7 kmh SE 15.0 mph24.1 kmh 29.94 in1013.9 mb 0.00 in0.0 mm 0.00 in0.0 mm 0.00 in0.0 mm
12:10 AM 29.8°F-1.2°C 25.6°F-3.6°C 84% 8.2 mph SE13.2 kmh SE 15.0 mph24.1 kmh 29.94 in1013.9 mb 0.00 in0.0 mm 0.00 in0.0 mm 0.00 in0.0 mm
12:11 AM 29.7°F-1.3°C 25.5°F-3.6°C 84% 7.4 mph SE11.9 kmh SE 13.0 mph20.9 kmh 29.94 in1013.9 mb 0.00 in0.0 mm 0.00 in0.0 mm 0.00 in0.0 mm
12:12 AM 29.8°F-1.2°C 25.6°F-3.6°C 84% 9.9 mph SE15.9 kmh SE 14.0 mph22.5 kmh 29.94 in1013.9 mb 0.00 in0.0 mm 0.00 in0.0 mm 0.00 in0.0 mm
12:13 AM 29.7°F-1.3°C 25.5°F-3.6°C 84% 11.3 mph SE18.2 kmh SE 14.0 mph22.5 kmh 29.94 in1013.9 mb 0.00 in0.0 mm 0.00 in0.0 mm 0.00 in0.0 mm
12:14 AM 29.7°F-1.3°C 25.5°F-3.6°C 84% 10.9 mph SE17.5 kmh SE 14.0 mph22.5 kmh 29.94 in1013.9 mb 0.00 in0.0 mm 0.00 in0.0 mm 0.00 in0.0 mm
12:15 AM 29.7°F-1.3°C 25.5°F-3.6°C 84% 7.9 mph SE12.7 kmh SE 14.0 mph22.5 kmh 29.94 in1013.9 mb 0.00 in0.0 mm 0.00 in0.0 mm 0.00 in0.0 mm
12:16 AM 29.7°F-1.3°C 25.5°F-3.6°C 84% 8.3 mph SE13.4 kmh SE 13.0 mph20.9 kmh 29.94 in1013.9 mb 0.00 in0.0 mm 0.00 in0.0 mm 0.00 in0.0 mm
12:17 AM 29.7°F-1.3°C 25.5°F-3.6°C 84% 7.9 mph SE12.7 kmh SE 12.0 mph19.3 kmh 29.94 in1013.9 mb 0.00 in0.0 mm 0.00 in0.0 mm 0.00 in0.0 mm
12:18 AM 29.7°F-1.3°C 25.5°F-3.6°C 84% 9.0 mph SE14.5 kmh SE 12.0 mph19.3 kmh 29.94 in1013.9 mb 0.00 in0.0 mm 0.00 in0.0 mm 0.00 in0.0 mm
12:19 AM 29.7°F-1.3°C 25.5°F-3.6°C 84% 7.6 mph SE12.2 kmh SE 12.0 mph19.3 kmh 29.94 in1013.9 mb 0.00 in0.0 mm 0.00 in0.0 mm 0.00 in0.0 mm
12:20 AM 29.7°F-1.3°C 25.5°F-3.6°C 84% 10.9 mph SE17.5 kmh SE 15.0 mph24.1 kmh 29.94 in1013.9 mb 0.00 in0.0 mm 0.00 in0.0 mm 0.00 in0.0 mm
12:21 AM 29.7°F-1.3°C 25.5°F-3.6°C 84% 9.7 mph SE15.6 kmh SE 15.0 mph24.1 kmh 29.94 in1013.9 mb 0.00 in0.0 mm 0.00 in0.0 mm 0.00 in0.0 mm
12:22 AM 29.7°F-1.3°C 25.5°F-3.6°C 84% 9.1 mph SE14.6 kmh SE 13.0 mph20.9 kmh 29.94 in1013.9 mb 0.00 in0.0 mm 0.00 in0.0 mm 0.00 in0.0 mm
12:23 AM 29.6°F-1.3°C 25.4°F-3.7°C 84% 7.2 mph SE11.6 kmh SE 13.0 mph20.9 kmh 29.94 in1013.9 mb 0.00 in0.0 mm 0.00 in0.0 mm 0.00 in0.0 mm
12:24 AM 29.7°F-1.3°C 25.5°F-3.6°C 84% 6.7 mph SE10.8 kmh SE 10.0 mph16.1 kmh 29.94 in1013.9 mb 0.00 in0.0 mm 0.00 in0.0 mm 0.00 in0.0 mm
12:25 AM 29.7°F-1.3°C 25.5°F-3.6°C 84% 9.9 mph SE15.9 kmh SE 12.0 mph19.3 kmh 29.94 in1013.9 mb 0.00 in0.0 mm 0.00 in0.0 mm 0.00 in0.0 mm
12:26 AM 29.7°F-1.3°C 25.5°F-3.6°C 84% 7.6 mph SE12.2 kmh SE 13.0 mph20.9 kmh 29.94 in1013.9 mb 0.00 in0.0 mm 0.00 in0.0 mm 0.00 in0.0 mm
12:27 AM 29.7°F-1.3°C 25.5°F-3.6°C 84% 6.5 mph SE10.5 kmh SE 13.0 mph20.9 kmh 29.94 in1013.9 mb 0.00 in0.0 mm 0.00 in0.0 mm 0.00 in0.0 mm
12:28 AM 29.7°F-1.3°C 25.5°F-3.6°C 84% 7.3 mph SE11.7 kmh SE 10.0 mph16.1 kmh 29.94 in1013.9 mb 0.00 in0.0 mm 0.00 in0.0 mm 0.00 in0.0 mm
12:29 AM 29.7°F-1.3°C 25.5°F-3.6°C 84% 7.6 mph SE12.2 kmh SE 12.0 mph19.3 kmh 29.94 in1013.9 mb 0.00 in0.0 mm 0.00 in0.0 mm 0.00 in0.0 mm
12:30 AM 29.6°F-1.3°C 25.4°F-3.7°C 84% 8.0 mph SE12.9 kmh SE 12.0 mph19.3 kmh 29.94 in1013.9 mb 0.00 in0.0 mm 0.00 in0.0 mm 0.00 in0.0 mm
12:31 AM 29.6°F-1.3°C 25.4°F-3.7°C 84% 9.1 mph SE14.6 kmh SE 12.0 mph19.3 kmh 29.94 in1013.9 mb 0.00 in0.0 mm 0.00 in0.0 mm 0.00 in0.0 mm
12:32 AM 29.6°F-1.3°C 25.4°F-3.7°C 84% 10.3 mph SE16.6 kmh SE 17.0 mph27.4 kmh 29.94 in1013.9 mb 0.00 in0.0 mm 0.00 in0.0 mm 0.00 in0.0 mm
12:33 AM 29.6°F-1.3°C 25.4°F-3.7°C 84% 8.6 mph SE13.8 kmh SE 17.0 mph27.4 kmh 29.94 in1013.9 mb 0.00 in0.0 mm 0.00 in0.0 mm 0.00 in0.0 mm
12:34 AM 29.6°F-1.3°C 25.4°F-3.7°C 84% 7.5 mph SE12.1 kmh SE 13.0 mph20.9 kmh 29.94 in1013.9 mb 0.00 in0.0 mm 0.00 in0.0 mm 0.00 in0.0 mm
12:35 AM 29.6°F-1.3°C 25.4°F-3.7°C 84% 10.3 mph SE16.6 kmh SE 14.0 mph22.5 kmh 29.94 in1013.9 mb 0.00 in0.0 mm 0.00 in0.0 mm 0.00 in0.0 mm
12:36 AM 29.6°F-1.3°C 25.4°F-3.7°C 84% 10.0 mph SE16.1 kmh SE 14.0 mph22.5 kmh 29.94 in1013.9 mb 0.00 in0.0 mm 0.00 in0.0 mm 0.00 in0.0 mm
12:37 AM 29.6°F-1.3°C 25.4°F-3.7°C 84% 9.8 mph SE15.8 kmh SE 13.0 mph20.9 kmh 29.94 in1013.9 mb 0.00 in0.0 mm 0.00 in0.0 mm 0.00 in0.0 mm
12:38 AM 29.6°F-1.3°C 25.4°F-3.7°C 84% 7.2 mph SE11.6 kmh SE 13.0 mph20.9 kmh 29.94 in1013.9 mb 0.00 in0.0 mm 0.00 in0.0 mm 0.00 in0.0 mm
12:39 AM 29.6°F-1.3°C 25.4°F-3.7°C 84% 8.5 mph SE13.7 kmh SE 12.0 mph19.3 kmh 29.94 in1013.9 mb 0.00 in0.0 mm 0.00 in0.0 mm 0.00 in0.0 mm
12:40 AM 29.6°F-1.3°C 25.4°F-3.7°C 84% 10.1 mph SE16.3 kmh SE 14.0 mph22.5 kmh 29.94 in1013.9 mb 0.00 in0.0 mm 0.00 in0.0 mm 0.00 in0.0 mm
12:41 AM 29.6°F-1.3°C 25.4°F-3.7°C 84% 9.5 mph SE15.3 kmh SE 14.0 mph22.5 kmh 29.94 in1013.9 mb 0.00 in0.0 mm 0.00 in0.0 mm 0.00 in0.0 mm
12:42 AM 29.6°F-1.3°C 25.4°F-3.7°C 84% 9.0 mph SE14.5 kmh SE 13.0 mph20.9 kmh 29.94 in1013.9 mb 0.00 in0.0 mm 0.00 in0.0 mm 0.00 in0.0 mm
12:43 AM 29.6°F-1.3°C 25.4°F-3.7°C 84% 7.9 mph SE12.7 kmh SE 11.0 mph17.7 kmh 29.94 in1013.9 mb 0.00 in0.0 mm 0.00 in0.0 mm 0.00 in0.0 mm
12:44 AM 29.6°F-1.3°C 25.4°F-3.7°C 84% 7.7 mph SE12.4 kmh SE 11.0 mph17.7 kmh 29.94 in1013.9 mb 0.00 in0.0 mm 0.00 in0.0 mm 0.00 in0.0 mm
12:45 AM 29.6°F-1.3°C 25.4°F-3.7°C 84% 7.7 mph SE12.4 kmh SE 11.0 mph17.7 kmh 29.94 in1013.9 mb 0.00 in0.0 mm 0.00 in0.0 mm 0.00 in0.0 mm
12:46 AM 29.6°F-1.3°C 25.4°F-3.7°C 84% 6.6 mph SE10.6 kmh SE 11.0 mph17.7 kmh 29.94 in1013.9 mb 0.00 in0.0 mm 0.00 in0.0 mm 0.00 in0.0 mm
12:47 AM 29.6°F-1.3°C 25.4°F-3.7°C 84% 8.4 mph SE13.5 kmh SE 11.0 mph17.7 kmh 29.94 in1013.9 mb 0.00 in0.0 mm 0.00 in0.0 mm 0.00 in0.0 mm
12:48 AM 29.6°F-1.3°C 25.4°F-3.7°C 84% 6.8 mph SE10.9 kmh SE 11.0 mph17.7 kmh 29.94 in1013.9 mb 0.00 in0.0 mm 0.00 in0.0 mm 0.00 in0.0 mm
12:49 AM 29.6°F-1.3°C 25.4°F-3.7°C 84% 11.1 mph SE17.9 kmh SE 14.0 mph22.5 kmh 29.94 in1013.9 mb 0.00 in0.0 mm 0.00 in0.0 mm 0.00 in0.0 mm
12:50 AM 29.5°F-1.4°C 25.6°F-3.6°C 85% 6.3 mph SE10.1 kmh SE 14.0 mph22.5 kmh 29.94 in1013.9 mb 0.00 in0.0 mm 0.00 in0.0 mm 0.00 in0.0 mm
12:51 AM 29.6°F-1.3°C 25.4°F-3.7°C 84% 7.5 mph SE12.1 kmh SE 11.0 mph17.7 kmh 29.94 in1013.9 mb 0.00 in0.0 mm 0.00 in0.0 mm 0.00 in0.0 mm
12:52 AM 29.5°F-1.4°C 25.6°F-3.6°C 85% 7.8 mph SE12.6 kmh SE 12.0 mph19.3 kmh 29.94 in1013.9 mb 0.00 in0.0 mm 0.00 in0.0 mm 0.00 in0.0 mm
12:53 AM 29.5°F-1.4°C 25.6°F-3.6°C 85% 8.9 mph SE14.3 kmh SE 12.0 mph19.3 kmh 29.94 in1013.9 mb 0.00 in0.0 mm 0.00 in0.0 mm 0.00 in0.0 mm
12:54 AM 29.5°F-1.4°C 25.3°F-3.7°C 84% 6.5 mph SE10.5 kmh SE 12.0 mph19.3 kmh 29.93 in1013.5 mb 0.00 in0.0 mm 0.00 in0.0 mm 0.00 in0.0 mm
12:55 AM 29.5°F-1.4°C 25.3°F-3.7°C 84% 8.4 mph SE13.5 kmh SE 11.0 mph17.7 kmh 29.94 in1013.9 mb 0.00 in0.0 mm 0.00 in0.0 mm 0.00 in0.0 mm
12:56 AM 29.5°F-1.4°C 25.3°F-3.7°C 84% 8.4 mph SE13.5 kmh SE 13.0 mph20.9 kmh 29.94 in1013.9 mb 0.00 in0.0 mm 0.00 in0.0 mm 0.00 in0.0 mm
12:57 AM 29.4°F-1.4°C 25.5°F-3.6°C 85% 9.3 mph SE15.0 kmh SE 14.0 mph22.5 kmh 29.94 in1013.9 mb 0.00 in0.0 mm 0.00 in0.0 mm 0.00 in0.0 mm
12:58 AM 29.5°F-1.4°C 25.6°F-3.6°C 85% 10.0 mph SE16.1 kmh SE 14.0 mph22.5 kmh 29.93 in1013.5 mb 0.00 in0.0 mm 0.00 in0.0 mm 0.00 in0.0 mm
12:59 AM 29.5°F-1.4°C 25.6°F-3.6°C 85% 9.4 mph SE15.1 kmh SE 14.0 mph22.5 kmh 29.94 in1013.9 mb 0.00 in0.0 mm 0.00 in0.0 mm 0.00 in0.0 mm
01:00 AM 29.5°F-1.4°C 25.6°F-3.6°C 85% 8.9 mph SE14.3 kmh SE 13.0 mph20.9 kmh 29.93 in1013.5 mb 0.00 in0.0 mm 0.00 in0.0 mm 0.00 in0.0 mm
01:01 AM 29.5°F-1.4°C 25.3°F-3.7°C 84% 9.8 mph SE15.8 kmh SE 13.0 mph20.9 kmh 29.94 in1013.9 mb 0.00 in0.0 mm 0.00 in0.0 mm 0.00 in0.0 mm
01:02 AM 29.5°F-1.4°C 25.6°F-3.6°C 85% 9.2 mph SE14.8 kmh SE 13.0 mph20.9 kmh 29.94 in1013.9 mb 0.00 in0.0 mm 0.00 in0.0 mm 0.00 in0.0 mm
01:03 AM 29.5°F-1.4°C 25.6°F-3.6°C 85% 7.0 mph SE11.3 kmh SE 12.0 mph19.3 kmh 29.94 in1013.9 mb 0.00 in0.0 mm 0.00 in0.0 mm 0.00 in0.0 mm
01:04 AM 29.5°F-1.4°C 25.3°F-3.7°C 84% 7.9 mph SE12.7 kmh SE 11.0 mph17.7 kmh 29.94 in1013.9 mb 0.00 in0.0 mm 0.00 in0.0 mm 0.00 in0.0 mm
01:05 AM 29.5°F-1.4°C 25.3°F-3.7°C 84% 8.0 mph SE12.9 kmh SE 12.0 mph19.3 kmh 29.94 in1013.9 mb 0.00 in0.0 mm 0.00 in0.0 mm 0.00 in0.0 mm
01:06 AM 29.5°F-1.4°C 25.3°F-3.7°C 84% 7.9 mph SE12.7 kmh SE 12.0 mph19.3 kmh 29.93 in1013.5 mb 0.00 in0.0 mm 0.00 in0.0 mm 0.00 in0.0 mm
01:07 AM 29.4°F-1.4°C 25.5°F-3.6°C 85% 7.5 mph SE12.1 kmh SE 12.0 mph19.3 kmh 29.94 in1013.9 mb 0.00 in0.0 mm 0.00 in0.0 mm 0.00 in0.0 mm
01:08 AM 29.4°F-1.4°C 25.5°F-3.6°C 85% 9.3 mph SE15.0 kmh SE 12.0 mph19.3 kmh 29.93 in1013.5 mb 0.00 in0.0 mm 0.00 in0.0 mm 0.00 in0.0 mm
01:09 AM 29.4°F-1.4°C 25.2°F-3.8°C 84% 8.2 mph SE13.2 kmh SE 11.0 mph17.7 kmh 29.93 in1013.5 mb 0.00 in0.0 mm 0.00 in0.0 mm 0.00 in0.0 mm
01:10 AM 29.4°F-1.4°C 25.5°F-3.6°C 85% 7.6 mph SE12.2 kmh SE 11.0 mph17.7 kmh 29.93 in1013.5 mb 0.00 in0.0 mm 0.00 in0.0 mm 0.00 in0.0 mm
01:11 AM 29.4°F-1.4°C 25.2°F-3.8°C 84% 7.4 mph SE11.9 kmh SE 11.0 mph17.7 kmh 29.93 in1013.5 mb 0.00 in0.0 mm 0.00 in0.0 mm 0.00 in0.0 mm
01:12 AM 29.4°F-1.4°C 25.5°F-3.6°C 85% 8.2 mph SE13.2 kmh SE 12.0 mph19.3 kmh 29.93 in1013.5 mb 0.00 in0.0 mm 0.00 in0.0 mm 0.00 in0.0 mm
01:13 AM 29.4°F-1.4°C 25.5°F-3.6°C 85% 7.5 mph SE12.1 kmh SE 12.0 mph19.3 kmh 29.93 in1013.5 mb 0.00 in0.0 mm 0.00 in0.0 mm 0.00 in0.0 mm
01:14 AM 29.4°F-1.4°C 25.5°F-3.6°C 85% 8.3 mph SE13.4 kmh SE 12.0 mph19.3 kmh 29.93 in1013.5 mb 0.00 in0.0 mm 0.00 in0.0 mm 0.00 in0.0 mm
01:15 AM 29.4°F-1.4°C 25.5°F-3.6°C 85% 10.6 mph SE17.1 kmh SE 13.0 mph20.9 kmh 29.93 in1013.5 mb 0.00 in0.0 mm 0.00 in0.0 mm 0.00 in0.0 mm
01:16 AM 29.4°F-1.4°C 25.5°F-3.6°C 85% 9.9 mph SE15.9 kmh SE 14.0 mph22.5 kmh 29.93 in1013.5 mb 0.00 in0.0 mm 0.00 in0.0 mm 0.00 in0.0 mm
01:17 AM 29.4°F-1.4°C 25.5°F-3.6°C 85% 10.2 mph SE16.4 kmh SE 14.0 mph22.5 kmh 29.93 in1013.5 mb 0.00 in0.0 mm 0.00 in0.0 mm 0.00 in0.0 mm
01:18 AM 29.4°F-1.4°C 25.5°F-3.6°C 85% 10.0 mph SE16.1 kmh SE 13.0 mph20.9 kmh 29.93 in1013.5 mb 0.00 in0.0 mm 0.00 in0.0 mm 0.00 in0.0 mm
01:19 AM 29.4°F-1.4°C 25.5°F-3.6°C 85% 8.5 mph SE13.7 kmh SE 13.0 mph20.9 kmh 29.93 in1013.5 mb 0.00 in0.0 mm 0.00 in0.0 mm 0.00 in0.0 mm
01:20 AM 29.4°F-1.4°C 25.5°F-3.6°C 85% 9.5 mph SE15.3 kmh SE 13.0 mph20.9 kmh 29.93 in1013.5 mb 0.00 in0.0 mm 0.00 in0.0 mm 0.00 in0.0 mm
01:21 AM 29.4°F-1.4°C 25.5°F-3.6°C 85% 11.3 mph SE18.2 kmh SE 15.0 mph24.1 kmh 29.93 in1013.5 mb 0.00 in0.0 mm 0.00 in0.0 mm 0.00 in0.0 mm
01:22 AM 29.4°F-1.4°C 25.5°F-3.6°C 85% 9.6 mph SE15.4 kmh SE 15.0 mph24.1 kmh 29.93 in1013.5 mb 0.00 in0.0 mm 0.00 in0.0 mm 0.00 in0.0 mm
01:23 AM 29.4°F-1.4°C 25.5°F-3.6°C 85% 8.0 mph SE12.9 kmh SE 14.0 mph22.5 kmh 29.93 in1013.5 mb 0.00 in0.0 mm 0.00 in0.0 mm 0.00 in0.0 mm
01:24 AM 29.4°F-1.4°C 25.5°F-3.6°C 85% 10.9 mph SE17.5 kmh SE 15.0 mph24.1 kmh 29.93 in1013.5 mb 0.00 in0.0 mm 0.00 in0.0 mm 0.00 in0.0 mm
01:25 AM 29.5°F-1.4°C 25.6°F-3.6°C 85% 10.8 mph SE17.4 kmh SE 15.0 mph24.1 kmh 29.93 in1013.5 mb 0.00 in0.0 mm 0.00 in0.0 mm 0.00 in0.0 mm
01:26 AM 29.5°F-1.4°C 25.6°F-3.6°C 85% 9.8 mph SE15.8 kmh SE 14.0 mph22.5 kmh 29.93 in1013.5 mb 0.00 in0.0 mm 0.00 in0.0 mm 0.00 in0.0 mm
01:27 AM 29.5°F-1.4°C 25.6°F-3.6°C 85% 10.5 mph SE16.9 kmh SE 14.0 mph22.5 kmh 29.93 in1013.5 mb 0.00 in0.0 mm 0.00 in0.0 mm 0.00 in0.0 mm
01:28 AM 29.5°F-1.4°C 25.6°F-3.6°C 85% 8.2 mph SE13.2 kmh SE 14.0 mph22.5 kmh 29.93 in1013.5 mb 0.00 in0.0 mm 0.00 in0.0 mm 0.00 in0.0 mm
01:29 AM 29.5°F-1.4°C 25.6°F-3.6°C 85% 10.8 mph SE17.4 kmh SE 16.0 mph25.7 kmh 29.93 in1013.5 mb 0.00 in0.0 mm 0.00 in0.0 mm 0.00 in0.0 mm
01:30 AM 29.6°F-1.3°C 25.7°F-3.5°C 85% 10.6 mph SE17.1 kmh SE 16.0 mph25.7 kmh 29.93 in1013.5 mb 0.00 in0.0 mm 0.00 in0.0 mm 0.00 in0.0 mm
01:31 AM 29.6°F-1.3°C 25.7°F-3.5°C 85% 9.2 mph SE14.8 kmh SE 14.0 mph22.5 kmh 29.93 in1013.5 mb 0.00 in0.0 mm 0.00 in0.0 mm 0.00 in0.0 mm
01:32 AM 29.6°F-1.3°C 25.7°F-3.5°C 85% 8.7 mph SE14.0 kmh SE 12.0 mph19.3 kmh 29.93 in1013.5 mb 0.00 in0.0 mm 0.00 in0.0 mm 0.00 in0.0 mm
01:33 AM 29.6°F-1.3°C 25.7°F-3.5°C 85% 12.2 mph SE19.6 kmh SE 15.0 mph24.1 kmh 29.93 in1013.5 mb 0.00 in0.0 mm 0.00 in0.0 mm 0.00 in0.0 mm
01:34 AM 29.6°F-1.3°C 25.7°F-3.5°C 85% 11.2 mph SE18.0 kmh SE 16.0 mph25.7 kmh 29.93 in1013.5 mb 0.00 in0.0 mm 0.00 in0.0 mm 0.00 in0.0 mm
01:35 AM 29.6°F-1.3°C 25.7°F-3.5°C 85% 11.3 mph SE18.2 kmh SE 16.0 mph25.7 kmh 29.93 in1013.5 mb 0.00 in0.0 mm 0.00 in0.0 mm 0.00 in0.0 mm
01:36 AM 29.6°F-1.3°C 25.7°F-3.5°C 85% 8.7 mph SE14.0 kmh SE 14.0 mph22.5 kmh 29.93 in1013.5 mb 0.00 in0.0 mm 0.00 in0.0 mm 0.00 in0.0 mm
01:37 AM 29.6°F-1.3°C 25.7°F-3.5°C 85% 8.7 mph SE14.0 kmh SE 13.0 mph20.9 kmh 29.93 in1013.5 mb 0.00 in0.0 mm 0.00 in0.0 mm 0.00 in0.0 mm
01:38 AM 29.6°F-1.3°C 25.7°F-3.5°C 85% 9.9 mph SE15.9 kmh SE 13.0 mph20.9 kmh 29.93 in1013.5 mb 0.00 in0.0 mm 0.00 in0.0 mm 0.00 in0.0 mm
01:39 AM 29.6°F-1.3°C 25.7°F-3.5°C 85% 9.5 mph SE15.3 kmh SE 13.0 mph20.9 kmh 29.93 in1013.5 mb 0.00 in0.0 mm 0.00 in0.0 mm 0.00 in0.0 mm
01:40 AM 29.6°F-1.3°C 25.7°F-3.5°C 85% 10.8 mph SE17.4 kmh SE 13.0 mph20.9 kmh 29.93 in1013.5 mb 0.00 in0.0 mm 0.00 in0.0 mm 0.00 in0.0 mm
01:41 AM 29.6°F-1.3°C 25.7°F-3.5°C 85% 7.7 mph SE12.4 kmh SE 13.0 mph20.9 kmh 29.93 in1013.5 mb 0.00 in0.0 mm 0.00 in0.0 mm 0.00 in0.0 mm
01:42 AM 29.6°F-1.3°C 25.7°F-3.5°C 85% 8.3 mph SE13.4 kmh SE 11.0 mph17.7 kmh 29.93 in1013.5 mb 0.00 in0.0 mm 0.00 in0.0 mm 0.00 in0.0 mm
01:43 AM 29.6°F-1.3°C 25.7°F-3.5°C 85% 9.8 mph SE15.8 kmh SE 13.0 mph20.9 kmh 29.93 in1013.5 mb 0.00 in0.0 mm 0.00 in0.0 mm 0.00 in0.0 mm
01:44 AM 29.6°F-1.3°C 25.7°F-3.5°C 85% 9.1 mph SE14.6 kmh SE 14.0 mph22.5 kmh 29.93 in1013.5 mb 0.00 in0.0 mm 0.00 in0.0 mm 0.00 in0.0 mm
01:45 AM 29.6°F-1.3°C 25.7°F-3.5°C 85% 8.6 mph SE13.8 kmh SE 14.0 mph22.5 kmh 29.93 in1013.5 mb 0.00 in0.0 mm 0.00 in0.0 mm 0.00 in0.0 mm
01:46 AM 29.6°F-1.3°C 25.7°F-3.5°C 85% 6.9 mph SE11.1 kmh SE 13.0 mph20.9 kmh 29.93 in1013.5 mb 0.00 in0.0 mm 0.00 in0.0 mm 0.00 in0.0 mm
01:47 AM 29.5°F-1.4°C 25.6°F-3.6°C 85% 9.4 mph SE15.1 kmh SE 12.0 mph19.3 kmh 29.93 in1013.5 mb 0.00 in0.0 mm 0.00 in0.0 mm 0.00 in0.0 mm
01:48 AM 29.5°F-1.4°C 25.6°F-3.6°C 85% 8.5 mph SE13.7 kmh SE 14.0 mph22.5 kmh 29.93 in1013.5 mb 0.00 in0.0 mm 0.00 in0.0 mm 0.00 in0.0 mm
01:49 AM 29.5°F-1.4°C 25.6°F-3.6°C 85% 10.9 mph SE17.5 kmh SE 14.0 mph22.5 kmh 29.93 in1013.5 mb 0.00 in0.0 mm 0.00 in0.0 mm 0.00 in0.0 mm
01:50 AM 29.6°F-1.3°C 25.7°F-3.5°C 85% 8.6 mph SE13.8 kmh SE 14.0 mph22.5 kmh 29.93 in1013.5 mb 0.00 in0.0 mm 0.00 in0.0 mm 0.00 in0.0 mm
01:51 AM 29.5°F-1.4°C 25.6°F-3.6°C 85% 9.9 mph SE15.9 kmh SE 14.0 mph22.5 kmh 29.93 in1013.5 mb 0.00 in0.0 mm 0.00 in0.0 mm 0.00 in0.0 mm
01:52 AM 29.6°F-1.3°C 25.7°F-3.5°C 85% 8.5 mph SE13.7 kmh SE 14.0 mph22.5 kmh 29.93 in1013.5 mb 0.00 in0.0 mm 0.00 in0.0 mm 0.00 in0.0 mm
01:53 AM 29.6°F-1.3°C 25.7°F-3.5°C 85% 8.2 mph SE13.2 kmh SE 11.0 mph17.7 kmh 29.93 in1013.5 mb 0.00 in0.0 mm 0.00 in0.0 mm 0.00 in0.0 mm
01:54 AM 29.5°F-1.4°C 25.6°F-3.6°C 85% 9.5 mph SE15.3 kmh SE 14.0 mph22.5 kmh 29.93 in1013.5 mb 0.00 in0.0 mm 0.00 in0.0 mm 0.00 in0.0 mm
01:55 AM 29.6°F-1.3°C 25.7°F-3.5°C 85% 9.6 mph SE15.4 kmh SE 15.0 mph24.1 kmh 29.93 in1013.5 mb 0.00 in0.0 mm 0.00 in0.0 mm 0.00 in0.0 mm
01:56 AM 29.6°F-1.3°C 25.7°F-3.5°C 85% 7.6 mph SE12.2 kmh SE 15.0 mph24.1 kmh 29.93 in1013.5 mb 0.00 in0.0 mm 0.00 in0.0 mm 0.00 in0.0 mm
01:57 AM 29.6°F-1.3°C 25.7°F-3.5°C 85% 9.8 mph SE15.8 kmh SE 16.0 mph25.7 kmh 29.93 in1013.5 mb 0.00 in0.0 mm 0.00 in0.0 mm 0.00 in0.0 mm
01:58 AM 29.6°F-1.3°C 25.7°F-3.5°C 85% 9.6 mph SE15.4 kmh SE 16.0 mph25.7 kmh 29.93 in1013.5 mb 0.00 in0.0 mm 0.00 in0.0 mm 0.00 in0.0 mm
01:59 AM 29.6°F-1.3°C 25.7°F-3.5°C 85% 9.5 mph SE15.3 kmh SE 13.0 mph20.9 kmh 29.93 in1013.5 mb 0.00 in0.0 mm 0.00 in0.0 mm 0.00 in0.0 mm
02:00 AM 29.6°F-1.3°C 25.7°F-3.5°C 85% 8.8 mph SE14.2 kmh SE 13.0 mph20.9 kmh 29.93 in1013.5 mb 0.00 in0.0 mm 0.00 in0.0 mm 0.00 in0.0 mm
02:01 AM 29.6°F-1.3°C 25.7°F-3.5°C 85% 11.1 mph SE17.9 kmh SE 14.0 mph22.5 kmh 29.93 in1013.5 mb 0.00 in0.0 mm 0.00 in0.0 mm 0.00 in0.0 mm
02:02 AM 29.6°F-1.3°C 25.7°F-3.5°C 85% 9.4 mph SE15.1 kmh SE 14.0 mph22.5 kmh 29.93 in1013.5 mb 0.00 in0.0 mm 0.00 in0.0 mm 0.00 in0.0 mm
02:03 AM 29.6°F-1.3°C 25.7°F-3.5°C 85% 8.2 mph SE13.2 kmh SE 13.0 mph20.9 kmh 29.93 in1013.5 mb 0.00 in0.0 mm 0.00 in0.0 mm 0.00 in0.0 mm
02:04 AM 29.6°F-1.3°C 25.7°F-3.5°C 85% 8.4 mph SE13.5 kmh SE 11.0 mph17.7 kmh 29.93 in1013.5 mb 0.00 in0.0 mm 0.00 in0.0 mm 0.00 in0.0 mm
02:05 AM 29.6°F-1.3°C 25.7°F-3.5°C 85% 7.2 mph SE11.6 kmh SE 12.0 mph19.3 kmh 29.93 in1013.5 mb 0.00 in0.0 mm 0.00 in0.0 mm 0.00 in0.0 mm
02:06 AM 29.6°F-1.3°C 25.7°F-3.5°C 85% 9.3 mph SE15.0 kmh SE 12.0 mph19.3 kmh 29.93 in1013.5 mb 0.00 in0.0 mm 0.00 in0.0 mm 0.00 in0.0 mm
02:07 AM 29.6°F-1.3°C 25.7°F-3.5°C 85% 6.5 mph SE10.5 kmh SE 12.0 mph19.3 kmh 29.93 in1013.5 mb 0.00 in0.0 mm 0.00 in0.0 mm 0.00 in0.0 mm
02:08 AM 29.6°F-1.3°C 25.7°F-3.5°C 85% 7.9 mph SE12.7 kmh SE 12.0 mph19.3 kmh 29.93 in1013.5 mb 0.00 in0.0 mm 0.00 in0.0 mm 0.00 in0.0 mm
02:09 AM 29.6°F-1.3°C 25.7°F-3.5°C 85% 7.6 mph SE12.2 kmh SE 11.0 mph17.7 kmh 29.93 in1013.5 mb 0.00 in0.0 mm 0.00 in0.0 mm 0.00 in0.0 mm
02:10 AM 29.6°F-1.3°C 25.7°F-3.5°C 85% 7.9 mph SE12.7 kmh SE 11.0 mph17.7 kmh 29.93 in1013.5 mb 0.00 in0.0 mm 0.00 in0.0 mm 0.00 in0.0 mm
02:11 AM 29.6°F-1.3°C 25.7°F-3.5°C 85% 8.3 mph SE13.4 kmh SE 11.0 mph17.7 kmh 29.93 in1013.5 mb 0.00 in0.0 mm 0.00 in0.0 mm 0.00 in0.0 mm
02:12 AM 29.6°F-1.3°C 25.7°F-3.5°C 85% 8.0 mph SE12.9 kmh SE 11.0 mph17.7 kmh 29.93 in1013.5 mb 0.00 in0.0 mm 0.00 in0.0 mm 0.00 in0.0 mm
02:13 AM 29.6°F-1.3°C 25.7°F-3.5°C 85% 8.7 mph SE14.0 kmh SE 12.0 mph19.3 kmh 29.93 in1013.5 mb 0.00 in0.0 mm 0.00 in0.0 mm 0.00 in0.0 mm
02:14 AM 29.6°F-1.3°C 25.7°F-3.5°C 85% 8.6 mph SE13.8 kmh SE 12.0 mph19.3 kmh 29.93 in1013.5 mb 0.00 in0.0 mm 0.00 in0.0 mm 0.00 in0.0 mm
02:15 AM 29.6°F-1.3°C 25.7°F-3.5°C 85% 7.2 mph SE11.6 kmh SE 11.0 mph17.7 kmh 29.93 in1013.5 mb 0.00 in0.0 mm 0.00 in0.0 mm 0.00 in0.0 mm
02:16 AM 29.6°F-1.3°C 25.7°F-3.5°C 85% 9.4 mph SE15.1 kmh SE 12.0 mph19.3 kmh 29.93 in1013.5 mb 0.00 in0.0 mm 0.00 in0.0 mm 0.00 in0.0 mm
02:17 AM 29.6°F-1.3°C 25.7°F-3.5°C 85% 8.2 mph SE13.2 kmh SE 12.0 mph19.3 kmh 29.93 in1013.5 mb 0.00 in0.0 mm 0.00 in0.0 mm 0.00 in0.0 mm
02:18 AM 29.6°F-1.3°C 25.7°F-3.5°C 85% 8.1 mph SE13.0 kmh SE 11.0 mph17.7 kmh 29.93 in1013.5 mb 0.00 in0.0 mm 0.00 in0.0 mm 0.00 in0.0 mm
02:19 AM 29.6°F-1.3°C 25.7°F-3.5°C 85% 9.4 mph SE15.1 kmh SE 12.0 mph19.3 kmh 29.93 in1013.5 mb 0.00 in0.0 mm 0.00 in0.0 mm 0.00 in0.0 mm
02:20 AM 29.6°F-1.3°C 25.7°F-3.5°C 85% 8.5 mph SE13.7 kmh SE 12.0 mph19.3 kmh 29.93 in1013.5 mb 0.00 in0.0 mm 0.00 in0.0 mm 0.00 in0.0 mm
02:21 AM 29.6°F-1.3°C 25.7°F-3.5°C 85% 9.6 mph SE15.4 kmh SE 13.0 mph20.9 kmh 29.93 in1013.5 mb 0.00 in0.0 mm 0.00 in0.0 mm 0.00 in0.0 mm
02:22 AM 29.6°F-1.3°C 25.7°F-3.5°C 85% 9.0 mph SE14.5 kmh SE 13.0 mph20.9 kmh 29.93 in1013.5 mb 0.00 in0.0 mm 0.00 in0.0 mm 0.00 in0.0 mm
02:23 AM 29.6°F-1.3°C 25.7°F-3.5°C 85% 9.7 mph SE15.6 kmh SE 12.0 mph19.3 kmh 29.93 in1013.5 mb 0.00 in0.0 mm 0.00 in0.0 mm 0.00 in0.0 mm
02:24 AM 29.6°F-1.3°C 25.7°F-3.5°C 85% 10.7 mph SE17.2 kmh SE 16.0 mph25.7 kmh 29.93 in1013.5 mb 0.00 in0.0 mm 0.00 in0.0 mm 0.00 in0.0 mm
02:25 AM 29.6°F-1.3°C 25.7°F-3.5°C 85% 9.3 mph SE15.0 kmh SE 16.0 mph25.7 kmh 29.93 in1013.5 mb 0.00 in0.0 mm 0.00 in0.0 mm 0.00 in0.0 mm
02:26 AM 29.6°F-1.3°C 25.4°F-3.7°C 84% 8.8 mph SE14.2 kmh SE 13.0 mph20.9 kmh 29.93 in1013.5 mb 0.00 in0.0 mm 0.00 in0.0 mm 0.00 in0.0 mm
02:27 AM 29.6°F-1.3°C 25.4°F-3.7°C 84% 10.4 mph SE16.7 kmh SE 13.0 mph20.9 kmh 29.93 in1013.5 mb 0.00 in0.0 mm 0.00 in0.0 mm 0.00 in0.0 mm
02:28 AM 29.6°F-1.3°C 25.4°F-3.7°C 84% 8.1 mph SE13.0 kmh SE 13.0 mph20.9 kmh 29.93 in1013.5 mb 0.00 in0.0 mm 0.00 in0.0 mm 0.00 in0.0 mm
02:29 AM 29.6°F-1.3°C 25.4°F-3.7°C 84% 7.5 mph SE12.1 kmh SE 13.0 mph20.9 kmh 29.93 in1013.5 mb 0.00 in0.0 mm 0.00 in0.0 mm 0.00 in0.0 mm
02:30 AM 29.6°F-1.3°C 25.4°F-3.7°C 84% 7.2 mph SE11.6 kmh SE 11.0 mph17.7 kmh 29.93 in1013.5 mb 0.00 in0.0 mm 0.00 in0.0 mm 0.00 in0.0 mm
02:31 AM 29.6°F-1.3°C 25.4°F-3.7°C 84% 8.3 mph SE13.4 kmh SE 12.0 mph19.3 kmh 29.93 in1013.5 mb 0.00 in0.0 mm 0.00 in0.0 mm 0.00 in0.0 mm
02:32 AM 29.6°F-1.3°C 25.4°F-3.7°C 84% 7.8 mph SE12.6 kmh SE 11.0 mph17.7 kmh 29.93 in1013.5 mb 0.00 in0.0 mm 0.00 in0.0 mm 0.00 in0.0 mm
02:33 AM 29.6°F-1.3°C 25.4°F-3.7°C 84% 10.4 mph SE16.7 kmh SE 14.0 mph22.5 kmh 29.93 in1013.5 mb 0.00 in0.0 mm 0.00 in0.0 mm 0.00 in0.0 mm
02:34 AM 29.6°F-1.3°C 25.4°F-3.7°C 84% 8.0 mph SE12.9 kmh SE 14.0 mph22.5 kmh 29.93 in1013.5 mb 0.00 in0.0 mm 0.00 in0.0 mm 0.00 in0.0 mm
02:35 AM 29.6°F-1.3°C 25.4°F-3.7°C 84% 7.6 mph SE12.2 kmh SE 12.0 mph19.3 kmh 29.93 in1013.5 mb 0.00 in0.0 mm 0.00 in0.0 mm 0.00 in0.0 mm
02:36 AM 29.6°F-1.3°C 25.4°F-3.7°C 84% 10.5 mph SE16.9 kmh SE 15.0 mph24.1 kmh 29.93 in1013.5 mb 0.00 in0.0 mm 0.00 in0.0 mm 0.00 in0.0 mm
02:37 AM 29.6°F-1.3°C 25.4°F-3.7°C 84% 9.9 mph SE15.9 kmh SE 15.0 mph24.1 kmh 29.93 in1013.5 mb 0.00 in0.0 mm 0.00 in0.0 mm 0.00 in0.0 mm
02:38 AM 29.5°F-1.4°C 25.3°F-3.7°C 84% 7.5 mph SE12.1 kmh SE 12.0 mph19.3 kmh 29.93 in1013.5 mb 0.00 in0.0 mm 0.00 in0.0 mm 0.00 in0.0 mm
02:39 AM 29.6°F-1.3°C 25.4°F-3.7°C 84% 6.7 mph SE10.8 kmh SE 11.0 mph17.7 kmh 29.93 in1013.5 mb 0.00 in0.0 mm 0.00 in0.0 mm 0.00 in0.0 mm
02:40 AM 29.5°F-1.4°C 25.3°F-3.7°C 84% 10.0 mph SE16.1 kmh SE 13.0 mph20.9 kmh 29.93 in1013.5 mb 0.00 in0.0 mm 0.00 in0.0 mm 0.00 in0.0 mm
02:41 AM 29.5°F-1.4°C 25.3°F-3.7°C 84% 8.5 mph SE13.7 kmh SE 13.0 mph20.9 kmh 29.93 in1013.5 mb 0.00 in0.0 mm 0.00 in0.0 mm 0.00 in0.0 mm
02:42 AM 29.6°F-1.3°C 25.4°F-3.7°C 84% 8.6 mph SE13.8 kmh SE 12.0 mph19.3 kmh 29.93 in1013.5 mb 0.00 in0.0 mm 0.00 in0.0 mm 0.00 in0.0 mm
02:43 AM 29.6°F-1.3°C 25.4°F-3.7°C 84% 7.8 mph SE12.6 kmh SE 11.0 mph17.7 kmh 29.93 in1013.5 mb 0.00 in0.0 mm 0.00 in0.0 mm 0.00 in0.0 mm
02:44 AM 29.5°F-1.4°C 25.3°F-3.7°C 84% 8.4 mph SE13.5 kmh SE 12.0 mph19.3 kmh 29.93 in1013.5 mb 0.00 in0.0 mm 0.00 in0.0 mm 0.00 in0.0 mm
02:45 AM 29.5°F-1.4°C 25.3°F-3.7°C 84% 10.5 mph SE16.9 kmh SE 14.0 mph22.5 kmh 29.93 in1013.5 mb 0.00 in0.0 mm 0.00 in0.0 mm 0.00 in0.0 mm
02:46 AM 29.5°F-1.4°C 25.3°F-3.7°C 84% 8.4 mph SE13.5 kmh SE 14.0 mph22.5 kmh 29.93 in1013.5 mb 0.00 in0.0 mm 0.00 in0.0 mm 0.00 in0.0 mm
02:47 AM 29.5°F-1.4°C 25.3°F-3.7°C 84% 9.6 mph SE15.4 kmh SE 13.0 mph20.9 kmh 29.93 in1013.5 mb 0.00 in0.0 mm 0.00 in0.0 mm 0.00 in0.0 mm
02:48 AM 29.5°F-1.4°C 25.3°F-3.7°C 84% 7.8 mph SE12.6 kmh SE 13.0 mph20.9 kmh 29.93 in1013.5 mb 0.00 in0.0 mm 0.00 in0.0 mm 0.00 in0.0 mm
02:49 AM 29.4°F-1.4°C 25.2°F-3.8°C 84% 7.1 mph SE11.4 kmh SE 10.0 mph16.1 kmh 29.93 in1013.5 mb 0.00 in0.0 mm 0.00 in0.0 mm 0.00 in0.0 mm
02:50 AM 29.5°F-1.4°C 25.3°F-3.7°C 84% 8.3 mph SE13.4 kmh SE 12.0 mph19.3 kmh 29.93 in1013.5 mb 0.00 in0.0 mm 0.00 in0.0 mm 0.00 in0.0 mm
02:51 AM 29.5°F-1.4°C 25.3°F-3.7°C 84% 9.6 mph SE15.4 kmh SE 13.0 mph20.9 kmh 29.93 in1013.5 mb 0.00 in0.0 mm 0.00 in0.0 mm 0.00 in0.0 mm
02:52 AM 29.5°F-1.4°C 25.3°F-3.7°C 84% 10.0 mph SE16.1 kmh SE 13.0 mph20.9 kmh 29.93 in1013.5 mb 0.00 in0.0 mm 0.00 in0.0 mm 0.00 in0.0 mm
02:53 AM 29.5°F-1.4°C 25.3°F-3.7°C 84% 6.8 mph SE10.9 kmh SE 12.0 mph19.3 kmh 29.93 in1013.5 mb 0.00 in0.0 mm 0.00 in0.0 mm 0.00 in0.0 mm
02:54 AM 29.5°F-1.4°C 25.3°F-3.7°C 84% 9.4 mph SE15.1 kmh SE 13.0 mph20.9 kmh 29.93 in1013.5 mb 0.00 in0.0 mm 0.00 in0.0 mm 0.00 in0.0 mm
02:55 AM 29.5°F-1.4°C 25.3°F-3.7°C 84% 6.9 mph SE11.1 kmh SE 13.0 mph20.9 kmh 29.93 in1013.5 mb 0.00 in0.0 mm 0.00 in0.0 mm 0.00 in0.0 mm
02:56 AM 29.5°F-1.4°C 25.3°F-3.7°C 84% 8.2 mph SE13.2 kmh SE 10.0 mph16.1 kmh 29.93 in1013.5 mb 0.00 in0.0 mm 0.00 in0.0 mm 0.00 in0.0 mm
02:57 AM 29.4°F-1.4°C 25.2°F-3.8°C 84% 8.7 mph SE14.0 kmh SE 12.0 mph19.3 kmh 29.93 in1013.5 mb 0.00 in0.0 mm 0.00 in0.0 mm 0.00 in0.0 mm
02:58 AM 29.4°F-1.4°C 25.2°F-3.8°C 84% 9.5 mph SE15.3 kmh SE 14.0 mph22.5 kmh 29.93 in1013.5 mb 0.00 in0.0 mm 0.00 in0.0 mm 0.00 in0.0 mm
02:59 AM 29.4°F-1.4°C 25.2°F-3.8°C 84% 8.1 mph SE13.0 kmh SE 14.0 mph22.5 kmh 29.93 in1013.5 mb 0.00 in0.0 mm 0.00 in0.0 mm 0.00 in0.0 mm
03:00 AM 29.4°F-1.4°C 25.2°F-3.8°C 84% 9.0 mph SE14.5 kmh SE 12.0 mph19.3 kmh 29.93 in1013.5 mb 0.00 in0.0 mm 0.00 in0.0 mm 0.00 in0.0 mm
03:01 AM 29.4°F-1.4°C 25.2°F-3.8°C 84% 9.5 mph SE15.3 kmh SE 12.0 mph19.3 kmh 29.93 in1013.5 mb 0.00 in0.0 mm 0.00 in0.0 mm 0.00 in0.0 mm
03:02 AM 29.4°F-1.4°C 25.2°F-3.8°C 84% 8.8 mph SE14.2 kmh SE 12.0 mph19.3 kmh 29.93 in1013.5 mb 0.00 in0.0 mm 0.00 in0.0 mm 0.00 in0.0 mm
03:03 AM 29.4°F-1.4°C 25.2°F-3.8°C 84% 7.9 mph SE12.7 kmh SE 12.0 mph19.3 kmh 29.93 in1013.5 mb 0.00 in0.0 mm 0.00 in0.0 mm 0.00 in0.0 mm
03:04 AM 29.4°F-1.4°C 25.2°F-3.8°C 84% 8.8 mph SE14.2 kmh SE 11.0 mph17.7 kmh 29.93 in1013.5 mb 0.00 in0.0 mm 0.00 in0.0 mm 0.00 in0.0 mm
03:05 AM 29.4°F-1.4°C 25.2°F-3.8°C 84% 7.0 mph SE11.3 kmh SE 12.0 mph19.3 kmh 29.93 in1013.5 mb 0.00 in0.0 mm 0.00 in0.0 mm 0.00 in0.0 mm
03:06 AM 29.4°F-1.4°C 25.2°F-3.8°C 84% 8.3 mph SE13.4 kmh SE 12.0 mph19.3 kmh 29.93 in1013.5 mb 0.00 in0.0 mm 0.00 in0.0 mm 0.00 in0.0 mm
03:07 AM 29.4°F-1.4°C 25.2°F-3.8°C 84% 8.4 mph SE13.5 kmh SE 12.0 mph19.3 kmh 29.93 in1013.5 mb 0.00 in0.0 mm 0.00 in0.0 mm 0.00 in0.0 mm
03:08 AM 29.3°F-1.5°C 25.1°F-3.8°C 84% 9.5 mph SE15.3 kmh SE 13.0 mph20.9 kmh 29.93 in1013.5 mb 0.00 in0.0 mm 0.00 in0.0 mm 0.00 in0.0 mm
03:09 AM 29.4°F-1.4°C 25.2°F-3.8°C 84% 7.9 mph SE12.7 kmh SE 13.0 mph20.9 kmh 29.93 in1013.5 mb 0.00 in0.0 mm 0.00 in0.0 mm 0.00 in0.0 mm
03:10 AM 29.3°F-1.5°C 25.1°F-3.8°C 84% 9.3 mph SE15.0 kmh SE 13.0 mph20.9 kmh 29.93 in1013.5 mb 0.00 in0.0 mm 0.00 in0.0 mm 0.00 in0.0 mm
03:11 AM 29.3°F-1.5°C 25.1°F-3.8°C 84% 8.4 mph SE13.5 kmh SE 13.0 mph20.9 kmh 29.93 in1013.5 mb 0.00 in0.0 mm 0.00 in0.0 mm 0.00 in0.0 mm
03:12 AM 29.3°F-1.5°C 25.1°F-3.8°C 84% 10.4 mph SE16.7 kmh SE 16.0 mph25.7 kmh 29.93 in1013.5 mb 0.00 in0.0 mm 0.00 in0.0 mm 0.00 in0.0 mm
03:13 AM 29.3°F-1.5°C 25.1°F-3.8°C 84% 12.0 mph SE19.3 kmh SE 16.0 mph25.7 kmh 29.93 in1013.5 mb 0.00 in0.0 mm 0.00 in0.0 mm 0.00 in0.0 mm
03:14 AM 29.3°F-1.5°C 25.1°F-3.8°C 84% 8.6 mph SE13.8 kmh SE 16.0 mph25.7 kmh 29.93 in1013.5 mb 0.00 in0.0 mm 0.00 in0.0 mm 0.00 in0.0 mm
03:15 AM 29.3°F-1.5°C 25.1°F-3.8°C 84% 7.9 mph SE12.7 kmh SE 11.0 mph17.7 kmh 29.93 in1013.5 mb 0.00 in0.0 mm 0.00 in0.0 mm 0.00 in0.0 mm
03:16 AM 29.3°F-1.5°C 25.1°F-3.8°C 84% 7.1 mph SE11.4 kmh SE 12.0 mph19.3 kmh 29.93 in1013.5 mb 0.00 in0.0 mm 0.00 in0.0 mm 0.00 in0.0 mm
03:17 AM 29.3°F-1.5°C 25.1°F-3.8°C 84% 10.1 mph SE16.3 kmh SE 13.0 mph20.9 kmh 29.93 in1013.5 mb 0.00 in0.0 mm 0.00 in0.0 mm 0.00 in0.0 mm
03:18 AM 29.3°F-1.5°C 25.1°F-3.8°C 84% 9.2 mph SE14.8 kmh SE 13.0 mph20.9 kmh 29.93 in1013.5 mb 0.00 in0.0 mm 0.00 in0.0 mm 0.00 in0.0 mm
03:19 AM 29.3°F-1.5°C 25.1°F-3.8°C 84% 7.9 mph SE12.7 kmh SE 13.0 mph20.9 kmh 29.93 in1013.5 mb 0.00 in0.0 mm 0.00 in0.0 mm 0.00 in0.0 mm
03:20 AM 29.3°F-1.5°C 25.1°F-3.8°C 84% 9.2 mph SE14.8 kmh SE 13.0 mph20.9 kmh 29.93 in1013.5 mb 0.00 in0.0 mm 0.00 in0.0 mm 0.00 in0.0 mm
03:21 AM 29.3°F-1.5°C 25.1°F-3.8°C 84% 9.8 mph SE15.8 kmh SE 13.0 mph20.9 kmh 29.93 in1013.5 mb 0.00 in0.0 mm 0.00 in0.0 mm 0.00 in0.0 mm
03:22 AM 29.3°F-1.5°C 25.1°F-3.8°C 84% 9.1 mph SE14.6 kmh SE 12.0 mph19.3 kmh 29.93 in1013.5 mb 0.00 in0.0 mm 0.00 in0.0 mm 0.00 in0.0 mm
03:23 AM 29.3°F-1.5°C 25.1°F-3.8°C 84% 8.6 mph SE13.8 kmh SE 12.0 mph19.3 kmh 29.93 in1013.5 mb 0.00 in0.0 mm 0.00 in0.0 mm 0.00 in0.0 mm
03:24 AM 29.4°F-1.4°C 25.2°F-3.8°C 84% 8.7 mph SE14.0 kmh SE 11.0 mph17.7 kmh 29.93 in1013.5 mb 0.00 in0.0 mm 0.00 in0.0 mm 0.00 in0.0 mm
03:25 AM 29.3°F-1.5°C 25.1°F-3.8°C 84% 8.1 mph SE13.0 kmh SE 12.0 mph19.3 kmh 29.93 in1013.5 mb 0.00 in0.0 mm 0.00 in0.0 mm 0.00 in0.0 mm
03:26 AM 29.2°F-1.6°C 25.0°F-3.9°C 84% 8.9 mph SE14.3 kmh SE 14.0 mph22.5 kmh 29.93 in1013.5 mb 0.00 in0.0 mm 0.00 in0.0 mm 0.00 in0.0 mm
03:27 AM 29.3°F-1.5°C 25.1°F-3.8°C 84% 10.1 mph SE16.3 kmh SE 14.0 mph22.5 kmh 29.93 in1013.5 mb 0.00 in0.0 mm 0.00 in0.0 mm 0.00 in0.0 mm
03:28 AM 29.2°F-1.6°C 25.0°F-3.9°C 84% 8.8 mph SE14.2 kmh SE 13.0 mph20.9 kmh 29.93 in1013.5 mb 0.00 in0.0 mm 0.00 in0.0 mm 0.00 in0.0 mm
03:29 AM 29.3°F-1.5°C 25.1°F-3.8°C 84% 9.4 mph SE15.1 kmh SE 12.0 mph19.3 kmh 29.93 in1013.5 mb 0.00 in0.0 mm 0.00 in0.0 mm 0.00 in0.0 mm
03:30 AM 29.3°F-1.5°C 25.1°F-3.8°C 84% 7.8 mph SE12.6 kmh SE 13.0 mph20.9 kmh 29.92 in1013.2 mb 0.00 in0.0 mm 0.00 in0.0 mm 0.00 in0.0 mm
03:31 AM 29.3°F-1.5°C 25.1°F-3.8°C 84% 12.0 mph SE19.3 kmh SE 15.0 mph24.1 kmh 29.92 in1013.2 mb 0.00 in0.0 mm 0.00 in0.0 mm 0.00 in0.0 mm
03:32 AM 29.3°F-1.5°C 25.1°F-3.8°C 84% 7.2 mph SE11.6 kmh SE 15.0 mph24.1 kmh 29.92 in1013.2 mb 0.00 in0.0 mm 0.00 in0.0 mm 0.00 in0.0 mm
03:33 AM 29.3°F-1.5°C 25.1°F-3.8°C 84% 8.4 mph SE13.5 kmh SE 11.0 mph17.7 kmh 29.93 in1013.5 mb 0.00 in0.0 mm 0.00 in0.0 mm 0.00 in0.0 mm
03:34 AM 29.2°F-1.6°C 25.0°F-3.9°C 84% 7.2 mph SE11.6 kmh SE 11.0 mph17.7 kmh 29.93 in1013.5 mb 0.00 in0.0 mm 0.00 in0.0 mm 0.00 in0.0 mm
03:35 AM 29.2°F-1.6°C 25.0°F-3.9°C 84% 9.1 mph SE14.6 kmh SE 12.0 mph19.3 kmh 29.93 in1013.5 mb 0.00 in0.0 mm 0.00 in0.0 mm 0.00 in0.0 mm
03:36 AM 29.2°F-1.6°C 25.0°F-3.9°C 84% 9.6 mph SE15.4 kmh SE 14.0 mph22.5 kmh 29.93 in1013.5 mb 0.00 in0.0 mm 0.00 in0.0 mm 0.00 in0.0 mm
03:37 AM 29.2°F-1.6°C 25.0°F-3.9°C 84% 7.8 mph SE12.6 kmh SE 14.0 mph22.5 kmh 29.93 in1013.5 mb 0.00 in0.0 mm 0.00 in0.0 mm 0.00 in0.0 mm
03:38 AM 29.2°F-1.6°C 25.0°F-3.9°C 84% 7.7 mph SE12.4 kmh SE 11.0 mph17.7 kmh 29.93 in1013.5 mb 0.00 in0.0 mm 0.00 in0.0 mm 0.00 in0.0 mm
03:39 AM 29.2°F-1.6°C 25.0°F-3.9°C 84% 7.0 mph SE11.3 kmh SE 11.0 mph17.7 kmh 29.93 in1013.5 mb 0.00 in0.0 mm 0.00 in0.0 mm 0.00 in0.0 mm
03:40 AM 29.2°F-1.6°C 25.0°F-3.9°C 84% 9.4 mph SE15.1 kmh SE 12.0 mph19.3 kmh 29.93 in1013.5 mb 0.00 in0.0 mm 0.00 in0.0 mm 0.00 in0.0 mm
03:41 AM 29.2°F-1.6°C 25.0°F-3.9°C 84% 7.0 mph SE11.3 kmh SE 12.0 mph19.3 kmh 29.93 in1013.5 mb 0.00 in0.0 mm 0.00 in0.0 mm 0.00 in0.0 mm
03:42 AM 29.2°F-1.6°C 25.0°F-3.9°C 84% 8.6 mph SE13.8 kmh SE 12.0 mph19.3 kmh 29.93 in1013.5 mb 0.00 in0.0 mm 0.00 in0.0 mm 0.00 in0.0 mm
03:43 AM 29.1°F-1.6°C 24.9°F-3.9°C 84% 7.9 mph SE12.7 kmh SE 12.0 mph19.3 kmh 29.93 in1013.5 mb 0.00 in0.0 mm 0.00 in0.0 mm 0.00 in0.0 mm
03:44 AM 29.1°F-1.6°C 24.9°F-3.9°C 84% 7.1 mph SE11.4 kmh SE 11.0 mph17.7 kmh 29.93 in1013.5 mb 0.00 in0.0 mm 0.00 in0.0 mm 0.00 in0.0 mm
03:45 AM 29.1°F-1.6°C 24.9°F-3.9°C 84% 9.6 mph SE15.4 kmh SE 12.0 mph19.3 kmh 29.93 in1013.5 mb 0.00 in0.0 mm 0.00 in0.0 mm 0.00 in0.0 mm
03:46 AM 29.1°F-1.6°C 24.9°F-3.9°C 84% 7.4 mph SE11.9 kmh SE 12.0 mph19.3 kmh 29.93 in1013.5 mb 0.00 in0.0 mm 0.00 in0.0 mm 0.00 in0.0 mm
03:47 AM 29.1°F-1.6°C 24.9°F-3.9°C 84% 7.6 mph SE12.2 kmh SE 13.0 mph20.9 kmh 29.92 in1013.2 mb 0.00 in0.0 mm 0.00 in0.0 mm 0.00 in0.0 mm
03:48 AM 29.1°F-1.6°C 24.9°F-3.9°C 84% 9.6 mph SE15.4 kmh SE 13.0 mph20.9 kmh 29.93 in1013.5 mb 0.00 in0.0 mm 0.00 in0.0 mm 0.00 in0.0 mm
03:49 AM 29.1°F-1.6°C 24.9°F-3.9°C 84% 8.7 mph SE14.0 kmh SE 14.0 mph22.5 kmh 29.92 in1013.2 mb 0.00 in0.0 mm 0.00 in0.0 mm 0.00 in0.0 mm
03:50 AM 29.1°F-1.6°C 24.9°F-3.9°C 84% 8.8 mph SE14.2 kmh SE 14.0 mph22.5 kmh 29.92 in1013.2 mb 0.00 in0.0 mm 0.00 in0.0 mm 0.00 in0.0 mm
03:51 AM 29.1°F-1.6°C 24.9°F-3.9°C 84% 8.1 mph SE13.0 kmh SE 11.0 mph17.7 kmh 29.93 in1013.5 mb 0.00 in0.0 mm 0.00 in0.0 mm 0.00 in0.0 mm
03:52 AM 29.1°F-1.6°C 24.9°F-3.9°C 84% 7.5 mph SE12.1 kmh SE 11.0 mph17.7 kmh 29.92 in1013.2 mb 0.00 in0.0 mm 0.00 in0.0 mm 0.00 in0.0 mm
03:53 AM 29.1°F-1.6°C 24.9°F-3.9°C 84% 7.4 mph SE11.9 kmh SE 11.0 mph17.7 kmh 29.92 in1013.2 mb 0.00 in0.0 mm 0.00 in0.0 mm 0.00 in0.0 mm
03:54 AM 29.1°F-1.6°C 24.9°F-3.9°C 84% 7.1 mph SE11.4 kmh SE 14.0 mph22.5 kmh 29.92 in1013.2 mb 0.00 in0.0 mm 0.00 in0.0 mm 0.00 in0.0 mm
03:55 AM 29.1°F-1.6°C 24.9°F-3.9°C 84% 11.1 mph SE17.9 kmh SE 14.0 mph22.5 kmh 29.92 in1013.2 mb 0.00 in0.0 mm 0.00 in0.0 mm 0.00 in0.0 mm
03:56 AM 29.1°F-1.6°C 24.9°F-3.9°C 84% 8.3 mph SE13.4 kmh SE 14.0 mph22.5 kmh 29.92 in1013.2 mb 0.00 in0.0 mm 0.00 in0.0 mm 0.00 in0.0 mm
03:57 AM 29.1°F-1.6°C 24.9°F-3.9°C 84% 6.0 mph SE9.7 kmh SE 11.0 mph17.7 kmh 29.92 in1013.2 mb 0.00 in0.0 mm 0.00 in0.0 mm 0.00 in0.0 mm
03:58 AM 29.1°F-1.6°C 24.9°F-3.9°C 84% 6.8 mph SE10.9 kmh SE 10.0 mph16.1 kmh 29.92 in1013.2 mb 0.00 in0.0 mm 0.00 in0.0 mm 0.00 in0.0 mm
03:59 AM 29.1°F-1.6°C 24.9°F-3.9°C 84% 7.5 mph SE12.1 kmh SE 11.0 mph17.7 kmh 29.92 in1013.2 mb 0.00 in0.0 mm 0.00 in0.0 mm 0.00 in0.0 mm
04:00 AM 29.1°F-1.6°C 24.9°F-3.9°C 84% 10.1 mph SE16.3 kmh SE 14.0 mph22.5 kmh 29.92 in1013.2 mb 0.00 in0.0 mm 0.00 in0.0 mm 0.00 in0.0 mm
04:01 AM 29.1°F-1.6°C 24.9°F-3.9°C 84% 10.0 mph SE16.1 kmh SE 14.0 mph22.5 kmh 29.92 in1013.2 mb 0.00 in0.0 mm 0.00 in0.0 mm 0.00 in0.0 mm
04:02 AM 29.1°F-1.6°C 24.9°F-3.9°C 84% 9.3 mph SE15.0 kmh SE 13.0 mph20.9 kmh 29.92 in1013.2 mb 0.00 in0.0 mm 0.00 in0.0 mm 0.00 in0.0 mm
04:03 AM 29.1°F-1.6°C 24.9°F-3.9°C 84% 9.0 mph SE14.5 kmh SE 15.0 mph24.1 kmh 29.92 in1013.2 mb 0.00 in0.0 mm 0.00 in0.0 mm 0.00 in0.0 mm
04:04 AM 29.1°F-1.6°C 24.9°F-3.9°C 84% 10.5 mph SE16.9 kmh SE 15.0 mph24.1 kmh 29.92 in1013.2 mb 0.00 in0.0 mm 0.00 in0.0 mm 0.00 in0.0 mm
04:05 AM 29.1°F-1.6°C 24.9°F-3.9°C 84% 8.8 mph SE14.2 kmh SE 13.0 mph20.9 kmh 29.92 in1013.2 mb 0.00 in0.0 mm 0.00 in0.0 mm 0.00 in0.0 mm
04:06 AM 29.1°F-1.6°C 24.9°F-3.9°C 84% 8.5 mph SE13.7 kmh SE 12.0 mph19.3 kmh 29.92 in1013.2 mb 0.00 in0.0 mm 0.00 in0.0 mm 0.00 in0.0 mm
04:07 AM 29.1°F-1.6°C 24.9°F-3.9°C 84% 8.8 mph SE14.2 kmh SE 12.0 mph19.3 kmh 29.92 in1013.2 mb 0.00 in0.0 mm 0.00 in0.0 mm 0.00 in0.0 mm
04:08 AM 29.0°F-1.7°C 24.8°F-4.0°C 84% 8.1 mph SE13.0 kmh SE 13.0 mph20.9 kmh 29.92 in1013.2 mb 0.00 in0.0 mm 0.00 in0.0 mm 0.00 in0.0 mm
04:09 AM 29.1°F-1.6°C 24.9°F-3.9°C 84% 9.0 mph SE14.5 kmh SE 13.0 mph20.9 kmh 29.92 in1013.2 mb 0.00 in0.0 mm 0.00 in0.0 mm 0.00 in0.0 mm
04:10 AM 29.1°F-1.6°C 24.9°F-3.9°C 84% 8.0 mph SE12.9 kmh SE 12.0 mph19.3 kmh 29.92 in1013.2 mb 0.00 in0.0 mm 0.00 in0.0 mm 0.00 in0.0 mm
04:11 AM 29.0°F-1.7°C 24.8°F-4.0°C 84% 8.5 mph SE13.7 kmh SE 12.0 mph19.3 kmh 29.92 in1013.2 mb 0.00 in0.0 mm 0.00 in0.0 mm 0.00 in0.0 mm
04:12 AM 29.0°F-1.7°C 24.8°F-4.0°C 84% 7.6 mph SE12.2 kmh SE 12.0 mph19.3 kmh 29.92 in1013.2 mb 0.00 in0.0 mm 0.00 in0.0 mm 0.00 in0.0 mm
04:13 AM 29.1°F-1.6°C 24.9°F-3.9°C 84% 7.1 mph SE11.4 kmh SE 9.0 mph14.5 kmh 29.92 in1013.2 mb 0.00 in0.0 mm 0.00 in0.0 mm 0.00 in0.0 mm
04:14 AM 29.0°F-1.7°C 24.8°F-4.0°C 84% 9.0 mph SE14.5 kmh SE 12.0 mph19.3 kmh 29.92 in1013.2 mb 0.00 in0.0 mm 0.00 in0.0 mm 0.00 in0.0 mm
04:15 AM 29.0°F-1.7°C 24.8°F-4.0°C 84% 9.6 mph SE15.4 kmh SE 13.0 mph20.9 kmh 29.92 in1013.2 mb 0.00 in0.0 mm 0.00 in0.0 mm 0.00 in0.0 mm
04:16 AM 29.0°F-1.7°C 24.8°F-4.0°C 84% 8.7 mph SE14.0 kmh SE 13.0 mph20.9 kmh 29.92 in1013.2 mb 0.00 in0.0 mm 0.00 in0.0 mm 0.00 in0.0 mm
04:17 AM 28.9°F-1.7°C 24.7°F-4.1°C 84% 7.6 mph SE12.2 kmh SE 12.0 mph19.3 kmh 29.92 in1013.2 mb 0.00 in0.0 mm 0.00 in0.0 mm 0.00 in0.0 mm
04:18 AM 29.0°F-1.7°C 24.8°F-4.0°C 84% 9.1 mph SE14.6 kmh SE 12.0 mph19.3 kmh 29.92 in1013.2 mb 0.00 in0.0 mm 0.00 in0.0 mm 0.00 in0.0 mm
04:19 AM 28.9°F-1.7°C 24.7°F-4.1°C 84% 9.6 mph SE15.4 kmh SE 12.0 mph19.3 kmh 29.92 in1013.2 mb 0.00 in0.0 mm 0.00 in0.0 mm 0.00 in0.0 mm
04:20 AM 28.9°F-1.7°C 24.7°F-4.1°C 84% 8.6 mph SE13.8 kmh SE 12.0 mph19.3 kmh 29.92 in1013.2 mb 0.00 in0.0 mm 0.00 in0.0 mm 0.00 in0.0 mm
04:21 AM 28.9°F-1.7°C 24.7°F-4.1°C 84% 9.0 mph SE14.5 kmh SE 14.0 mph22.5 kmh 29.92 in1013.2 mb 0.00 in0.0 mm 0.00 in0.0 mm 0.00 in0.0 mm
04:22 AM 28.9°F-1.7°C 24.7°F-4.1°C 84% 9.3 mph SE15.0 kmh SE 14.0 mph22.5 kmh 29.92 in1013.2 mb 0.00 in0.0 mm 0.00 in0.0 mm 0.00 in0.0 mm
04:23 AM 29.0°F-1.7°C 24.8°F-4.0°C 84% 7.3 mph SE11.7 kmh SE 11.0 mph17.7 kmh 29.92 in1013.2 mb 0.00 in0.0 mm 0.00 in0.0 mm 0.00 in0.0 mm
04:24 AM 28.9°F-1.7°C 24.7°F-4.1°C 84% 6.7 mph SE10.8 kmh SE 10.0 mph16.1 kmh 29.92 in1013.2 mb 0.00 in0.0 mm 0.00 in0.0 mm 0.00 in0.0 mm
04:25 AM 28.9°F-1.7°C 24.7°F-4.1°C 84% 8.8 mph SE14.2 kmh SE 12.0 mph19.3 kmh 29.92 in1013.2 mb 0.00 in0.0 mm 0.00 in0.0 mm 0.00 in0.0 mm
04:26 AM 28.9°F-1.7°C 24.7°F-4.1°C 84% 9.6 mph SE15.4 kmh SE 13.0 mph20.9 kmh 29.92 in1013.2 mb 0.00 in0.0 mm 0.00 in0.0 mm 0.00 in0.0 mm
04:27 AM 28.9°F-1.7°C 24.7°F-4.1°C 84% 10.1 mph SE16.3 kmh SE 15.0 mph24.1 kmh 29.92 in1013.2 mb 0.00 in0.0 mm 0.00 in0.0 mm 0.00 in0.0 mm
04:28 AM 28.9°F-1.7°C 24.7°F-4.1°C 84% 9.6 mph SE15.4 kmh SE 15.0 mph24.1 kmh 29.92 in1013.2 mb 0.00 in0.0 mm 0.00 in0.0 mm 0.00 in0.0 mm
04:29 AM 28.9°F-1.7°C 24.7°F-4.1°C 84% 7.8 mph SE12.6 kmh SE 14.0 mph22.5 kmh 29.92 in1013.2 mb 0.00 in0.0 mm 0.00 in0.0 mm 0.00 in0.0 mm
04:30 AM 28.9°F-1.7°C 24.7°F-4.1°C 84% 8.6 mph SE13.8 kmh SE 11.0 mph17.7 kmh 29.92 in1013.2 mb 0.00 in0.0 mm 0.00 in0.0 mm 0.00 in0.0 mm
04:31 AM 28.8°F-1.8°C 24.6°F-4.1°C 84% 8.5 mph SE13.7 kmh SE 12.0 mph19.3 kmh 29.92 in1013.2 mb 0.00 in0.0 mm 0.00 in0.0 mm 0.00 in0.0 mm
04:32 AM 28.9°F-1.7°C 24.7°F-4.1°C 84% 8.8 mph SE14.2 kmh SE 14.0 mph22.5 kmh 29.92 in1013.2 mb 0.00 in0.0 mm 0.00 in0.0 mm 0.00 in0.0 mm
04:33 AM 28.8°F-1.8°C 24.6°F-4.1°C 84% 8.2 mph SE13.2 kmh SE 14.0 mph22.5 kmh 29.92 in1013.2 mb 0.00 in0.0 mm 0.00 in0.0 mm 0.00 in0.0 mm
04:34 AM 28.8°F-1.8°C 24.6°F-4.1°C 84% 8.2 mph SE13.2 kmh SE 10.0 mph16.1 kmh 29.92 in1013.2 mb 0.00 in0.0 mm 0.00 in0.0 mm 0.00 in0.0 mm
04:35 AM 28.8°F-1.8°C 24.9°F-3.9°C 85% 7.5 mph SE12.1 kmh SE 11.0 mph17.7 kmh 29.92 in1013.2 mb 0.00 in0.0 mm 0.00 in0.0 mm 0.00 in0.0 mm
04:36 AM 28.8°F-1.8°C 24.9°F-3.9°C 85% 9.3 mph SE15.0 kmh SE 13.0 mph20.9 kmh 29.92 in1013.2 mb 0.00 in0.0 mm 0.00 in0.0 mm 0.00 in0.0 mm
04:37 AM 28.8°F-1.8°C 24.9°F-3.9°C 85% 8.7 mph SE14.0 kmh SE 13.0 mph20.9 kmh 29.92 in1013.2 mb 0.00 in0.0 mm 0.00 in0.0 mm 0.00 in0.0 mm
04:38 AM 28.8°F-1.8°C 24.9°F-3.9°C 85% 8.1 mph SE13.0 kmh SE 11.0 mph17.7 kmh 29.92 in1013.2 mb 0.00 in0.0 mm 0.00 in0.0 mm 0.00 in0.0 mm
04:39 AM 28.8°F-1.8°C 24.9°F-3.9°C 85% 9.4 mph SE15.1 kmh SE 12.0 mph19.3 kmh 29.92 in1013.2 mb 0.00 in0.0 mm 0.00 in0.0 mm 0.00 in0.0 mm
04:40 AM 28.8°F-1.8°C 24.9°F-3.9°C 85% 7.2 mph SE11.6 kmh SE 12.0 mph19.3 kmh 29.92 in1013.2 mb 0.00 in0.0 mm 0.00 in0.0 mm 0.00 in0.0 mm
04:41 AM 28.8°F-1.8°C 24.9°F-3.9°C 85% 8.4 mph SE13.5 kmh SE 10.0 mph16.1 kmh 29.92 in1013.2 mb 0.00 in0.0 mm 0.00 in0.0 mm 0.00 in0.0 mm
04:42 AM 28.8°F-1.8°C 24.9°F-3.9°C 85% 7.5 mph SE12.1 kmh SE 10.0 mph16.1 kmh 29.92 in1013.2 mb 0.00 in0.0 mm 0.00 in0.0 mm 0.00 in0.0 mm
04:43 AM 28.8°F-1.8°C 24.9°F-3.9°C 85% 8.2 mph SE13.2 kmh SE 10.0 mph16.1 kmh 29.92 in1013.2 mb 0.00 in0.0 mm 0.00 in0.0 mm 0.00 in0.0 mm
04:44 AM 28.8°F-1.8°C 24.9°F-3.9°C 85% 6.8 mph SE10.9 kmh SE 10.0 mph16.1 kmh 29.92 in1013.2 mb 0.00 in0.0 mm 0.00 in0.0 mm 0.00 in0.0 mm
04:45 AM 28.8°F-1.8°C 24.9°F-3.9°C 85% 8.4 mph SE13.5 kmh SE 11.0 mph17.7 kmh 29.92 in1013.2 mb 0.00 in0.0 mm 0.00 in0.0 mm 0.00 in0.0 mm
04:46 AM 28.8°F-1.8°C 24.9°F-3.9°C 85% 8.4 mph SE13.5 kmh SE 11.0 mph17.7 kmh 29.92 in1013.2 mb 0.00 in0.0 mm 0.00 in0.0 mm 0.00 in0.0 mm
04:47 AM 28.8°F-1.8°C 24.9°F-3.9°C 85% 8.2 mph SE13.2 kmh SE 11.0 mph17.7 kmh 29.92 in1013.2 mb 0.00 in0.0 mm 0.00 in0.0 mm 0.00 in0.0 mm
04:48 AM 28.8°F-1.8°C 24.9°F-3.9°C 85% 9.2 mph SE14.8 kmh SE 12.0 mph19.3 kmh 29.92 in1013.2 mb 0.00 in0.0 mm 0.00 in0.0 mm 0.00 in0.0 mm
04:49 AM 28.8°F-1.8°C 24.9°F-3.9°C 85% 8.1 mph SE13.0 kmh SE 13.0 mph20.9 kmh 29.92 in1013.2 mb 0.00 in0.0 mm 0.00 in0.0 mm 0.00 in0.0 mm
04:50 AM 28.8°F-1.8°C 24.9°F-3.9°C 85% 7.3 mph SE11.7 kmh SE 13.0 mph20.9 kmh 29.92 in1013.2 mb 0.00 in0.0 mm 0.00 in0.0 mm 0.00 in0.0 mm
04:51 AM 28.8°F-1.8°C 24.9°F-3.9°C 85% 9.8 mph SE15.8 kmh SE 13.0 mph20.9 kmh 29.92 in1013.2 mb 0.00 in0.0 mm 0.00 in0.0 mm 0.00 in0.0 mm
04:52 AM 28.8°F-1.8°C 24.9°F-3.9°C 85% 9.3 mph SE15.0 kmh SE 13.0 mph20.9 kmh 29.92 in1013.2 mb 0.00 in0.0 mm 0.00 in0.0 mm 0.00 in0.0 mm
04:53 AM 28.9°F-1.7°C 25.0°F-3.9°C 85% 7.2 mph SE11.6 kmh SE 11.0 mph17.7 kmh 29.92 in1013.2 mb 0.00 in0.0 mm 0.00 in0.0 mm 0.00 in0.0 mm
04:54 AM 28.8°F-1.8°C 24.9°F-3.9°C 85% 9.4 mph SE15.1 kmh SE 15.0 mph24.1 kmh 29.92 in1013.2 mb 0.00 in0.0 mm 0.00 in0.0 mm 0.00 in0.0 mm
04:55 AM 28.9°F-1.7°C 25.0°F-3.9°C 85% 10.0 mph SE16.1 kmh SE 15.0 mph24.1 kmh 29.92 in1013.2 mb 0.00 in0.0 mm 0.00 in0.0 mm 0.00 in0.0 mm
04:56 AM 28.9°F-1.7°C 25.0°F-3.9°C 85% 7.9 mph SE12.7 kmh SE 14.0 mph22.5 kmh 29.92 in1013.2 mb 0.00 in0.0 mm 0.00 in0.0 mm 0.00 in0.0 mm
04:57 AM 28.9°F-1.7°C 25.0°F-3.9°C 85% 8.0 mph SE12.9 kmh SE 12.0 mph19.3 kmh 29.92 in1013.2 mb 0.00 in0.0 mm 0.00 in0.0 mm 0.00 in0.0 mm
04:58 AM 29.0°F-1.7°C 25.1°F-3.8°C 85% 8.4 mph SE13.5 kmh SE 11.0 mph17.7 kmh 29.92 in1013.2 mb 0.00 in0.0 mm 0.00 in0.0 mm 0.00 in0.0 mm
04:59 AM 29.0°F-1.7°C 25.1°F-3.8°C 85% 9.4 mph SE15.1 kmh SE 14.0 mph22.5 kmh 29.92 in1013.2 mb 0.00 in0.0 mm 0.00 in0.0 mm 0.00 in0.0 mm
05:00 AM 29.0°F-1.7°C 25.1°F-3.8°C 85% 7.7 mph SE12.4 kmh SE 14.0 mph22.5 kmh 29.92 in1013.2 mb 0.00 in0.0 mm 0.00 in0.0 mm 0.00 in0.0 mm
05:01 AM 29.0°F-1.7°C 25.1°F-3.8°C 85% 7.7 mph SE12.4 kmh SE 12.0 mph19.3 kmh 29.92 in1013.2 mb 0.00 in0.0 mm 0.00 in0.0 mm 0.00 in0.0 mm
05:02 AM 29.0°F-1.7°C 25.1°F-3.8°C 85% 8.5 mph SE13.7 kmh SE 13.0 mph20.9 kmh 29.92 in1013.2 mb 0.00 in0.0 mm 0.00 in0.0 mm 0.00 in0.0 mm
05:03 AM 29.0°F-1.7°C 25.1°F-3.8°C 85% 11.1 mph SE17.9 kmh SE 14.0 mph22.5 kmh 29.92 in1013.2 mb 0.00 in0.0 mm 0.00 in0.0 mm 0.00 in0.0 mm
05:04 AM 29.0°F-1.7°C 25.1°F-3.8°C 85% 8.7 mph SE14.0 kmh SE 15.0 mph24.1 kmh 29.92 in1013.2 mb 0.00 in0.0 mm 0.00 in0.0 mm 0.00 in0.0 mm
05:05 AM 29.0°F-1.7°C 25.1°F-3.8°C 85% 8.1 mph SE13.0 kmh SE 15.0 mph24.1 kmh 29.92 in1013.2 mb 0.00 in0.0 mm 0.00 in0.0 mm 0.00 in0.0 mm
05:06 AM 29.1°F-1.6°C 25.2°F-3.8°C 85% 7.6 mph SE12.2 kmh SE 12.0 mph19.3 kmh 29.92 in1013.2 mb 0.00 in0.0 mm 0.00 in0.0 mm 0.00 in0.0 mm
05:07 AM 29.0°F-1.7°C 25.1°F-3.8°C 85% 9.8 mph SE15.8 kmh SE 14.0 mph22.5 kmh 29.92 in1013.2 mb 0.00 in0.0 mm 0.00 in0.0 mm 0.00 in0.0 mm
05:08 AM 29.1°F-1.6°C 25.2°F-3.8°C 85% 8.2 mph SE13.2 kmh SE 14.0 mph22.5 kmh 29.92 in1013.2 mb 0.00 in0.0 mm 0.00 in0.0 mm 0.00 in0.0 mm
05:09 AM 29.0°F-1.7°C 25.1°F-3.8°C 85% 7.0 mph SE11.3 kmh SE 11.0 mph17.7 kmh 29.92 in1013.2 mb 0.00 in0.0 mm 0.00 in0.0 mm 0.00 in0.0 mm
05:10 AM 29.1°F-1.6°C 25.2°F-3.8°C 85% 10.6 mph SE17.1 kmh SE 15.0 mph24.1 kmh 29.92 in1013.2 mb 0.00 in0.0 mm 0.00 in0.0 mm 0.00 in0.0 mm
05:11 AM 29.1°F-1.6°C 25.2°F-3.8°C 85% 10.0 mph SE16.1 kmh SE 15.0 mph24.1 kmh 29.92 in1013.2 mb 0.00 in0.0 mm 0.00 in0.0 mm 0.00 in0.0 mm
05:12 AM 29.1°F-1.6°C 25.2°F-3.8°C 85% 9.6 mph SE15.4 kmh SE 15.0 mph24.1 kmh 29.92 in1013.2 mb 0.00 in0.0 mm 0.00 in0.0 mm 0.00 in0.0 mm
05:13 AM 29.1°F-1.6°C 25.2°F-3.8°C 85% 7.0 mph SE11.3 kmh SE 13.0 mph20.9 kmh 29.92 in1013.2 mb 0.00 in0.0 mm 0.00 in0.0 mm 0.00 in0.0 mm
05:14 AM 29.1°F-1.6°C 25.2°F-3.8°C 85% 8.7 mph SE14.0 kmh SE 13.0 mph20.9 kmh 29.92 in1013.2 mb 0.00 in0.0 mm 0.00 in0.0 mm 0.00 in0.0 mm
05:15 AM 29.2°F-1.6°C 25.3°F-3.7°C 85% 9.3 mph SE15.0 kmh SE 13.0 mph20.9 kmh 29.92 in1013.2 mb 0.00 in0.0 mm 0.00 in0.0 mm 0.00 in0.0 mm
05:16 AM 29.1°F-1.6°C 25.2°F-3.8°C 85% 6.7 mph SE10.8 kmh SE 12.0 mph19.3 kmh 29.91 in1012.9 mb 0.00 in0.0 mm 0.00 in0.0 mm 0.00 in0.0 mm
05:17 AM 29.2°F-1.6°C 25.3°F-3.7°C 85% 9.9 mph SE15.9 kmh SE 14.0 mph22.5 kmh 29.91 in1012.9 mb 0.00 in0.0 mm 0.00 in0.0 mm 0.00 in0.0 mm
05:18 AM 29.2°F-1.6°C 25.3°F-3.7°C 85% 9.9 mph SE15.9 kmh SE 14.0 mph22.5 kmh 29.91 in1012.9 mb 0.00 in0.0 mm 0.00 in0.0 mm 0.00 in0.0 mm
05:19 AM 29.1°F-1.6°C 25.2°F-3.8°C 85% 8.8 mph SE14.2 kmh SE 14.0 mph22.5 kmh 29.91 in1012.9 mb 0.00 in0.0 mm 0.00 in0.0 mm 0.00 in0.0 mm
05:20 AM 29.2°F-1.6°C 25.3°F-3.7°C 85% 10.1 mph SE16.3 kmh SE 13.0 mph20.9 kmh 29.91 in1012.9 mb 0.00 in0.0 mm 0.00 in0.0 mm 0.00 in0.0 mm
05:21 AM 29.1°F-1.6°C 25.2°F-3.8°C 85% 8.8 mph SE14.2 kmh SE 13.0 mph20.9 kmh 29.91 in1012.9 mb 0.00 in0.0 mm 0.00 in0.0 mm 0.00 in0.0 mm
05:22 AM 29.2°F-1.6°C 25.3°F-3.7°C 85% 9.5 mph SE15.3 kmh SE 12.0 mph19.3 kmh 29.91 in1012.9 mb 0.00 in0.0 mm 0.00 in0.0 mm 0.00 in0.0 mm
05:23 AM 29.1°F-1.6°C 25.2°F-3.8°C 85% 6.8 mph SE10.9 kmh SE 12.0 mph19.3 kmh 29.91 in1012.9 mb 0.00 in0.0 mm 0.00 in0.0 mm 0.00 in0.0 mm
05:24 AM 29.1°F-1.6°C 25.2°F-3.8°C 85% 9.4 mph SE15.1 kmh SE 13.0 mph20.9 kmh 29.91 in1012.9 mb 0.00 in0.0 mm 0.00 in0.0 mm 0.00 in0.0 mm
05:25 AM 29.1°F-1.6°C 25.2°F-3.8°C 85% 10.2 mph SE16.4 kmh SE 15.0 mph24.1 kmh 29.91 in1012.9 mb 0.00 in0.0 mm 0.00 in0.0 mm 0.00 in0.0 mm
05:26 AM 29.1°F-1.6°C 25.2°F-3.8°C 85% 10.3 mph SE16.6 kmh SE 15.0 mph24.1 kmh 29.91 in1012.9 mb 0.00 in0.0 mm 0.00 in0.0 mm 0.00 in0.0 mm
05:27 AM 29.1°F-1.6°C 25.2°F-3.8°C 85% 10.1 mph SE16.3 kmh SE 13.0 mph20.9 kmh 29.91 in1012.9 mb 0.00 in0.0 mm 0.00 in0.0 mm 0.00 in0.0 mm
05:28 AM 29.1°F-1.6°C 25.2°F-3.8°C 85% 9.9 mph SE15.9 kmh SE 13.0 mph20.9 kmh 29.91 in1012.9 mb 0.00 in0.0 mm 0.00 in0.0 mm 0.00 in0.0 mm
05:29 AM 29.1°F-1.6°C 25.2°F-3.8°C 85% 11.5 mph SE18.5 kmh SE 14.0 mph22.5 kmh 29.91 in1012.9 mb 0.00 in0.0 mm 0.00 in0.0 mm 0.00 in0.0 mm
05:30 AM 29.1°F-1.6°C 25.2°F-3.8°C 85% 11.7 mph SE18.8 kmh SE 15.0 mph24.1 kmh 29.91 in1012.9 mb 0.00 in0.0 mm 0.00 in0.0 mm 0.00 in0.0 mm
05:31 AM 29.0°F-1.7°C 25.1°F-3.8°C 85% 9.0 mph SE14.5 kmh SE 15.0 mph24.1 kmh 29.91 in1012.9 mb 0.00 in0.0 mm 0.00 in0.0 mm 0.00 in0.0 mm
05:32 AM 29.1°F-1.6°C 25.2°F-3.8°C 85% 10.6 mph SE17.1 kmh SE 14.0 mph22.5 kmh 29.91 in1012.9 mb 0.00 in0.0 mm 0.00 in0.0 mm 0.00 in0.0 mm
05:33 AM 29.1°F-1.6°C 25.2°F-3.8°C 85% 8.1 mph SE13.0 kmh SE 14.0 mph22.5 kmh 29.91 in1012.9 mb 0.00 in0.0 mm 0.00 in0.0 mm 0.00 in0.0 mm
05:34 AM 29.0°F-1.7°C 25.1°F-3.8°C 85% 9.5 mph SE15.3 kmh SE 14.0 mph22.5 kmh 29.91 in1012.9 mb 0.00 in0.0 mm 0.00 in0.0 mm 0.00 in0.0 mm
05:35 AM 29.1°F-1.6°C 25.2°F-3.8°C 85% 10.0 mph SE16.1 kmh SE 15.0 mph24.1 kmh 29.91 in1012.9 mb 0.00 in0.0 mm 0.00 in0.0 mm 0.00 in0.0 mm
05:36 AM 29.1°F-1.6°C 25.2°F-3.8°C 85% 8.7 mph SE14.0 kmh SE 15.0 mph24.1 kmh 29.91 in1012.9 mb 0.00 in0.0 mm 0.00 in0.0 mm 0.00 in0.0 mm
05:37 AM 29.1°F-1.6°C 25.2°F-3.8°C 85% 11.6 mph SE18.7 kmh SE 15.0 mph24.1 kmh 29.91 in1012.9 mb 0.00 in0.0 mm 0.00 in0.0 mm 0.00 in0.0 mm
05:38 AM 29.1°F-1.6°C 25.2°F-3.8°C 85% 8.3 mph SE13.4 kmh SE 15.0 mph24.1 kmh 29.91 in1012.9 mb 0.00 in0.0 mm 0.00 in0.0 mm 0.00 in0.0 mm
05:39 AM 29.1°F-1.6°C 25.2°F-3.8°C 85% 7.5 mph SE12.1 kmh SE 12.0 mph19.3 kmh 29.91 in1012.9 mb 0.00 in0.0 mm 0.00 in0.0 mm 0.00 in0.0 mm
05:40 AM 29.1°F-1.6°C 25.2°F-3.8°C 85% 8.9 mph SE14.3 kmh SE 12.0 mph19.3 kmh 29.91 in1012.9 mb 0.00 in0.0 mm 0.00 in0.0 mm 0.00 in0.0 mm
05:41 AM 29.1°F-1.6°C 25.2°F-3.8°C 85% 11.0 mph SE17.7 kmh SE 15.0 mph24.1 kmh 29.91 in1012.9 mb 0.00 in0.0 mm 0.00 in0.0 mm 0.00 in0.0 mm
05:42 AM 29.1°F-1.6°C 25.2°F-3.8°C 85% 10.4 mph SE16.7 kmh SE 15.0 mph24.1 kmh 29.91 in1012.9 mb 0.00 in0.0 mm 0.00 in0.0 mm 0.00 in0.0 mm
05:43 AM 29.2°F-1.6°C 25.3°F-3.7°C 85% 11.6 mph SE18.7 kmh SE 15.0 mph24.1 kmh 29.91 in1012.9 mb 0.00 in0.0 mm 0.00 in0.0 mm 0.00 in0.0 mm
05:44 AM 29.2°F-1.6°C 25.3°F-3.7°C 85% 10.7 mph SE17.2 kmh SE 14.0 mph22.5 kmh 29.91 in1012.9 mb 0.00 in0.0 mm 0.00 in0.0 mm 0.00 in0.0 mm
05:45 AM 29.1°F-1.6°C 25.2°F-3.8°C 85% 7.9 mph SE12.7 kmh SE 14.0 mph22.5 kmh 29.91 in1012.9 mb 0.00 in0.0 mm 0.00 in0.0 mm 0.00 in0.0 mm
05:46 AM 29.2°F-1.6°C 25.3°F-3.7°C 85% 11.2 mph SE18.0 kmh SE 14.0 mph22.5 kmh 29.91 in1012.9 mb 0.00 in0.0 mm 0.00 in0.0 mm 0.00 in0.0 mm
05:47 AM 29.2°F-1.6°C 25.3°F-3.7°C 85% 10.4 mph SE16.7 kmh SE 16.0 mph25.7 kmh 29.91 in1012.9 mb 0.00 in0.0 mm 0.00 in0.0 mm 0.00 in0.0 mm
05:48 AM 29.2°F-1.6°C 25.3°F-3.7°C 85% 11.5 mph SE18.5 kmh SE 16.0 mph25.7 kmh 29.91 in1012.9 mb 0.00 in0.0 mm 0.00 in0.0 mm 0.00 in0.0 mm
05:49 AM 29.2°F-1.6°C 25.3°F-3.7°C 85% 11.6 mph SE18.7 kmh SE 16.0 mph25.7 kmh 29.91 in1012.9 mb 0.00 in0.0 mm 0.00 in0.0 mm 0.00 in0.0 mm
05:50 AM 29.2°F-1.6°C 25.3°F-3.7°C 85% 9.9 mph SE15.9 kmh SE 15.0 mph24.1 kmh 29.91 in1012.9 mb 0.00 in0.0 mm 0.00 in0.0 mm 0.00 in0.0 mm
05:51 AM 29.2°F-1.6°C 25.0°F-3.9°C 84% 12.7 mph SE20.4 kmh SE 17.0 mph27.4 kmh 29.91 in1012.9 mb 0.00 in0.0 mm 0.00 in0.0 mm 0.00 in0.0 mm
05:52 AM 29.2°F-1.6°C 25.0°F-3.9°C 84% 11.2 mph SE18.0 kmh SE 17.0 mph27.4 kmh 29.91 in1012.9 mb 0.00 in0.0 mm 0.00 in0.0 mm 0.00 in0.0 mm
05:53 AM 29.2°F-1.6°C 25.0°F-3.9°C 84% 10.6 mph SE17.1 kmh SE 18.0 mph29.0 kmh 29.91 in1012.9 mb 0.00 in0.0 mm 0.00 in0.0 mm 0.00 in0.0 mm
05:54 AM 29.3°F-1.5°C 25.1°F-3.8°C 84% 8.3 mph SE13.4 kmh SE 18.0 mph29.0 kmh 29.91 in1012.9 mb 0.00 in0.0 mm 0.00 in0.0 mm 0.00 in0.0 mm
05:55 AM 29.3°F-1.5°C 25.1°F-3.8°C 84% 10.3 mph SE16.6 kmh SE 16.0 mph25.7 kmh 29.91 in1012.9 mb 0.00 in0.0 mm 0.00 in0.0 mm 0.00 in0.0 mm
05:56 AM 29.3°F-1.5°C 25.1°F-3.8°C 84% 9.2 mph SE14.8 kmh SE 16.0 mph25.7 kmh 29.91 in1012.9 mb 0.00 in0.0 mm 0.00 in0.0 mm 0.00 in0.0 mm
05:57 AM 29.3°F-1.5°C 25.1°F-3.8°C 84% 9.0 mph SE14.5 kmh SE 14.0 mph22.5 kmh 29.91 in1012.9 mb 0.00 in0.0 mm 0.00 in0.0 mm 0.00 in0.0 mm
05:58 AM 29.3°F-1.5°C 25.1°F-3.8°C 84% 11.6 mph SE18.7 kmh SE 16.0 mph25.7 kmh 29.91 in1012.9 mb 0.00 in0.0 mm 0.00 in0.0 mm 0.00 in0.0 mm
05:59 AM 29.3°F-1.5°C 25.1°F-3.8°C 84% 6.6 mph SE10.6 kmh SE 16.0 mph25.7 kmh 29.91 in1012.9 mb 0.00 in0.0 mm 0.00 in0.0 mm 0.00 in0.0 mm
06:00 AM 29.2°F-1.6°C 25.0°F-3.9°C 84% 11.2 mph SE18.0 kmh SE 17.0 mph27.4 kmh 29.91 in1012.9 mb 0.00 in0.0 mm 0.00 in0.0 mm 0.00 in0.0 mm
06:01 AM 29.3°F-1.5°C 25.1°F-3.8°C 84% 14.2 mph SE22.9 kmh SE 18.0 mph29.0 kmh 29.91 in1012.9 mb 0.00 in0.0 mm 0.00 in0.0 mm 0.00 in0.0 mm
06:02 AM 29.3°F-1.5°C 25.1°F-3.8°C 84% 9.7 mph SE15.6 kmh SE 18.0 mph29.0 kmh 29.90 in1012.5 mb 0.00 in0.0 mm 0.00 in0.0 mm 0.00 in0.0 mm
06:03 AM 29.4°F-1.4°C 25.2°F-3.8°C 84% 10.0 mph SE16.1 kmh SE 13.0 mph20.9 kmh 29.90 in1012.5 mb 0.00 in0.0 mm 0.00 in0.0 mm 0.00 in0.0 mm
06:04 AM 29.4°F-1.4°C 25.2°F-3.8°C 84% 10.6 mph SE17.1 kmh SE 16.0 mph25.7 kmh 29.91 in1012.9 mb 0.00 in0.0 mm 0.00 in0.0 mm 0.00 in0.0 mm
06:05 AM 29.3°F-1.5°C 25.1°F-3.8°C 84% 12.3 mph SE19.8 kmh SE 17.0 mph27.4 kmh 29.91 in1012.9 mb 0.00 in0.0 mm 0.00 in0.0 mm 0.00 in0.0 mm
06:06 AM 29.3°F-1.5°C 25.1°F-3.8°C 84% 10.2 mph SE16.4 kmh SE 17.0 mph27.4 kmh 29.90 in1012.5 mb 0.00 in0.0 mm 0.00 in0.0 mm 0.00 in0.0 mm
06:07 AM 29.4°F-1.4°C 25.5°F-3.6°C 85% 10.0 mph SE16.1 kmh SE 16.0 mph25.7 kmh 29.90 in1012.5 mb 0.00 in0.0 mm 0.00 in0.0 mm 0.00 in0.0 mm
06:08 AM 29.3°F-1.5°C 25.4°F-3.7°C 85% 12.9 mph SE20.8 kmh SE 20.0 mph32.2 kmh 29.90 in1012.5 mb 0.00 in0.0 mm 0.00 in0.0 mm 0.00 in0.0 mm
06:09 AM 29.4°F-1.4°C 25.2°F-3.8°C 84% 11.7 mph SE18.8 kmh SE 20.0 mph32.2 kmh 29.90 in1012.5 mb 0.00 in0.0 mm 0.00 in0.0 mm 0.00 in0.0 mm
06:10 AM 29.4°F-1.4°C 25.2°F-3.8°C 84% 11.6 mph SE18.7 kmh SE 18.0 mph29.0 kmh 29.90 in1012.5 mb 0.00 in0.0 mm 0.00 in0.0 mm 0.00 in0.0 mm
06:11 AM 29.4°F-1.4°C 25.2°F-3.8°C 84% 12.1 mph SE19.5 kmh SE 16.0 mph25.7 kmh 29.90 in1012.5 mb 0.00 in0.0 mm 0.00 in0.0 mm 0.00 in0.0 mm
06:12 AM 29.4°F-1.4°C 25.2°F-3.8°C 84% 11.3 mph SE18.2 kmh SE 16.0 mph25.7 kmh 29.90 in1012.5 mb 0.00 in0.0 mm 0.00 in0.0 mm 0.00 in0.0 mm
06:13 AM 29.3°F-1.5°C 25.1°F-3.8°C 84% 12.9 mph SE20.8 kmh SE 16.0 mph25.7 kmh 29.90 in1012.5 mb 0.00 in0.0 mm 0.00 in0.0 mm 0.00 in0.0 mm
06:14 AM 29.3°F-1.5°C 25.1°F-3.8°C 84% 11.5 mph SE18.5 kmh SE 16.0 mph25.7 kmh 29.90 in1012.5 mb 0.00 in0.0 mm 0.00 in0.0 mm 0.00 in0.0 mm
06:15 AM 29.4°F-1.4°C 25.2°F-3.8°C 84% 11.0 mph SE17.7 kmh SE 16.0 mph25.7 kmh 29.90 in1012.5 mb 0.00 in0.0 mm 0.00 in0.0 mm 0.00 in0.0 mm
06:16 AM 29.4°F-1.4°C 25.2°F-3.8°C 84% 11.0 mph SE17.7 kmh SE 16.0 mph25.7 kmh 29.90 in1012.5 mb 0.00 in0.0 mm 0.00 in0.0 mm 0.00 in0.0 mm
06:17 AM 29.4°F-1.4°C 25.2°F-3.8°C 84% 9.4 mph SE15.1 kmh SE 15.0 mph24.1 kmh 29.90 in1012.5 mb 0.00 in0.0 mm 0.00 in0.0 mm 0.00 in0.0 mm
06:18 AM 29.4°F-1.4°C 25.2°F-3.8°C 84% 12.0 mph SE19.3 kmh SE 16.0 mph25.7 kmh 29.90 in1012.5 mb 0.00 in0.0 mm 0.00 in0.0 mm 0.00 in0.0 mm
06:19 AM 29.4°F-1.4°C 25.2°F-3.8°C 84% 13.2 mph SE21.2 kmh SE 17.0 mph27.4 kmh 29.90 in1012.5 mb 0.00 in0.0 mm 0.00 in0.0 mm 0.00 in0.0 mm
06:20 AM 29.4°F-1.4°C 25.5°F-3.6°C 85% 10.5 mph SE16.9 kmh SE 17.0 mph27.4 kmh 29.90 in1012.5 mb 0.00 in0.0 mm 0.00 in0.0 mm 0.00 in0.0 mm
06:21 AM 29.4°F-1.4°C 25.5°F-3.6°C 85% 11.4 mph SE18.3 kmh SE 15.0 mph24.1 kmh 29.90 in1012.5 mb 0.00 in0.0 mm 0.00 in0.0 mm 0.00 in0.0 mm
06:22 AM 29.4°F-1.4°C 25.2°F-3.8°C 84% 10.8 mph SE17.4 kmh SE 15.0 mph24.1 kmh 29.90 in1012.5 mb 0.00 in0.0 mm 0.00 in0.0 mm 0.00 in0.0 mm
06:23 AM 29.4°F-1.4°C 25.2°F-3.8°C 84% 11.1 mph SE17.9 kmh SE 16.0 mph25.7 kmh 29.90 in1012.5 mb 0.00 in0.0 mm 0.00 in0.0 mm 0.00 in0.0 mm
06:24 AM 29.4°F-1.4°C 25.2°F-3.8°C 84% 8.1 mph SE13.0 kmh SE 16.0 mph25.7 kmh 29.90 in1012.5 mb 0.00 in0.0 mm 0.00 in0.0 mm 0.00 in0.0 mm
06:25 AM 29.4°F-1.4°C 25.2°F-3.8°C 84% 8.6 mph SE13.8 kmh SE 13.0 mph20.9 kmh 29.90 in1012.5 mb 0.00 in0.0 mm 0.00 in0.0 mm 0.00 in0.0 mm
06:26 AM 29.4°F-1.4°C 25.2°F-3.8°C 84% 11.0 mph SE17.7 kmh SE 17.0 mph27.4 kmh 29.90 in1012.5 mb 0.00 in0.0 mm 0.00 in0.0 mm 0.00 in0.0 mm
06:27 AM 29.4°F-1.4°C 25.5°F-3.6°C 85% 12.5 mph SE20.1 kmh SE 17.0 mph27.4 kmh 29.90 in1012.5 mb 0.00 in0.0 mm 0.00 in0.0 mm 0.00 in0.0 mm
06:28 AM 29.5°F-1.4°C 25.6°F-3.6°C 85% 11.4 mph SE18.3 kmh SE 15.0 mph24.1 kmh 29.90 in1012.5 mb 0.00 in0.0 mm 0.00 in0.0 mm 0.00 in0.0 mm
06:29 AM 29.5°F-1.4°C 25.6°F-3.6°C 85% 11.0 mph SE17.7 kmh SE 17.0 mph27.4 kmh 29.90 in1012.5 mb 0.00 in0.0 mm 0.00 in0.0 mm 0.00 in0.0 mm
06:30 AM 29.4°F-1.4°C 25.5°F-3.6°C 85% 12.2 mph SE19.6 kmh SE 17.0 mph27.4 kmh 29.90 in1012.5 mb 0.00 in0.0 mm 0.00 in0.0 mm 0.00 in0.0 mm
06:31 AM 29.5°F-1.4°C 25.3°F-3.7°C 84% 12.8 mph SE20.6 kmh SE 16.0 mph25.7 kmh 29.90 in1012.5 mb 0.00 in0.0 mm 0.00 in0.0 mm 0.00 in0.0 mm
06:32 AM 29.5°F-1.4°C 25.3°F-3.7°C 84% 11.9 mph SE19.2 kmh SE 16.0 mph25.7 kmh 29.90 in1012.5 mb 0.00 in0.0 mm 0.00 in0.0 mm 0.00 in0.0 mm
06:33 AM 29.5°F-1.4°C 25.6°F-3.6°C 85% 11.8 mph SE19.0 kmh SE 20.0 mph32.2 kmh 29.90 in1012.5 mb 0.00 in0.0 mm 0.00 in0.0 mm 0.00 in0.0 mm
06:34 AM 29.6°F-1.3°C 25.7°F-3.5°C 85% 11.4 mph SE18.3 kmh SE 20.0 mph32.2 kmh 29.90 in1012.5 mb 0.00 in0.0 mm 0.00 in0.0 mm 0.00 in0.0 mm
06:35 AM 29.6°F-1.3°C 25.7°F-3.5°C 85% 11.3 mph SE18.2 kmh SE 15.0 mph24.1 kmh 29.90 in1012.5 mb 0.00 in0.0 mm 0.00 in0.0 mm 0.00 in0.0 mm
06:36 AM 29.6°F-1.3°C 25.7°F-3.5°C 85% 12.4 mph SE20.0 kmh SE 19.0 mph30.6 kmh 29.90 in1012.5 mb 0.00 in0.0 mm 0.00 in0.0 mm 0.00 in0.0 mm
06:37 AM 29.6°F-1.3°C 25.7°F-3.5°C 85% 10.9 mph SE17.5 kmh SE 19.0 mph30.6 kmh 29.90 in1012.5 mb 0.00 in0.0 mm 0.00 in0.0 mm 0.00 in0.0 mm
06:38 AM 29.5°F-1.4°C 25.6°F-3.6°C 85% 10.2 mph SE16.4 kmh SE 15.0 mph24.1 kmh 29.90 in1012.5 mb 0.00 in0.0 mm 0.00 in0.0 mm 0.00 in0.0 mm
06:39 AM 29.6°F-1.3°C 25.7°F-3.5°C 85% 10.1 mph SE16.3 kmh SE 15.0 mph24.1 kmh 29.90 in1012.5 mb 0.00 in0.0 mm 0.00 in0.0 mm 0.00 in0.0 mm
06:40 AM 29.6°F-1.3°C 25.7°F-3.5°C 85% 7.8 mph SE12.6 kmh SE 15.0 mph24.1 kmh 29.90 in1012.5 mb 0.00 in0.0 mm 0.00 in0.0 mm 0.00 in0.0 mm
06:41 AM 29.7°F-1.3°C 25.8°F-3.4°C 85% 11.5 mph SE18.5 kmh SE 15.0 mph24.1 kmh 29.90 in1012.5 mb 0.00 in0.0 mm 0.00 in0.0 mm 0.00 in0.0 mm
06:42 AM 29.7°F-1.3°C 25.8°F-3.4°C 85% 11.1 mph SE17.9 kmh SE 15.0 mph24.1 kmh 29.90 in1012.5 mb 0.00 in0.0 mm 0.00 in0.0 mm 0.00 in0.0 mm
06:43 AM 29.7°F-1.3°C 25.8°F-3.4°C 85% 12.3 mph SE19.8 kmh SE 16.0 mph25.7 kmh 29.90 in1012.5 mb 0.00 in0.0 mm 0.00 in0.0 mm 0.00 in0.0 mm
06:44 AM 29.7°F-1.3°C 25.8°F-3.4°C 85% 12.3 mph SE19.8 kmh SE 16.0 mph25.7 kmh 29.90 in1012.5 mb 0.00 in0.0 mm 0.00 in0.0 mm 0.00 in0.0 mm
06:45 AM 29.7°F-1.3°C 25.8°F-3.4°C 85% 11.8 mph SE19.0 kmh SE 15.0 mph24.1 kmh 29.90 in1012.5 mb 0.00 in0.0 mm 0.00 in0.0 mm 0.00 in0.0 mm
06:46 AM 29.7°F-1.3°C 25.8°F-3.4°C 85% 11.9 mph SE19.2 kmh SE 15.0 mph24.1 kmh 29.90 in1012.5 mb 0.00 in0.0 mm 0.00 in0.0 mm 0.00 in0.0 mm
06:47 AM 29.7°F-1.3°C 25.8°F-3.4°C 85% 9.8 mph SE15.8 kmh SE 15.0 mph24.1 kmh 29.90 in1012.5 mb 0.00 in0.0 mm 0.00 in0.0 mm 0.00 in0.0 mm
06:48 AM 29.8°F-1.2°C 25.9°F-3.4°C 85% 8.2 mph SE13.2 kmh SE 17.0 mph27.4 kmh 29.90 in1012.5 mb 0.00 in0.0 mm 0.00 in0.0 mm 0.00 in0.0 mm
06:49 AM 29.7°F-1.3°C 25.8°F-3.4°C 85% 12.9 mph SE20.8 kmh SE 17.0 mph27.4 kmh 29.89 in1012.2 mb 0.00 in0.0 mm 0.00 in0.0 mm 0.00 in0.0 mm
06:50 AM 29.8°F-1.2°C 25.9°F-3.4°C 85% 11.4 mph SE18.3 kmh SE 18.0 mph29.0 kmh 29.89 in1012.2 mb 0.00 in0.0 mm 0.00 in0.0 mm 0.00 in0.0 mm
06:51 AM 29.8°F-1.2°C 25.9°F-3.4°C 85% 11.1 mph SSE17.9 kmh SSE 18.0 mph29.0 kmh 29.90 in1012.5 mb 0.00 in0.0 mm 0.00 in0.0 mm 0.00 in0.0 mm
06:52 AM 29.8°F-1.2°C 25.9°F-3.4°C 85% 10.7 mph SE17.2 kmh SE 17.0 mph27.4 kmh 29.90 in1012.5 mb 0.00 in0.0 mm 0.00 in0.0 mm 0.00 in0.0 mm
06:53 AM 29.8°F-1.2°C 25.9°F-3.4°C 85% 9.3 mph SE15.0 kmh SE 15.0 mph24.1 kmh 29.90 in1012.5 mb 0.00 in0.0 mm 0.00 in0.0 mm 0.00 in0.0 mm
06:54 AM 29.8°F-1.2°C 25.9°F-3.4°C 85% 13.2 mph SE21.2 kmh SE 17.0 mph27.4 kmh 29.90 in1012.5 mb 0.00 in0.0 mm 0.00 in0.0 mm 0.00 in0.0 mm
06:55 AM 29.8°F-1.2°C 25.9°F-3.4°C 85% 12.2 mph SE19.6 kmh SE 20.0 mph32.2 kmh 29.89 in1012.2 mb 0.00 in0.0 mm 0.00 in0.0 mm 0.00 in0.0 mm
06:56 AM 29.8°F-1.2°C 25.9°F-3.4°C 85% 12.3 mph SE19.8 kmh SE 20.0 mph32.2 kmh 29.89 in1012.2 mb 0.00 in0.0 mm 0.00 in0.0 mm 0.00 in0.0 mm
06:57 AM 29.9°F-1.2°C 26.0°F-3.3°C 85% 13.2 mph SSE21.2 kmh SSE 20.0 mph32.2 kmh 29.89 in1012.2 mb 0.00 in0.0 mm 0.00 in0.0 mm 0.00 in0.0 mm
06:58 AM 29.9°F-1.2°C 26.0°F-3.3°C 85% 13.2 mph SE21.2 kmh SE 20.0 mph32.2 kmh 29.89 in1012.2 mb 0.00 in0.0 mm 0.00 in0.0 mm 0.00 in0.0 mm
06:59 AM 29.9°F-1.2°C 26.0°F-3.3°C 85% 13.3 mph SE21.4 kmh SE 20.0 mph32.2 kmh 29.89 in1012.2 mb 0.00 in0.0 mm 0.00 in0.0 mm 0.00 in0.0 mm
07:00 AM 29.9°F-1.2°C 26.0°F-3.3°C 85% 11.9 mph SE19.2 kmh SE 19.0 mph30.6 kmh 29.89 in1012.2 mb 0.00 in0.0 mm 0.00 in0.0 mm 0.00 in0.0 mm
07:01 AM 29.8°F-1.2°C 25.9°F-3.4°C 85% 12.8 mph SE20.6 kmh SE 16.0 mph25.7 kmh 29.89 in1012.2 mb 0.00 in0.0 mm 0.00 in0.0 mm 0.00 in0.0 mm
07:02 AM 29.9°F-1.2°C 26.0°F-3.3°C 85% 12.8 mph SE20.6 kmh SE 15.0 mph24.1 kmh 29.89 in1012.2 mb 0.00 in0.0 mm 0.00 in0.0 mm 0.00 in0.0 mm
07:03 AM 29.9°F-1.2°C 26.0°F-3.3°C 85% 12.5 mph SSE20.1 kmh SSE 17.0 mph27.4 kmh 29.89 in1012.2 mb 0.00 in0.0 mm 0.00 in0.0 mm 0.00 in0.0 mm
07:04 AM 29.9°F-1.2°C 26.0°F-3.3°C 85% 11.3 mph SE18.2 kmh SE 17.0 mph27.4 kmh 29.89 in1012.2 mb 0.00 in0.0 mm 0.00 in0.0 mm 0.00 in0.0 mm
07:05 AM 29.9°F-1.2°C 26.0°F-3.3°C 85% 9.7 mph SE15.6 kmh SE 15.0 mph24.1 kmh 29.89 in1012.2 mb 0.00 in0.0 mm 0.00 in0.0 mm 0.00 in0.0 mm
07:06 AM 29.9°F-1.2°C 26.0°F-3.3°C 85% 9.8 mph SSE15.8 kmh SSE 14.0 mph22.5 kmh 29.89 in1012.2 mb 0.00 in0.0 mm 0.00 in0.0 mm 0.00 in0.0 mm
07:07 AM 29.9°F-1.2°C 26.0°F-3.3°C 85% 12.7 mph SE20.4 kmh SE 18.0 mph29.0 kmh 29.90 in1012.5 mb 0.00 in0.0 mm 0.00 in0.0 mm 0.00 in0.0 mm
07:08 AM 29.9°F-1.2°C 26.0°F-3.3°C 85% 12.6 mph SE20.3 kmh SE 18.0 mph29.0 kmh 29.90 in1012.5 mb 0.00 in0.0 mm 0.00 in0.0 mm 0.00 in0.0 mm
07:09 AM 29.9°F-1.2°C 26.0°F-3.3°C 85% 11.2 mph SE18.0 kmh SE 17.0 mph27.4 kmh 29.90 in1012.5 mb 0.00 in0.0 mm 0.00 in0.0 mm 0.00 in0.0 mm
07:10 AM 29.9°F-1.2°C 26.0°F-3.3°C 85% 13.7 mph SE22.0 kmh SE 17.0 mph27.4 kmh 29.89 in1012.2 mb 0.00 in0.0 mm 0.00 in0.0 mm 0.00 in0.0 mm
07:11 AM 29.9°F-1.2°C 26.0°F-3.3°C 85% 11.1 mph SE17.9 kmh SE 17.0 mph27.4 kmh 29.90 in1012.5 mb 0.00 in0.0 mm 0.00 in0.0 mm 0.00 in0.0 mm
07:12 AM 29.9°F-1.2°C 26.0°F-3.3°C 85% 12.2 mph SE19.6 kmh SE 17.0 mph27.4 kmh 29.89 in1012.2 mb 0.00 in0.0 mm 0.00 in0.0 mm 0.00 in0.0 mm
07:13 AM 29.9°F-1.2°C 26.0°F-3.3°C 85% 10.9 mph SE17.5 kmh SE 17.0 mph27.4 kmh 29.90 in1012.5 mb 0.00 in0.0 mm 0.00 in0.0 mm 0.00 in0.0 mm
07:14 AM 29.9°F-1.2°C 26.0°F-3.3°C 85% 9.4 mph SE15.1 kmh SE 15.0 mph24.1 kmh 29.90 in1012.5 mb 0.00 in0.0 mm 0.00 in0.0 mm 0.00 in0.0 mm
07:15 AM 29.9°F-1.2°C 26.0°F-3.3°C 85% 11.0 mph SE17.7 kmh SE 17.0 mph27.4 kmh 29.90 in1012.5 mb 0.00 in0.0 mm 0.00 in0.0 mm 0.00 in0.0 mm
07:16 AM 29.8°F-1.2°C 25.9°F-3.4°C 85% 11.5 mph SE18.5 kmh SE 17.0 mph27.4 kmh 29.89 in1012.2 mb 0.00 in0.0 mm 0.00 in0.0 mm 0.00 in0.0 mm
07:17 AM 29.9°F-1.2°C 26.0°F-3.3°C 85% 11.8 mph SE19.0 kmh SE 15.0 mph24.1 kmh 29.89 in1012.2 mb 0.00 in0.0 mm 0.00 in0.0 mm 0.00 in0.0 mm
07:18 AM 29.9°F-1.2°C 26.0°F-3.3°C 85% 12.0 mph SE19.3 kmh SE 19.0 mph30.6 kmh 29.89 in1012.2 mb 0.00 in0.0 mm 0.00 in0.0 mm 0.00 in0.0 mm
07:19 AM 29.9°F-1.2°C 26.0°F-3.3°C 85% 14.5 mph SE23.3 kmh SE 19.0 mph30.6 kmh 29.89 in1012.2 mb 0.00 in0.0 mm 0.00 in0.0 mm 0.00 in0.0 mm
07:20 AM 29.9°F-1.2°C 26.0°F-3.3°C 85% 13.9 mph SE22.4 kmh SE 19.0 mph30.6 kmh 29.89 in1012.2 mb 0.00 in0.0 mm 0.00 in0.0 mm 0.00 in0.0 mm
07:21 AM 29.9°F-1.2°C 26.0°F-3.3°C 85% 12.5 mph SE20.1 kmh SE 18.0 mph29.0 kmh 29.89 in1012.2 mb 0.00 in0.0 mm 0.00 in0.0 mm 0.00 in0.0 mm
07:22 AM 29.9°F-1.2°C 26.0°F-3.3°C 85% 11.5 mph SE18.5 kmh SE 16.0 mph25.7 kmh 29.89 in1012.2 mb 0.00 in0.0 mm 0.00 in0.0 mm 0.00 in0.0 mm
07:23 AM 29.9°F-1.2°C 26.0°F-3.3°C 85% 9.0 mph SE14.5 kmh SE 16.0 mph25.7 kmh 29.89 in1012.2 mb 0.00 in0.0 mm 0.00 in0.0 mm 0.00 in0.0 mm
07:24 AM 29.9°F-1.2°C 26.0°F-3.3°C 85% 14.2 mph SE22.9 kmh SE 17.0 mph27.4 kmh 29.89 in1012.2 mb 0.00 in0.0 mm 0.00 in0.0 mm 0.00 in0.0 mm
07:25 AM 29.9°F-1.2°C 26.0°F-3.3°C 85% 11.3 mph SE18.2 kmh SE 17.0 mph27.4 kmh 29.89 in1012.2 mb 0.00 in0.0 mm 0.00 in0.0 mm 0.00 in0.0 mm
07:26 AM 29.9°F-1.2°C 26.0°F-3.3°C 85% 11.8 mph SE19.0 kmh SE 14.0 mph22.5 kmh 29.90 in1012.5 mb 0.00 in0.0 mm 0.00 in0.0 mm 0.00 in0.0 mm
07:27 AM 29.9°F-1.2°C 26.0°F-3.3°C 85% 12.1 mph SE19.5 kmh SE 16.0 mph25.7 kmh 29.90 in1012.5 mb 0.00 in0.0 mm 0.00 in0.0 mm 0.00 in0.0 mm
07:28 AM 30.0°F-1.1°C 26.0°F-3.3°C 85% 10.4 mph SE16.7 kmh SE 16.0 mph25.7 kmh 29.89 in1012.2 mb 0.00 in0.0 mm 0.00 in0.0 mm 0.00 in0.0 mm
07:29 AM 30.0°F-1.1°C 26.0°F-3.3°C 85% 11.0 mph SE17.7 kmh SE 15.0 mph24.1 kmh 29.89 in1012.2 mb 0.00 in0.0 mm 0.00 in0.0 mm 0.00 in0.0 mm
07:30 AM 30.0°F-1.1°C 26.0°F-3.3°C 85% 12.0 mph SE19.3 kmh SE 15.0 mph24.1 kmh 29.89 in1012.2 mb 0.00 in0.0 mm 0.00 in0.0 mm 0.00 in0.0 mm
07:31 AM 30.0°F-1.1°C 26.0°F-3.3°C 85% 8.8 mph SE14.2 kmh SE 15.0 mph24.1 kmh 29.89 in1012.2 mb 0.00 in0.0 mm 0.00 in0.0 mm 0.00 in0.0 mm
07:32 AM 30.0°F-1.1°C 26.0°F-3.3°C 85% 10.1 mph SE16.3 kmh SE 15.0 mph24.1 kmh 29.89 in1012.2 mb 0.00 in0.0 mm 0.00 in0.0 mm 0.00 in0.0 mm
07:33 AM 30.0°F-1.1°C 26.0°F-3.3°C 85% 12.0 mph SE19.3 kmh SE 15.0 mph24.1 kmh 29.89 in1012.2 mb 0.00 in0.0 mm 0.00 in0.0 mm 0.00 in0.0 mm
07:34 AM 30.0°F-1.1°C 26.0°F-3.3°C 85% 13.9 mph SE22.4 kmh SE 21.0 mph33.8 kmh 29.89 in1012.2 mb 0.00 in0.0 mm 0.00 in0.0 mm 0.00 in0.0 mm
07:35 AM 30.0°F-1.1°C 26.0°F-3.3°C 85% 13.8 mph SE22.2 kmh SE 21.0 mph33.8 kmh 29.89 in1012.2 mb 0.00 in0.0 mm 0.00 in0.0 mm 0.00 in0.0 mm
07:36 AM 30.0°F-1.1°C 26.0°F-3.3°C 85% 11.5 mph SE18.5 kmh SE 19.0 mph30.6 kmh 29.89 in1012.2 mb 0.00 in0.0 mm 0.00 in0.0 mm 0.00 in0.0 mm
07:37 AM 30.0°F-1.1°C 26.0°F-3.3°C 85% 12.3 mph SE19.8 kmh SE 19.0 mph30.6 kmh 29.89 in1012.2 mb 0.00 in0.0 mm 0.00 in0.0 mm 0.00 in0.0 mm
07:38 AM 30.0°F-1.1°C 26.0°F-3.3°C 85% 11.1 mph SE17.9 kmh SE 16.0 mph25.7 kmh 29.89 in1012.2 mb 0.00 in0.0 mm 0.00 in0.0 mm 0.00 in0.0 mm
07:39 AM 30.1°F-1.1°C 26.1°F-3.3°C 85% 13.8 mph SE22.2 kmh SE 21.0 mph33.8 kmh 29.89 in1012.2 mb 0.00 in0.0 mm 0.00 in0.0 mm 0.00 in0.0 mm
07:40 AM 30.0°F-1.1°C 26.0°F-3.3°C 85% 12.4 mph SE20.0 kmh SE 21.0 mph33.8 kmh 29.89 in1012.2 mb 0.00 in0.0 mm 0.00 in0.0 mm 0.00 in0.0 mm
07:41 AM 30.0°F-1.1°C 26.0°F-3.3°C 85% 13.4 mph SE21.6 kmh SE 16.0 mph25.7 kmh 29.89 in1012.2 mb 0.00 in0.0 mm 0.00 in0.0 mm 0.00 in0.0 mm
07:42 AM 30.1°F-1.1°C 26.1°F-3.3°C 85% 12.8 mph SE20.6 kmh SE 19.0 mph30.6 kmh 29.89 in1012.2 mb 0.00 in0.0 mm 0.00 in0.0 mm 0.00 in0.0 mm
07:43 AM 30.1°F-1.1°C 26.1°F-3.3°C 85% 11.6 mph SE18.7 kmh SE 19.0 mph30.6 kmh 29.89 in1012.2 mb 0.00 in0.0 mm 0.00 in0.0 mm 0.00 in0.0 mm
07:44 AM 30.1°F-1.1°C 26.1°F-3.3°C 85% 11.7 mph SE18.8 kmh SE 16.0 mph25.7 kmh 29.89 in1012.2 mb 0.00 in0.0 mm 0.00 in0.0 mm 0.00 in0.0 mm
07:45 AM 30.1°F-1.1°C 26.1°F-3.3°C 85% 11.9 mph SSE19.2 kmh SSE 19.0 mph30.6 kmh 29.89 in1012.2 mb 0.00 in0.0 mm 0.00 in0.0 mm 0.00 in0.0 mm
07:46 AM 30.1°F-1.1°C 26.1°F-3.3°C 85% 11.5 mph SE18.5 kmh SE 19.0 mph30.6 kmh 29.89 in1012.2 mb 0.00 in0.0 mm 0.00 in0.0 mm 0.00 in0.0 mm
07:47 AM 30.1°F-1.1°C 26.1°F-3.3°C 85% 11.1 mph SE17.9 kmh SE 15.0 mph24.1 kmh 29.90 in1012.5 mb 0.00 in0.0 mm 0.00 in0.0 mm 0.00 in0.0 mm
07:48 AM 30.1°F-1.1°C 26.1°F-3.3°C 85% 8.2 mph SSE13.2 kmh SSE 15.0 mph24.1 kmh 29.90 in1012.5 mb 0.00 in0.0 mm 0.00 in0.0 mm 0.00 in0.0 mm
07:49 AM 30.2°F-1.0°C 26.2°F-3.2°C 85% 8.9 mph SE14.3 kmh SE 12.0 mph19.3 kmh 29.90 in1012.5 mb 0.00 in0.0 mm 0.00 in0.0 mm 0.00 in0.0 mm
07:50 AM 30.1°F-1.1°C 26.1°F-3.3°C 85% 13.0 mph SE20.9 kmh SE 19.0 mph30.6 kmh 29.90 in1012.5 mb 0.00 in0.0 mm 0.00 in0.0 mm 0.00 in0.0 mm
07:51 AM 30.2°F-1.0°C 26.2°F-3.2°C 85% 9.4 mph SE15.1 kmh SE 19.0 mph30.6 kmh 29.90 in1012.5 mb 0.00 in0.0 mm 0.00 in0.0 mm 0.00 in0.0 mm
07:52 AM 30.2°F-1.0°C 26.2°F-3.2°C 85% 10.0 mph SE16.1 kmh SE 13.0 mph20.9 kmh 29.90 in1012.5 mb 0.00 in0.0 mm 0.00 in0.0 mm 0.00 in0.0 mm
07:53 AM 30.2°F-1.0°C 26.2°F-3.2°C 85% 8.7 mph SE14.0 kmh SE 14.0 mph22.5 kmh 29.90 in1012.5 mb 0.00 in0.0 mm 0.00 in0.0 mm 0.00 in0.0 mm
07:54 AM 30.2°F-1.0°C 26.2°F-3.2°C 85% 8.7 mph SE14.0 kmh SE 14.0 mph22.5 kmh 29.90 in1012.5 mb 0.00 in0.0 mm 0.00 in0.0 mm 0.00 in0.0 mm
07:55 AM 30.2°F-1.0°C 26.2°F-3.2°C 85% 10.8 mph SE17.4 kmh SE 14.0 mph22.5 kmh 29.90 in1012.5 mb 0.00 in0.0 mm 0.00 in0.0 mm 0.00 in0.0 mm
07:56 AM 30.2°F-1.0°C 26.2°F-3.2°C 85% 9.2 mph SE14.8 kmh SE 14.0 mph22.5 kmh 29.90 in1012.5 mb 0.00 in0.0 mm 0.00 in0.0 mm 0.00 in0.0 mm
07:57 AM 30.1°F-1.1°C 26.1°F-3.3°C 85% 9.0 mph SE14.5 kmh SE 13.0 mph20.9 kmh 29.90 in1012.5 mb 0.00 in0.0 mm 0.00 in0.0 mm 0.00 in0.0 mm
07:58 AM 30.2°F-1.0°C 26.2°F-3.2°C 85% 9.2 mph SE14.8 kmh SE 13.0 mph20.9 kmh 29.90 in1012.5 mb 0.00 in0.0 mm 0.00 in0.0 mm 0.00 in0.0 mm
07:59 AM 30.2°F-1.0°C 26.2°F-3.2°C 85% 11.0 mph SE17.7 kmh SE 13.0 mph20.9 kmh 29.90 in1012.5 mb 0.00 in0.0 mm 0.00 in0.0 mm 0.00 in0.0 mm
08:00 AM 30.2°F-1.0°C 26.2°F-3.2°C 85% 14.6 mph SE23.5 kmh SE 19.0 mph30.6 kmh 29.90 in1012.5 mb 0.00 in0.0 mm 0.00 in0.0 mm 0.00 in0.0 mm
08:01 AM 30.2°F-1.0°C 26.2°F-3.2°C 85% 12.4 mph SE20.0 kmh SE 19.0 mph30.6 kmh 29.90 in1012.5 mb 0.00 in0.0 mm 0.00 in0.0 mm 0.00 in0.0 mm
08:02 AM 30.2°F-1.0°C 26.2°F-3.2°C 85% 12.9 mph SE20.8 kmh SE 17.0 mph27.4 kmh 29.90 in1012.5 mb 0.00 in0.0 mm 0.00 in0.0 mm 0.00 in0.0 mm
08:03 AM 30.2°F-1.0°C 26.2°F-3.2°C 85% 11.3 mph SE18.2 kmh SE 17.0 mph27.4 kmh 29.90 in1012.5 mb 0.00 in0.0 mm 0.00 in0.0 mm 0.00 in0.0 mm
08:04 AM 30.2°F-1.0°C 26.2°F-3.2°C 85% 11.3 mph SE18.2 kmh SE 16.0 mph25.7 kmh 29.90 in1012.5 mb 0.00 in0.0 mm 0.00 in0.0 mm 0.00 in0.0 mm
08:05 AM 30.2°F-1.0°C 26.2°F-3.2°C 85% 11.5 mph SE18.5 kmh SE 16.0 mph25.7 kmh 29.90 in1012.5 mb 0.00 in0.0 mm 0.00 in0.0 mm 0.00 in0.0 mm
08:06 AM 30.3°F-0.9°C 26.3°F-3.2°C 85% 10.4 mph SSE16.7 kmh SSE 15.0 mph24.1 kmh 29.90 in1012.5 mb 0.00 in0.0 mm 0.00 in0.0 mm 0.00 in0.0 mm
08:07 AM 30.3°F-0.9°C 26.3°F-3.2°C 85% 11.5 mph SE18.5 kmh SE 15.0 mph24.1 kmh 29.90 in1012.5 mb 0.00 in0.0 mm 0.00 in0.0 mm 0.00 in0.0 mm
08:08 AM 30.2°F-1.0°C 26.2°F-3.2°C 85% 11.4 mph SE18.3 kmh SE 16.0 mph25.7 kmh 29.90 in1012.5 mb 0.00 in0.0 mm 0.00 in0.0 mm 0.00 in0.0 mm
08:09 AM 30.2°F-1.0°C 26.2°F-3.2°C 85% 11.6 mph SE18.7 kmh SE 16.0 mph25.7 kmh 29.90 in1012.5 mb 0.00 in0.0 mm 0.00 in0.0 mm 0.00 in0.0 mm
08:10 AM 30.2°F-1.0°C 26.2°F-3.2°C 85% 10.7 mph SE17.2 kmh SE 16.0 mph25.7 kmh 29.90 in1012.5 mb 0.00 in0.0 mm 0.00 in0.0 mm 0.00 in0.0 mm
08:11 AM 30.2°F-1.0°C 26.2°F-3.2°C 85% 10.4 mph SE16.7 kmh SE 14.0 mph22.5 kmh 29.90 in1012.5 mb 0.00 in0.0 mm 0.00 in0.0 mm 0.00 in0.0 mm
08:12 AM 30.3°F-0.9°C 26.3°F-3.2°C 85% 10.4 mph SE16.7 kmh SE 15.0 mph24.1 kmh 29.90 in1012.5 mb 0.00 in0.0 mm 0.00 in0.0 mm 0.00 in0.0 mm
08:13 AM 30.2°F-1.0°C 26.2°F-3.2°C 85% 13.4 mph SSE21.6 kmh SSE 19.0 mph30.6 kmh 29.89 in1012.2 mb 0.00 in0.0 mm 0.00 in0.0 mm 0.00 in0.0 mm
08:14 AM 30.2°F-1.0°C 26.2°F-3.2°C 85% 11.5 mph SE18.5 kmh SE 19.0 mph30.6 kmh 29.89 in1012.2 mb 0.00 in0.0 mm 0.00 in0.0 mm 0.00 in0.0 mm
08:15 AM 30.3°F-0.9°C 26.3°F-3.2°C 85% 8.3 mph SE13.4 kmh SE 15.0 mph24.1 kmh 29.90 in1012.5 mb 0.00 in0.0 mm 0.00 in0.0 mm 0.00 in0.0 mm
08:16 AM 30.3°F-0.9°C 26.3°F-3.2°C 85% 11.4 mph SE18.3 kmh SE 15.0 mph24.1 kmh 29.89 in1012.2 mb 0.00 in0.0 mm 0.00 in0.0 mm 0.00 in0.0 mm
08:17 AM 30.3°F-0.9°C 26.3°F-3.2°C 85% 10.3 mph SE16.6 kmh SE 15.0 mph24.1 kmh 29.90 in1012.5 mb 0.00 in0.0 mm 0.00 in0.0 mm 0.00 in0.0 mm
08:18 AM 30.3°F-0.9°C 26.3°F-3.2°C 85% 13.8 mph SE22.2 kmh SE 20.0 mph32.2 kmh 29.90 in1012.5 mb 0.00 in0.0 mm 0.00 in0.0 mm 0.00 in0.0 mm
08:19 AM 30.3°F-0.9°C 26.3°F-3.2°C 85% 14.3 mph SE23.0 kmh SE 20.0 mph32.2 kmh 29.90 in1012.5 mb 0.00 in0.0 mm 0.00 in0.0 mm 0.00 in0.0 mm
08:20 AM 30.3°F-0.9°C 26.3°F-3.2°C 85% 10.4 mph SE16.7 kmh SE 18.0 mph29.0 kmh 29.90 in1012.5 mb 0.00 in0.0 mm 0.00 in0.0 mm 0.00 in0.0 mm
08:21 AM 30.3°F-0.9°C 26.3°F-3.2°C 85% 11.1 mph SE17.9 kmh SE 16.0 mph25.7 kmh 29.90 in1012.5 mb 0.00 in0.0 mm 0.00 in0.0 mm 0.00 in0.0 mm
08:22 AM 30.3°F-0.9°C 26.3°F-3.2°C 85% 9.0 mph SE14.5 kmh SE 15.0 mph24.1 kmh 29.90 in1012.5 mb 0.00 in0.0 mm 0.00 in0.0 mm 0.00 in0.0 mm
08:23 AM 30.3°F-0.9°C 26.3°F-3.2°C 85% 10.2 mph SSE16.4 kmh SSE 16.0 mph25.7 kmh 29.90 in1012.5 mb 0.00 in0.0 mm 0.00 in0.0 mm 0.00 in0.0 mm
08:24 AM 30.3°F-0.9°C 26.3°F-3.2°C 85% 10.0 mph SSE16.1 kmh SSE 16.0 mph25.7 kmh 29.90 in1012.5 mb 0.00 in0.0 mm 0.00 in0.0 mm 0.00 in0.0 mm
08:25 AM 30.3°F-0.9°C 26.3°F-3.2°C 85% 12.1 mph SE19.5 kmh SE 15.0 mph24.1 kmh 29.90 in1012.5 mb 0.00 in0.0 mm 0.00 in0.0 mm 0.00 in0.0 mm
08:26 AM 30.2°F-1.0°C 26.2°F-3.2°C 85% 10.8 mph SE17.4 kmh SE 15.0 mph24.1 kmh 29.90 in1012.5 mb 0.00 in0.0 mm 0.00 in0.0 mm 0.00 in0.0 mm
08:27 AM 30.3°F-0.9°C 26.3°F-3.2°C 85% 11.6 mph SE18.7 kmh SE 15.0 mph24.1 kmh 29.90 in1012.5 mb 0.00 in0.0 mm 0.00 in0.0 mm 0.00 in0.0 mm
08:28 AM 30.3°F-0.9°C 26.3°F-3.2°C 85% 11.9 mph SE19.2 kmh SE 15.0 mph24.1 kmh 29.90 in1012.5 mb 0.00 in0.0 mm 0.00 in0.0 mm 0.00 in0.0 mm
08:29 AM 30.3°F-0.9°C 26.3°F-3.2°C 85% 11.1 mph SE17.9 kmh SE 16.0 mph25.7 kmh 29.90 in1012.5 mb 0.00 in0.0 mm 0.00 in0.0 mm 0.00 in0.0 mm
08:30 AM 30.3°F-0.9°C 26.3°F-3.2°C 85% 12.9 mph SE20.8 kmh SE 17.0 mph27.4 kmh 29.90 in1012.5 mb 0.00 in0.0 mm 0.00 in0.0 mm 0.00 in0.0 mm
08:31 AM 30.3°F-0.9°C 26.3°F-3.2°C 85% 10.9 mph SE17.5 kmh SE 17.0 mph27.4 kmh 29.90 in1012.5 mb 0.00 in0.0 mm 0.00 in0.0 mm 0.00 in0.0 mm
08:32 AM 30.3°F-0.9°C 26.3°F-3.2°C 85% 13.3 mph SE21.4 kmh SE 17.0 mph27.4 kmh 29.90 in1012.5 mb 0.00 in0.0 mm 0.00 in0.0 mm 0.00 in0.0 mm
08:33 AM 30.3°F-0.9°C 26.3°F-3.2°C 85% 15.0 mph SE24.1 kmh SE 19.0 mph30.6 kmh 29.90 in1012.5 mb 0.00 in0.0 mm 0.00 in0.0 mm 0.00 in0.0 mm
08:34 AM 30.3°F-0.9°C 26.3°F-3.2°C 85% 10.2 mph SE16.4 kmh SE 19.0 mph30.6 kmh 29.90 in1012.5 mb 0.00 in0.0 mm 0.00 in0.0 mm 0.00 in0.0 mm
08:35 AM 30.3°F-0.9°C 26.3°F-3.2°C 85% 10.6 mph SE17.1 kmh SE 16.0 mph25.7 kmh 29.90 in1012.5 mb 0.00 in0.0 mm 0.00 in0.0 mm 0.00 in0.0 mm
08:36 AM 30.3°F-0.9°C 26.3°F-3.2°C 85% 11.2 mph SE18.0 kmh SE 16.0 mph25.7 kmh 29.90 in1012.5 mb 0.00 in0.0 mm 0.00 in0.0 mm 0.00 in0.0 mm
08:37 AM 30.3°F-0.9°C 26.3°F-3.2°C 85% 11.0 mph SE17.7 kmh SE 15.0 mph24.1 kmh 29.89 in1012.2 mb 0.00 in0.0 mm 0.00 in0.0 mm 0.00 in0.0 mm
08:38 AM 30.3°F-0.9°C 26.3°F-3.2°C 85% 13.8 mph SE22.2 kmh SE 16.0 mph25.7 kmh 29.90 in1012.5 mb 0.00 in0.0 mm 0.00 in0.0 mm 0.00 in0.0 mm
08:39 AM 30.3°F-0.9°C 26.3°F-3.2°C 85% 12.5 mph SE20.1 kmh SE 16.0 mph25.7 kmh 29.90 in1012.5 mb 0.00 in0.0 mm 0.00 in0.0 mm 0.00 in0.0 mm
08:40 AM 30.3°F-0.9°C 26.3°F-3.2°C 85% 10.4 mph SE16.7 kmh SE 16.0 mph25.7 kmh 29.90 in1012.5 mb 0.00 in0.0 mm 0.00 in0.0 mm 0.00 in0.0 mm
08:41 AM 30.3°F-0.9°C 26.3°F-3.2°C 85% 9.9 mph SE15.9 kmh SE 15.0 mph24.1 kmh 29.90 in1012.5 mb 0.00 in0.0 mm 0.00 in0.0 mm 0.00 in0.0 mm
08:42 AM 30.3°F-0.9°C 26.3°F-3.2°C 85% 8.8 mph SE14.2 kmh SE 15.0 mph24.1 kmh 29.90 in1012.5 mb 0.00 in0.0 mm 0.00 in0.0 mm 0.00 in0.0 mm
08:43 AM 30.4°F-0.9°C 26.4°F-3.1°C 85% 8.4 mph SE13.5 kmh SE 12.0 mph19.3 kmh 29.90 in1012.5 mb 0.00 in0.0 mm 0.00 in0.0 mm 0.00 in0.0 mm
08:44 AM 30.4°F-0.9°C 26.4°F-3.1°C 85% 11.3 mph SSE18.2 kmh SSE 16.0 mph25.7 kmh 29.90 in1012.5 mb 0.00 in0.0 mm 0.00 in0.0 mm 0.00 in0.0 mm
08:45 AM 30.3°F-0.9°C 26.3°F-3.2°C 85% 12.1 mph SE19.5 kmh SE 16.0 mph25.7 kmh 29.90 in1012.5 mb 0.00 in0.0 mm 0.00 in0.0 mm 0.00 in0.0 mm
08:46 AM 30.4°F-0.9°C 26.4°F-3.1°C 85% 12.3 mph SSE19.8 kmh SSE 16.0 mph25.7 kmh 29.90 in1012.5 mb 0.00 in0.0 mm 0.00 in0.0 mm 0.00 in0.0 mm
08:47 AM 30.3°F-0.9°C 26.3°F-3.2°C 85% 10.3 mph SE16.6 kmh SE 16.0 mph25.7 kmh 29.90 in1012.5 mb 0.00 in0.0 mm 0.00 in0.0 mm 0.00 in0.0 mm
08:48 AM 30.4°F-0.9°C 26.4°F-3.1°C 85% 9.0 mph SE14.5 kmh SE 13.0 mph20.9 kmh 29.90 in1012.5 mb 0.00 in0.0 mm 0.00 in0.0 mm 0.00 in0.0 mm
08:49 AM 30.4°F-0.9°C 26.4°F-3.1°C 85% 10.7 mph SSE17.2 kmh SSE 14.0 mph22.5 kmh 29.90 in1012.5 mb 0.00 in0.0 mm 0.00 in0.0 mm 0.00 in0.0 mm
08:50 AM 30.4°F-0.9°C 26.4°F-3.1°C 85% 12.8 mph SE20.6 kmh SE 16.0 mph25.7 kmh 29.90 in1012.5 mb 0.00 in0.0 mm 0.00 in0.0 mm 0.00 in0.0 mm
08:51 AM 30.4°F-0.9°C 26.4°F-3.1°C 85% 11.1 mph SE17.9 kmh SE 16.0 mph25.7 kmh 29.90 in1012.5 mb 0.00 in0.0 mm 0.00 in0.0 mm 0.00 in0.0 mm
08:52 AM 30.4°F-0.9°C 26.4°F-3.1°C 85% 10.7 mph SE17.2 kmh SE 15.0 mph24.1 kmh 29.90 in1012.5 mb 0.00 in0.0 mm 0.00 in0.0 mm 0.00 in0.0 mm
08:53 AM 30.4°F-0.9°C 26.4°F-3.1°C 85% 9.1 mph SE14.6 kmh SE 13.0 mph20.9 kmh 29.90 in1012.5 mb 0.00 in0.0 mm 0.00 in0.0 mm 0.00 in0.0 mm
08:54 AM 30.4°F-0.9°C 26.4°F-3.1°C 85% 10.5 mph SE16.9 kmh SE 15.0 mph24.1 kmh 29.90 in1012.5 mb 0.00 in0.0 mm 0.00 in0.0 mm 0.00 in0.0 mm
08:55 AM 30.4°F-0.9°C 26.4°F-3.1°C 85% 10.1 mph SSE16.3 kmh SSE 15.0 mph24.1 kmh 29.90 in1012.5 mb 0.00 in0.0 mm 0.00 in0.0 mm 0.00 in0.0 mm
08:56 AM 30.4°F-0.9°C 26.4°F-3.1°C 85% 7.8 mph SE12.6 kmh SE 13.0 mph20.9 kmh 29.90 in1012.5 mb 0.00 in0.0 mm 0.00 in0.0 mm 0.00 in0.0 mm
08:57 AM 30.4°F-0.9°C 26.4°F-3.1°C 85% 9.8 mph SSE15.8 kmh SSE 15.0 mph24.1 kmh 29.90 in1012.5 mb 0.00 in0.0 mm 0.00 in0.0 mm 0.00 in0.0 mm
08:58 AM 30.4°F-0.9°C 26.4°F-3.1°C 85% 8.5 mph SSE13.7 kmh SSE 15.0 mph24.1 kmh 29.90 in1012.5 mb 0.00 in0.0 mm 0.00 in0.0 mm 0.00 in0.0 mm
08:59 AM 30.4°F-0.9°C 26.4°F-3.1°C 85% 7.8 mph SE12.6 kmh SE 12.0 mph19.3 kmh 29.90 in1012.5 mb 0.00 in0.0 mm 0.00 in0.0 mm 0.00 in0.0 mm
09:00 AM 30.4°F-0.9°C 26.4°F-3.1°C 85% 9.1 mph SSE14.6 kmh SSE 12.0 mph19.3 kmh 29.90 in1012.5 mb 0.00 in0.0 mm 0.00 in0.0 mm 0.00 in0.0 mm
09:01 AM 30.4°F-0.9°C 26.4°F-3.1°C 85% 11.1 mph SE17.9 kmh SE 13.0 mph20.9 kmh 29.91 in1012.9 mb 0.00 in0.0 mm 0.00 in0.0 mm 0.00 in0.0 mm
09:02 AM 30.5°F-0.8°C 26.5°F-3.1°C 85% 8.3 mph SSE13.4 kmh SSE 13.0 mph20.9 kmh 29.91 in1012.9 mb 0.00 in0.0 mm 0.00 in0.0 mm 0.00 in0.0 mm
09:03 AM 30.4°F-0.9°C 26.4°F-3.1°C 85% 8.4 mph SSE13.5 kmh SSE 12.0 mph19.3 kmh 29.91 in1012.9 mb 0.00 in0.0 mm 0.00 in0.0 mm 0.00 in0.0 mm
09:04 AM 30.4°F-0.9°C 26.4°F-3.1°C 85% 8.5 mph SSE13.7 kmh SSE 13.0 mph20.9 kmh 29.91 in1012.9 mb 0.00 in0.0 mm 0.00 in0.0 mm 0.00 in0.0 mm
09:05 AM 30.4°F-0.9°C 26.4°F-3.1°C 85% 7.1 mph SSE11.4 kmh SSE 13.0 mph20.9 kmh 29.91 in1012.9 mb 0.00 in0.0 mm 0.00 in0.0 mm 0.00 in0.0 mm
09:06 AM 30.5°F-0.8°C 26.5°F-3.1°C 85% 8.7 mph SSE14.0 kmh SSE 12.0 mph19.3 kmh 29.90 in1012.5 mb 0.00 in0.0 mm 0.00 in0.0 mm 0.00 in0.0 mm
09:07 AM 30.5°F-0.8°C 26.5°F-3.1°C 85% 7.5 mph SSE12.1 kmh SSE 12.0 mph19.3 kmh 29.91 in1012.9 mb 0.00 in0.0 mm 0.00 in0.0 mm 0.00 in0.0 mm
09:08 AM 30.5°F-0.8°C 26.5°F-3.1°C 85% 6.9 mph SSE11.1 kmh SSE 11.0 mph17.7 kmh 29.90 in1012.5 mb 0.00 in0.0 mm 0.00 in0.0 mm 0.00 in0.0 mm
09:09 AM 30.5°F-0.8°C 26.5°F-3.1°C 85% 10.0 mph SSE16.1 kmh SSE 14.0 mph22.5 kmh 29.90 in1012.5 mb 0.00 in0.0 mm 0.00 in0.0 mm 0.00 in0.0 mm
09:10 AM 30.5°F-0.8°C 26.5°F-3.1°C 85% 10.8 mph SSE17.4 kmh SSE 14.0 mph22.5 kmh 29.90 in1012.5 mb 0.00 in0.0 mm 0.00 in0.0 mm 0.00 in0.0 mm
09:11 AM 30.5°F-0.8°C 26.5°F-3.1°C 85% 9.3 mph SE15.0 kmh SE 14.0 mph22.5 kmh 29.90 in1012.5 mb 0.00 in0.0 mm 0.00 in0.0 mm 0.00 in0.0 mm
09:12 AM 30.5°F-0.8°C 26.5°F-3.1°C 85% 10.0 mph SE16.1 kmh SE 13.0 mph20.9 kmh 29.90 in1012.5 mb 0.00 in0.0 mm 0.00 in0.0 mm 0.00 in0.0 mm
09:13 AM 30.5°F-0.8°C 26.5°F-3.1°C 85% 9.8 mph SE15.8 kmh SE 14.0 mph22.5 kmh 29.90 in1012.5 mb 0.00 in0.0 mm 0.00 in0.0 mm 0.00 in0.0 mm
09:14 AM 30.5°F-0.8°C 26.5°F-3.1°C 85% 10.0 mph SE16.1 kmh SE 15.0 mph24.1 kmh 29.90 in1012.5 mb 0.00 in0.0 mm 0.00 in0.0 mm 0.00 in0.0 mm
09:15 AM 30.5°F-0.8°C 26.5°F-3.1°C 85% 12.2 mph SSE19.6 kmh SSE 18.0 mph29.0 kmh 29.90 in1012.5 mb 0.00 in0.0 mm 0.00 in0.0 mm 0.00 in0.0 mm
09:16 AM 30.5°F-0.8°C 26.5°F-3.1°C 85% 12.3 mph SE19.8 kmh SE 18.0 mph29.0 kmh 29.90 in1012.5 mb 0.00 in0.0 mm 0.00 in0.0 mm 0.00 in0.0 mm
09:17 AM 30.5°F-0.8°C 26.5°F-3.1°C 85% 11.7 mph SE18.8 kmh SE 18.0 mph29.0 kmh 29.90 in1012.5 mb 0.00 in0.0 mm 0.00 in0.0 mm 0.00 in0.0 mm
09:18 AM 30.5°F-0.8°C 26.3°F-3.2°C 84% 11.3 mph SE18.2 kmh SE 16.0 mph25.7 kmh 29.90 in1012.5 mb 0.00 in0.0 mm 0.00 in0.0 mm 0.00 in0.0 mm
09:19 AM 30.5°F-0.8°C 26.3°F-3.2°C 84% 10.6 mph SSE17.1 kmh SSE 17.0 mph27.4 kmh 29.90 in1012.5 mb 0.00 in0.0 mm 0.00 in0.0 mm 0.00 in0.0 mm
09:20 AM 30.5°F-0.8°C 26.3°F-3.2°C 84% 9.8 mph SE15.8 kmh SE 17.0 mph27.4 kmh 29.90 in1012.5 mb 0.00 in0.0 mm 0.00 in0.0 mm 0.00 in0.0 mm
09:21 AM 30.6°F-0.8°C 26.4°F-3.1°C 84% 10.9 mph SE17.5 kmh SE 17.0 mph27.4 kmh 29.90 in1012.5 mb 0.00 in0.0 mm 0.00 in0.0 mm 0.00 in0.0 mm
09:22 AM 30.6°F-0.8°C 26.4°F-3.1°C 84% 9.7 mph SE15.6 kmh SE 17.0 mph27.4 kmh 29.90 in1012.5 mb 0.00 in0.0 mm 0.00 in0.0 mm 0.00 in0.0 mm
09:23 AM 30.5°F-0.8°C 26.3°F-3.2°C 84% 9.0 mph SE14.5 kmh SE 13.0 mph20.9 kmh 29.90 in1012.5 mb 0.00 in0.0 mm 0.00 in0.0 mm 0.00 in0.0 mm
09:24 AM 30.5°F-0.8°C 26.3°F-3.2°C 84% 10.7 mph SE17.2 kmh SE 14.0 mph22.5 kmh 29.90 in1012.5 mb 0.00 in0.0 mm 0.00 in0.0 mm 0.00 in0.0 mm
09:25 AM 30.6°F-0.8°C 26.4°F-3.1°C 84% 9.1 mph SE14.6 kmh SE 14.0 mph22.5 kmh 29.90 in1012.5 mb 0.00 in0.0 mm 0.00 in0.0 mm 0.00 in0.0 mm
09:26 AM 30.6°F-0.8°C 26.4°F-3.1°C 84% 11.6 mph SSE18.7 kmh SSE 18.0 mph29.0 kmh 29.90 in1012.5 mb 0.00 in0.0 mm 0.00 in0.0 mm 0.00 in0.0 mm
09:27 AM 30.5°F-0.8°C 26.3°F-3.2°C 84% 10.5 mph SSE16.9 kmh SSE 18.0 mph29.0 kmh 29.90 in1012.5 mb 0.00 in0.0 mm 0.00 in0.0 mm 0.00 in0.0 mm
09:28 AM 30.6°F-0.8°C 26.4°F-3.1°C 84% 10.4 mph SSE16.7 kmh SSE 17.0 mph27.4 kmh 29.90 in1012.5 mb 0.00 in0.0 mm 0.00 in0.0 mm 0.00 in0.0 mm
09:29 AM 30.5°F-0.8°C 26.3°F-3.2°C 84% 11.9 mph SE19.2 kmh SE 18.0 mph29.0 kmh 29.90 in1012.5 mb 0.00 in0.0 mm 0.00 in0.0 mm 0.00 in0.0 mm
09:30 AM 30.6°F-0.8°C 26.4°F-3.1°C 84% 8.0 mph SSE12.9 kmh SSE 18.0 mph29.0 kmh 29.90 in1012.5 mb 0.00 in0.0 mm 0.00 in0.0 mm 0.00 in0.0 mm
09:31 AM 30.5°F-0.8°C 26.3°F-3.2°C 84% 8.8 mph SSE14.2 kmh SSE 13.0 mph20.9 kmh 29.90 in1012.5 mb 0.00 in0.0 mm 0.00 in0.0 mm 0.00 in0.0 mm
09:32 AM 30.6°F-0.8°C 26.4°F-3.1°C 84% 11.1 mph SSE17.9 kmh SSE 16.0 mph25.7 kmh 29.90 in1012.5 mb 0.00 in0.0 mm 0.00 in0.0 mm 0.00 in0.0 mm
09:33 AM 30.6°F-0.8°C 26.4°F-3.1°C 84% 11.3 mph SE18.2 kmh SE 16.0 mph25.7 kmh 29.90 in1012.5 mb 0.00 in0.0 mm 0.00 in0.0 mm 0.00 in0.0 mm
09:34 AM 30.6°F-0.8°C 26.4°F-3.1°C 84% 10.0 mph SSE16.1 kmh SSE 16.0 mph25.7 kmh 29.90 in1012.5 mb 0.00 in0.0 mm 0.00 in0.0 mm 0.00 in0.0 mm
09:35 AM 30.6°F-0.8°C 26.4°F-3.1°C 84% 10.4 mph SSE16.7 kmh SSE 14.0 mph22.5 kmh 29.90 in1012.5 mb 0.00 in0.0 mm 0.00 in0.0 mm 0.00 in0.0 mm
09:36 AM 30.6°F-0.8°C 26.4°F-3.1°C 84% 11.6 mph SSE18.7 kmh SSE 16.0 mph25.7 kmh 29.90 in1012.5 mb 0.00 in0.0 mm 0.00 in0.0 mm 0.00 in0.0 mm
09:37 AM 30.6°F-0.8°C 26.4°F-3.1°C 84% 8.0 mph SE12.9 kmh SE 16.0 mph25.7 kmh 29.90 in1012.5 mb 0.00 in0.0 mm 0.00 in0.0 mm 0.00 in0.0 mm
09:38 AM 30.7°F-0.7°C 26.4°F-3.1°C 84% 7.8 mph SE12.6 kmh SE 14.0 mph22.5 kmh 29.90 in1012.5 mb 0.00 in0.0 mm 0.00 in0.0 mm 0.00 in0.0 mm
09:39 AM 30.6°F-0.8°C 26.4°F-3.1°C 84% 10.9 mph SSE17.5 kmh SSE 16.0 mph25.7 kmh 29.90 in1012.5 mb 0.00 in0.0 mm 0.00 in0.0 mm 0.00 in0.0 mm
09:40 AM 30.7°F-0.7°C 26.4°F-3.1°C 84% 9.3 mph SE15.0 kmh SE 16.0 mph25.7 kmh 29.90 in1012.5 mb 0.00 in0.0 mm 0.00 in0.0 mm 0.00 in0.0 mm
09:41 AM 30.7°F-0.7°C 26.4°F-3.1°C 84% 10.6 mph SSE17.1 kmh SSE 13.0 mph20.9 kmh 29.90 in1012.5 mb 0.00 in0.0 mm 0.00 in0.0 mm 0.00 in0.0 mm
09:42 AM 30.7°F-0.7°C 26.4°F-3.1°C 84% 12.5 mph SSE20.1 kmh SSE 18.0 mph29.0 kmh 29.90 in1012.5 mb 0.00 in0.0 mm 0.00 in0.0 mm 0.00 in0.0 mm
09:43 AM 30.7°F-0.7°C 26.4°F-3.1°C 84% 9.4 mph SE15.1 kmh SE 18.0 mph29.0 kmh 29.90 in1012.5 mb 0.00 in0.0 mm 0.00 in0.0 mm 0.00 in0.0 mm
09:44 AM 30.7°F-0.7°C 26.4°F-3.1°C 84% 13.0 mph SE20.9 kmh SE 21.0 mph33.8 kmh 29.90 in1012.5 mb 0.00 in0.0 mm 0.00 in0.0 mm 0.00 in0.0 mm
09:45 AM 30.7°F-0.7°C 26.4°F-3.1°C 84% 12.9 mph SE20.8 kmh SE 21.0 mph33.8 kmh 29.90 in1012.5 mb 0.00 in0.0 mm 0.00 in0.0 mm 0.00 in0.0 mm
09:46 AM 30.7°F-0.7°C 26.4°F-3.1°C 84% 13.4 mph SE21.6 kmh SE 20.0 mph32.2 kmh 29.90 in1012.5 mb 0.00 in0.0 mm 0.00 in0.0 mm 0.00 in0.0 mm
09:47 AM 30.7°F-0.7°C 26.4°F-3.1°C 84% 9.0 mph SSE14.5 kmh SSE 20.0 mph32.2 kmh 29.90 in1012.5 mb 0.00 in0.0 mm 0.00 in0.0 mm 0.00 in0.0 mm
09:48 AM 30.7°F-0.7°C 26.4°F-3.1°C 84% 11.8 mph SE19.0 kmh SE 16.0 mph25.7 kmh 29.90 in1012.5 mb 0.00 in0.0 mm 0.00 in0.0 mm 0.00 in0.0 mm
09:49 AM 30.7°F-0.7°C 26.4°F-3.1°C 84% 9.5 mph SE15.3 kmh SE 17.0 mph27.4 kmh 29.90 in1012.5 mb 0.00 in0.0 mm 0.00 in0.0 mm 0.00 in0.0 mm
09:50 AM 30.8°F-0.7°C 26.5°F-3.1°C 84% 13.7 mph SSE22.0 kmh SSE 19.0 mph30.6 kmh 29.90 in1012.5 mb 0.00 in0.0 mm 0.00 in0.0 mm 0.00 in0.0 mm
09:51 AM 30.7°F-0.7°C 26.4°F-3.1°C 84% 9.7 mph SE15.6 kmh SE 19.0 mph30.6 kmh 29.89 in1012.2 mb 0.00 in0.0 mm 0.00 in0.0 mm 0.00 in0.0 mm
09:52 AM 30.8°F-0.7°C 26.5°F-3.1°C 84% 6.9 mph SE11.1 kmh SE 12.0 mph19.3 kmh 29.90 in1012.5 mb 0.00 in0.0 mm 0.00 in0.0 mm 0.00 in0.0 mm
09:53 AM 30.8°F-0.7°C 26.5°F-3.1°C 84% 9.4 mph SSE15.1 kmh SSE 12.0 mph19.3 kmh 29.90 in1012.5 mb 0.00 in0.0 mm 0.00 in0.0 mm 0.00 in0.0 mm
09:54 AM 30.7°F-0.7°C 26.4°F-3.1°C 84% 9.7 mph SE15.6 kmh SE 14.0 mph22.5 kmh 29.90 in1012.5 mb 0.00 in0.0 mm 0.00 in0.0 mm 0.00 in0.0 mm
09:55 AM 30.8°F-0.7°C 26.5°F-3.1°C 84% 9.8 mph SSE15.8 kmh SSE 16.0 mph25.7 kmh 29.89 in1012.2 mb 0.00 in0.0 mm 0.00 in0.0 mm 0.00 in0.0 mm
09:56 AM 30.8°F-0.7°C 26.5°F-3.1°C 84% 11.2 mph SSE18.0 kmh SSE 16.0 mph25.7 kmh 29.90 in1012.5 mb 0.00 in0.0 mm 0.00 in0.0 mm 0.00 in0.0 mm
09:57 AM 30.7°F-0.7°C 26.4°F-3.1°C 84% 9.1 mph SE14.6 kmh SE 16.0 mph25.7 kmh 29.89 in1012.2 mb 0.00 in0.0 mm 0.00 in0.0 mm 0.00 in0.0 mm
09:58 AM 30.8°F-0.7°C 26.5°F-3.1°C 84% 10.4 mph SSE16.7 kmh SSE 16.0 mph25.7 kmh 29.89 in1012.2 mb 0.00 in0.0 mm 0.00 in0.0 mm 0.00 in0.0 mm
09:59 AM 30.8°F-0.7°C 26.5°F-3.1°C 84% 11.8 mph SSE19.0 kmh SSE 16.0 mph25.7 kmh 29.90 in1012.5 mb 0.00 in0.0 mm 0.00 in0.0 mm 0.00 in0.0 mm
10:00 AM 30.8°F-0.7°C 26.5°F-3.1°C 84% 10.2 mph SSE16.4 kmh SSE 15.0 mph24.1 kmh 29.90 in1012.5 mb 0.00 in0.0 mm 0.00 in0.0 mm 0.00 in0.0 mm
10:01 AM 30.8°F-0.7°C 26.5°F-3.1°C 84% 10.1 mph SSE16.3 kmh SSE 13.0 mph20.9 kmh 29.90 in1012.5 mb 0.00 in0.0 mm 0.00 in0.0 mm 0.00 in0.0 mm
10:02 AM 30.8°F-0.7°C 26.5°F-3.1°C 84% 13.1 mph SE21.1 kmh SE 18.0 mph29.0 kmh 29.89 in1012.2 mb 0.00 in0.0 mm 0.00 in0.0 mm 0.00 in0.0 mm
10:03 AM 30.9°F-0.6°C 26.6°F-3.0°C 84% 11.9 mph SE19.2 kmh SE 18.0 mph29.0 kmh 29.89 in1012.2 mb 0.00 in0.0 mm 0.00 in0.0 mm 0.00 in0.0 mm
10:04 AM 30.8°F-0.7°C 26.5°F-3.1°C 84% 12.9 mph SE20.8 kmh SE 18.0 mph29.0 kmh 29.89 in1012.2 mb 0.00 in0.0 mm 0.00 in0.0 mm 0.00 in0.0 mm
10:05 AM 30.9°F-0.6°C 26.6°F-3.0°C 84% 10.1 mph SSE16.3 kmh SSE 18.0 mph29.0 kmh 29.89 in1012.2 mb 0.00 in0.0 mm 0.00 in0.0 mm 0.00 in0.0 mm
10:06 AM 31.0°F-0.6°C 26.7°F-2.9°C 84% 14.4 mph SE23.2 kmh SE 20.0 mph32.2 kmh 29.89 in1012.2 mb 0.00 in0.0 mm 0.00 in0.0 mm 0.00 in0.0 mm
10:07 AM 31.0°F-0.6°C 26.7°F-2.9°C 84% 11.5 mph SE18.5 kmh SE 20.0 mph32.2 kmh 29.89 in1012.2 mb 0.00 in0.0 mm 0.00 in0.0 mm 0.00 in0.0 mm
10:08 AM 30.9°F-0.6°C 26.6°F-3.0°C 84% 11.9 mph SE19.2 kmh SE 17.0 mph27.4 kmh 29.89 in1012.2 mb 0.00 in0.0 mm 0.00 in0.0 mm 0.00 in0.0 mm
10:09 AM 31.0°F-0.6°C 26.7°F-2.9°C 84% 14.3 mph SE23.0 kmh SE 19.0 mph30.6 kmh 29.89 in1012.2 mb 0.00 in0.0 mm 0.00 in0.0 mm 0.00 in0.0 mm
10:10 AM 30.9°F-0.6°C 26.4°F-3.1°C 83% 13.6 mph SE21.9 kmh SE 19.0 mph30.6 kmh 29.89 in1012.2 mb 0.00 in0.0 mm 0.00 in0.0 mm 0.00 in0.0 mm
10:11 AM 31.0°F-0.6°C 26.5°F-3.1°C 83% 13.7 mph SE22.0 kmh SE 19.0 mph30.6 kmh 29.89 in1012.2 mb 0.00 in0.0 mm 0.00 in0.0 mm 0.00 in0.0 mm
10:12 AM 31.0°F-0.6°C 26.5°F-3.1°C 83% 11.5 mph SE18.5 kmh SE 17.0 mph27.4 kmh 29.89 in1012.2 mb 0.00 in0.0 mm 0.00 in0.0 mm 0.00 in0.0 mm
10:13 AM 31.0°F-0.6°C 26.5°F-3.1°C 83% 11.4 mph SE18.3 kmh SE 17.0 mph27.4 kmh 29.89 in1012.2 mb 0.00 in0.0 mm 0.00 in0.0 mm 0.00 in0.0 mm
10:14 AM 31.0°F-0.6°C 26.5°F-3.1°C 83% 11.4 mph SE18.3 kmh SE 17.0 mph27.4 kmh 29.89 in1012.2 mb 0.00 in0.0 mm 0.00 in0.0 mm 0.00 in0.0 mm
10:15 AM 31.0°F-0.6°C 26.5°F-3.1°C 83% 11.7 mph SSE18.8 kmh SSE 17.0 mph27.4 kmh 29.89 in1012.2 mb 0.00 in0.0 mm 0.00 in0.0 mm 0.00 in0.0 mm
10:16 AM 31.0°F-0.6°C 26.5°F-3.1°C 83% 10.3 mph SE16.6 kmh SE 17.0 mph27.4 kmh 29.90 in1012.5 mb 0.00 in0.0 mm 0.00 in0.0 mm 0.00 in0.0 mm
10:17 AM 31.0°F-0.6°C 26.5°F-3.1°C 83% 14.0 mph SE22.5 kmh SE 18.0 mph29.0 kmh 29.89 in1012.2 mb 0.00 in0.0 mm 0.00 in0.0 mm 0.00 in0.0 mm
10:18 AM 31.1°F-0.5°C 26.6°F-3.0°C 83% 14.3 mph SE23.0 kmh SE 18.0 mph29.0 kmh 29.89 in1012.2 mb 0.00 in0.0 mm 0.00 in0.0 mm 0.00 in0.0 mm
10:19 AM 31.0°F-0.6°C 26.5°F-3.1°C 83% 14.4 mph SE23.2 kmh SE 20.0 mph32.2 kmh 29.90 in1012.5 mb 0.00 in0.0 mm 0.00 in0.0 mm 0.00 in0.0 mm
10:20 AM 31.1°F-0.5°C 26.6°F-3.0°C 83% 14.2 mph SSE22.9 kmh SSE 20.0 mph32.2 kmh 29.89 in1012.2 mb 0.00 in0.0 mm 0.00 in0.0 mm 0.00 in0.0 mm
10:21 AM 31.0°F-0.6°C 26.5°F-3.1°C 83% 9.3 mph SE15.0 kmh SE 19.0 mph30.6 kmh 29.89 in1012.2 mb 0.00 in0.0 mm 0.00 in0.0 mm 0.00 in0.0 mm
10:22 AM 31.1°F-0.5°C 26.6°F-3.0°C 83% 11.5 mph SSE18.5 kmh SSE 16.0 mph25.7 kmh 29.89 in1012.2 mb 0.00 in0.0 mm 0.00 in0.0 mm 0.00 in0.0 mm
10:23 AM 31.1°F-0.5°C 26.6°F-3.0°C 83% 11.0 mph SSE17.7 kmh SSE 15.0 mph24.1 kmh 29.89 in1012.2 mb 0.00 in0.0 mm 0.00 in0.0 mm 0.00 in0.0 mm
10:24 AM 31.1°F-0.5°C 26.6°F-3.0°C 83% 8.0 mph SE12.9 kmh SE 18.0 mph29.0 kmh 29.89 in1012.2 mb 0.00 in0.0 mm 0.00 in0.0 mm 0.00 in0.0 mm
10:25 AM 31.2°F-0.4°C 26.6°F-3.0°C 83% 13.3 mph SSE21.4 kmh SSE 20.0 mph32.2 kmh 29.89 in1012.2 mb 0.00 in0.0 mm 0.00 in0.0 mm 0.00 in0.0 mm
10:26 AM 31.1°F-0.5°C 26.6°F-3.0°C 83% 10.2 mph SE16.4 kmh SE 20.0 mph32.2 kmh 29.89 in1012.2 mb 0.00 in0.0 mm 0.00 in0.0 mm 0.00 in0.0 mm
10:27 AM 31.1°F-0.5°C 26.6°F-3.0°C 83% 10.7 mph SE17.2 kmh SE 19.0 mph30.6 kmh 29.89 in1012.2 mb 0.00 in0.0 mm 0.00 in0.0 mm 0.00 in0.0 mm
10:28 AM 31.2°F-0.4°C 26.6°F-3.0°C 83% 10.5 mph SSE16.9 kmh SSE 19.0 mph30.6 kmh 29.90 in1012.5 mb 0.00 in0.0 mm 0.00 in0.0 mm 0.00 in0.0 mm
10:29 AM 31.2°F-0.4°C 26.6°F-3.0°C 83% 10.9 mph SE17.5 kmh SE 15.0 mph24.1 kmh 29.89 in1012.2 mb 0.00 in0.0 mm 0.00 in0.0 mm 0.00 in0.0 mm
10:30 AM 31.2°F-0.4°C 26.6°F-3.0°C 83% 8.7 mph SSE14.0 kmh SSE 14.0 mph22.5 kmh 29.89 in1012.2 mb 0.00 in0.0 mm 0.00 in0.0 mm 0.00 in0.0 mm
10:31 AM 31.2°F-0.4°C 26.6°F-3.0°C 83% 9.5 mph SSE15.3 kmh SSE 13.0 mph20.9 kmh 29.89 in1012.2 mb 0.00 in0.0 mm 0.00 in0.0 mm 0.00 in0.0 mm
10:32 AM 31.2°F-0.4°C 26.6°F-3.0°C 83% 7.5 mph SE12.1 kmh SE 12.0 mph19.3 kmh 29.89 in1012.2 mb 0.00 in0.0 mm 0.00 in0.0 mm 0.00 in0.0 mm
10:33 AM 31.2°F-0.4°C 26.6°F-3.0°C 83% 12.5 mph SE20.1 kmh SE 16.0 mph25.7 kmh 29.89 in1012.2 mb 0.00 in0.0 mm 0.00 in0.0 mm 0.00 in0.0 mm
10:34 AM 31.2°F-0.4°C 26.6°F-3.0°C 83% 9.5 mph SE15.3 kmh SE 16.0 mph25.7 kmh 29.89 in1012.2 mb 0.00 in0.0 mm 0.00 in0.0 mm 0.00 in0.0 mm
10:35 AM 31.2°F-0.4°C 26.6°F-3.0°C 83% 13.2 mph SE21.2 kmh SE 18.0 mph29.0 kmh 29.89 in1012.2 mb 0.00 in0.0 mm 0.00 in0.0 mm 0.00 in0.0 mm
10:36 AM 31.2°F-0.4°C 26.6°F-3.0°C 83% 14.3 mph SE23.0 kmh SE 21.0 mph33.8 kmh 29.89 in1012.2 mb 0.00 in0.0 mm 0.00 in0.0 mm 0.00 in0.0 mm
10:37 AM 31.2°F-0.4°C 26.6°F-3.0°C 83% 12.1 mph SE19.5 kmh SE 21.0 mph33.8 kmh 29.89 in1012.2 mb 0.00 in0.0 mm 0.00 in0.0 mm 0.00 in0.0 mm
10:38 AM 31.2°F-0.4°C 26.6°F-3.0°C 83% 10.7 mph SE17.2 kmh SE 16.0 mph25.7 kmh 29.89 in1012.2 mb 0.00 in0.0 mm 0.00 in0.0 mm 0.00 in0.0 mm
10:39 AM 31.2°F-0.4°C 26.6°F-3.0°C 83% 10.7 mph SE17.2 kmh SE 14.0 mph22.5 kmh 29.89 in1012.2 mb 0.00 in0.0 mm 0.00 in0.0 mm 0.00 in0.0 mm
10:40 AM 31.2°F-0.4°C 26.6°F-3.0°C 83% 12.8 mph SE20.6 kmh SE 16.0 mph25.7 kmh 29.89 in1012.2 mb 0.00 in0.0 mm 0.00 in0.0 mm 0.00 in0.0 mm
10:41 AM 31.2°F-0.4°C 26.6°F-3.0°C 83% 13.6 mph SSE21.9 kmh SSE 18.0 mph29.0 kmh 29.89 in1012.2 mb 0.00 in0.0 mm 0.00 in0.0 mm 0.00 in0.0 mm
10:42 AM 31.2°F-0.4°C 26.6°F-3.0°C 83% 12.4 mph SE20.0 kmh SE 18.0 mph29.0 kmh 29.89 in1012.2 mb 0.00 in0.0 mm 0.00 in0.0 mm 0.00 in0.0 mm
10:43 AM 31.3°F-0.4°C 26.7°F-2.9°C 83% 13.6 mph SE21.9 kmh SE 22.0 mph35.4 kmh 29.89 in1012.2 mb 0.00 in0.0 mm 0.00 in0.0 mm 0.00 in0.0 mm
10:44 AM 31.3°F-0.4°C 26.7°F-2.9°C 83% 12.1 mph SSE19.5 kmh SSE 22.0 mph35.4 kmh 29.89 in1012.2 mb 0.00 in0.0 mm 0.00 in0.0 mm 0.00 in0.0 mm
10:45 AM 31.3°F-0.4°C 26.7°F-2.9°C 83% 13.0 mph SE20.9 kmh SE 20.0 mph32.2 kmh 29.89 in1012.2 mb 0.00 in0.0 mm 0.00 in0.0 mm 0.00 in0.0 mm
10:46 AM 31.3°F-0.4°C 26.7°F-2.9°C 83% 9.7 mph SE15.6 kmh SE 20.0 mph32.2 kmh 29.89 in1012.2 mb 0.00 in0.0 mm 0.00 in0.0 mm 0.00 in0.0 mm
10:47 AM 31.3°F-0.4°C 26.7°F-2.9°C 83% 14.3 mph SSE23.0 kmh SSE 20.0 mph32.2 kmh 29.89 in1012.2 mb 0.00 in0.0 mm 0.00 in0.0 mm 0.00 in0.0 mm
10:48 AM 31.3°F-0.4°C 26.7°F-2.9°C 83% 12.4 mph SE20.0 kmh SE 20.0 mph32.2 kmh 29.89 in1012.2 mb 0.00 in0.0 mm 0.00 in0.0 mm 0.00 in0.0 mm
10:49 AM 31.3°F-0.4°C 26.7°F-2.9°C 83% 12.2 mph SE19.6 kmh SE 17.0 mph27.4 kmh 29.89 in1012.2 mb 0.00 in0.0 mm 0.00 in0.0 mm 0.00 in0.0 mm
10:50 AM 31.3°F-0.4°C 26.7°F-2.9°C 83% 10.5 mph SE16.9 kmh SE 16.0 mph25.7 kmh 29.89 in1012.2 mb 0.00 in0.0 mm 0.00 in0.0 mm 0.00 in0.0 mm
10:51 AM 31.4°F-0.3°C 26.8°F-2.9°C 83% 11.8 mph SSE19.0 kmh SSE 15.0 mph24.1 kmh 29.89 in1012.2 mb 0.00 in0.0 mm 0.00 in0.0 mm 0.00 in0.0 mm
10:52 AM 31.3°F-0.4°C 26.7°F-2.9°C 83% 14.0 mph SE22.5 kmh SE 15.0 mph24.1 kmh 29.89 in1012.2 mb 0.00 in0.0 mm 0.00 in0.0 mm 0.00 in0.0 mm
10:53 AM 31.4°F-0.3°C 26.8°F-2.9°C 83% 12.1 mph SE19.5 kmh SE 18.0 mph29.0 kmh 29.89 in1012.2 mb 0.00 in0.0 mm 0.00 in0.0 mm 0.00 in0.0 mm
10:54 AM 31.3°F-0.4°C 26.7°F-2.9°C 83% 11.8 mph SE19.0 kmh SE 18.0 mph29.0 kmh 29.89 in1012.2 mb 0.00 in0.0 mm 0.00 in0.0 mm 0.00 in0.0 mm
10:55 AM 31.3°F-0.4°C 26.7°F-2.9°C 83% 10.5 mph SSE16.9 kmh SSE 17.0 mph27.4 kmh 29.89 in1012.2 mb 0.00 in0.0 mm 0.00 in0.0 mm 0.00 in0.0 mm
10:56 AM 31.4°F-0.3°C 26.8°F-2.9°C 83% 11.3 mph SE18.2 kmh SE 18.0 mph29.0 kmh 29.89 in1012.2 mb 0.00 in0.0 mm 0.00 in0.0 mm 0.00 in0.0 mm
10:57 AM 31.4°F-0.3°C 26.8°F-2.9°C 83% 9.2 mph SE14.8 kmh SE 18.0 mph29.0 kmh 29.89 in1012.2 mb 0.00 in0.0 mm 0.00 in0.0 mm 0.00 in0.0 mm
10:58 AM 31.4°F-0.3°C 26.8°F-2.9°C 83% 9.7 mph SE15.6 kmh SE 17.0 mph27.4 kmh 29.89 in1012.2 mb 0.00 in0.0 mm 0.00 in0.0 mm 0.00 in0.0 mm
10:59 AM 31.4°F-0.3°C 26.8°F-2.9°C 83% 11.5 mph SSE18.5 kmh SSE 16.0 mph25.7 kmh 29.89 in1012.2 mb 0.00 in0.0 mm 0.00 in0.0 mm 0.00 in0.0 mm
11:00 AM 31.4°F-0.3°C 26.8°F-2.9°C 83% 13.5 mph SSE21.7 kmh SSE 19.0 mph30.6 kmh 29.89 in1012.2 mb 0.00 in0.0 mm 0.00 in0.0 mm 0.00 in0.0 mm
11:01 AM 31.4°F-0.3°C 26.8°F-2.9°C 83% 13.0 mph SE20.9 kmh SE 21.0 mph33.8 kmh 29.89 in1012.2 mb 0.00 in0.0 mm 0.00 in0.0 mm 0.00 in0.0 mm
11:02 AM 31.4°F-0.3°C 26.8°F-2.9°C 83% 13.9 mph SSE22.4 kmh SSE 20.0 mph32.2 kmh 29.89 in1012.2 mb 0.00 in0.0 mm 0.00 in0.0 mm 0.00 in0.0 mm
11:03 AM 31.5°F-0.3°C 26.9°F-2.8°C 83% 11.8 mph SE19.0 kmh SE 16.0 mph25.7 kmh 29.89 in1012.2 mb 0.00 in0.0 mm 0.00 in0.0 mm 0.00 in0.0 mm
11:04 AM 31.5°F-0.3°C 26.9°F-2.8°C 83% 11.2 mph SSE18.0 kmh SSE 16.0 mph25.7 kmh 29.89 in1012.2 mb 0.00 in0.0 mm 0.00 in0.0 mm 0.00 in0.0 mm
11:05 AM 31.5°F-0.3°C 26.9°F-2.8°C 83% 11.2 mph SSE18.0 kmh SSE 16.0 mph25.7 kmh 29.89 in1012.2 mb 0.00 in0.0 mm 0.00 in0.0 mm 0.00 in0.0 mm
11:06 AM 31.5°F-0.3°C 26.9°F-2.8°C 83% 10.8 mph SSE17.4 kmh SSE 19.0 mph30.6 kmh 29.89 in1012.2 mb 0.00 in0.0 mm 0.00 in0.0 mm 0.00 in0.0 mm
11:07 AM 31.5°F-0.3°C 26.9°F-2.8°C 83% 15.5 mph SSE24.9 kmh SSE 20.0 mph32.2 kmh 29.89 in1012.2 mb 0.00 in0.0 mm 0.00 in0.0 mm 0.00 in0.0 mm
11:08 AM 31.5°F-0.3°C 26.9°F-2.8°C 83% 15.4 mph SSE24.8 kmh SSE 23.0 mph37.0 kmh 29.89 in1012.2 mb 0.00 in0.0 mm 0.00 in0.0 mm 0.00 in0.0 mm
11:09 AM 31.5°F-0.3°C 26.7°F-2.9°C 82% 14.0 mph SE22.5 kmh SE 23.0 mph37.0 kmh 29.89 in1012.2 mb 0.00 in0.0 mm 0.00 in0.0 mm 0.00 in0.0 mm
11:10 AM 31.5°F-0.3°C 26.7°F-2.9°C 82% 12.3 mph SSE19.8 kmh SSE 18.0 mph29.0 kmh 29.89 in1012.2 mb 0.00 in0.0 mm 0.00 in0.0 mm 0.00 in0.0 mm
11:11 AM 31.5°F-0.3°C 26.7°F-2.9°C 82% 10.0 mph SE16.1 kmh SE 17.0 mph27.4 kmh 29.89 in1012.2 mb 0.00 in0.0 mm 0.00 in0.0 mm 0.00 in0.0 mm
11:12 AM 31.5°F-0.3°C 26.9°F-2.8°C 83% 12.8 mph SSE20.6 kmh SSE 17.0 mph27.4 kmh 29.89 in1012.2 mb 0.00 in0.0 mm 0.00 in0.0 mm 0.00 in0.0 mm
11:13 AM 31.5°F-0.3°C 26.9°F-2.8°C 83% 11.8 mph SSE19.0 kmh SSE 17.0 mph27.4 kmh 29.89 in1012.2 mb 0.00 in0.0 mm 0.00 in0.0 mm 0.00 in0.0 mm
11:14 AM 31.6°F-0.2°C 27.0°F-2.8°C 83% 12.2 mph SE19.6 kmh SE 17.0 mph27.4 kmh 29.89 in1012.2 mb 0.00 in0.0 mm 0.00 in0.0 mm 0.00 in0.0 mm
11:15 AM 31.6°F-0.2°C 27.0°F-2.8°C 83% 14.3 mph SE23.0 kmh SE 18.0 mph29.0 kmh 29.89 in1012.2 mb 0.00 in0.0 mm 0.00 in0.0 mm 0.00 in0.0 mm
11:16 AM 31.6°F-0.2°C 26.7°F-2.9°C 82% 10.2 mph SSE16.4 kmh SSE 18.0 mph29.0 kmh 29.89 in1012.2 mb 0.00 in0.0 mm 0.00 in0.0 mm 0.00 in0.0 mm
11:17 AM 31.6°F-0.2°C 26.7°F-2.9°C 82% 13.3 mph SSE21.4 kmh SSE 20.0 mph32.2 kmh 29.89 in1012.2 mb 0.00 in0.0 mm 0.00 in0.0 mm 0.00 in0.0 mm
11:18 AM 31.6°F-0.2°C 26.7°F-2.9°C 82% 13.5 mph SSE21.7 kmh SSE 19.0 mph30.6 kmh 29.89 in1012.2 mb 0.00 in0.0 mm 0.00 in0.0 mm 0.00 in0.0 mm
11:19 AM 31.6°F-0.2°C 26.7°F-2.9°C 82% 12.8 mph SE20.6 kmh SE 17.0 mph27.4 kmh 29.89 in1012.2 mb 0.00 in0.0 mm 0.00 in0.0 mm 0.00 in0.0 mm
11:20 AM 31.6°F-0.2°C 26.7°F-2.9°C 82% 8.5 mph SSE13.7 kmh SSE 16.0 mph25.7 kmh 29.89 in1012.2 mb 0.00 in0.0 mm 0.00 in0.0 mm 0.00 in0.0 mm
11:21 AM 31.6°F-0.2°C 26.7°F-2.9°C 82% 8.2 mph SSE13.2 kmh SSE 12.0 mph19.3 kmh 29.89 in1012.2 mb 0.00 in0.0 mm 0.00 in0.0 mm 0.00 in0.0 mm
11:22 AM 31.6°F-0.2°C 26.7°F-2.9°C 82% 10.5 mph SSE16.9 kmh SSE 15.0 mph24.1 kmh 29.89 in1012.2 mb 0.00 in0.0 mm 0.00 in0.0 mm 0.00 in0.0 mm
11:23 AM 31.6°F-0.2°C 26.7°F-2.9°C 82% 10.8 mph SSE17.4 kmh SSE 15.0 mph24.1 kmh 29.89 in1012.2 mb 0.00 in0.0 mm 0.00 in0.0 mm 0.00 in0.0 mm
11:24 AM 31.6°F-0.2°C 26.7°F-2.9°C 82% 10.9 mph SSE17.5 kmh SSE 15.0 mph24.1 kmh 29.89 in1012.2 mb 0.00 in0.0 mm 0.00 in0.0 mm 0.00 in0.0 mm
11:25 AM 31.7°F-0.2°C 26.8°F-2.9°C 82% 11.0 mph SSE17.7 kmh SSE 16.0 mph25.7 kmh 29.89 in1012.2 mb 0.00 in0.0 mm 0.00 in0.0 mm 0.00 in0.0 mm
11:26 AM 31.7°F-0.2°C 26.8°F-2.9°C 82% 12.1 mph SSE19.5 kmh SSE 19.0 mph30.6 kmh 29.89 in1012.2 mb 0.00 in0.0 mm 0.00 in0.0 mm 0.00 in0.0 mm
11:27 AM 31.7°F-0.2°C 26.8°F-2.9°C 82% 12.0 mph SSE19.3 kmh SSE 19.0 mph30.6 kmh 29.89 in1012.2 mb 0.00 in0.0 mm 0.00 in0.0 mm 0.00 in0.0 mm
11:28 AM 31.7°F-0.2°C 26.8°F-2.9°C 82% 7.8 mph SSE12.6 kmh SSE 19.0 mph30.6 kmh 29.89 in1012.2 mb 0.00 in0.0 mm 0.00 in0.0 mm 0.00 in0.0 mm
11:29 AM 31.7°F-0.2°C 26.8°F-2.9°C 82% 8.1 mph SSE13.0 kmh SSE 13.0 mph20.9 kmh 29.89 in1012.2 mb 0.00 in0.0 mm 0.00 in0.0 mm 0.00 in0.0 mm
11:30 AM 31.7°F-0.2°C 27.1°F-2.7°C 83% 8.1 mph SSE13.0 kmh SSE 12.0 mph19.3 kmh 29.89 in1012.2 mb 0.00 in0.0 mm 0.00 in0.0 mm 0.00 in0.0 mm
11:31 AM 31.7°F-0.2°C 27.1°F-2.7°C 83% 8.9 mph S14.3 kmh S 13.0 mph20.9 kmh 29.89 in1012.2 mb 0.00 in0.0 mm 0.00 in0.0 mm 0.00 in0.0 mm
11:32 AM 31.7°F-0.2°C 27.1°F-2.7°C 83% 9.9 mph SSE15.9 kmh SSE 17.0 mph27.4 kmh 29.89 in1012.2 mb 0.00 in0.0 mm 0.00 in0.0 mm 0.00 in0.0 mm
11:33 AM 31.7°F-0.2°C 27.1°F-2.7°C 83% 11.9 mph SSE19.2 kmh SSE 17.0 mph27.4 kmh 29.89 in1012.2 mb 0.00 in0.0 mm 0.00 in0.0 mm 0.00 in0.0 mm
11:34 AM 31.7°F-0.2°C 26.8°F-2.9°C 82% 10.1 mph S16.3 kmh S 16.0 mph25.7 kmh 29.89 in1012.2 mb 0.00 in0.0 mm 0.00 in0.0 mm 0.00 in0.0 mm
11:35 AM 31.8°F-0.1°C 26.9°F-2.8°C 82% 8.1 mph SSE13.0 kmh SSE 15.0 mph24.1 kmh 29.89 in1012.2 mb 0.00 in0.0 mm 0.00 in0.0 mm 0.00 in0.0 mm
11:36 AM 31.8°F-0.1°C 26.9°F-2.8°C 82% 8.7 mph SSE14.0 kmh SSE 13.0 mph20.9 kmh 29.89 in1012.2 mb 0.00 in0.0 mm 0.00 in0.0 mm 0.00 in0.0 mm
11:37 AM 31.8°F-0.1°C 26.9°F-2.8°C 82% 11.9 mph SSE19.2 kmh SSE 20.0 mph32.2 kmh 29.89 in1012.2 mb 0.00 in0.0 mm 0.00 in0.0 mm 0.00 in0.0 mm
11:38 AM 31.7°F-0.2°C 26.8°F-2.9°C 82% 11.3 mph SSE18.2 kmh SSE 20.0 mph32.2 kmh 29.89 in1012.2 mb 0.00 in0.0 mm 0.00 in0.0 mm 0.00 in0.0 mm
11:39 AM 31.8°F-0.1°C 26.9°F-2.8°C 82% 14.0 mph SSE22.5 kmh SSE 17.0 mph27.4 kmh 29.89 in1012.2 mb 0.00 in0.0 mm 0.00 in0.0 mm 0.00 in0.0 mm
11:40 AM 31.8°F-0.1°C 26.9°F-2.8°C 82% 12.3 mph SSE19.8 kmh SSE 17.0 mph27.4 kmh 29.88 in1011.9 mb 0.00 in0.0 mm 0.00 in0.0 mm 0.00 in0.0 mm
11:41 AM 31.8°F-0.1°C 26.9°F-2.8°C 82% 14.1 mph SSE22.7 kmh SSE 19.0 mph30.6 kmh 29.88 in1011.9 mb 0.00 in0.0 mm 0.00 in0.0 mm 0.00 in0.0 mm
11:42 AM 31.7°F-0.2°C 26.8°F-2.9°C 82% 12.5 mph SSE20.1 kmh SSE 17.0 mph27.4 kmh 29.88 in1011.9 mb 0.00 in0.0 mm 0.00 in0.0 mm 0.00 in0.0 mm
11:43 AM 31.8°F-0.1°C 26.9°F-2.8°C 82% 11.4 mph SE18.3 kmh SE 17.0 mph27.4 kmh 29.88 in1011.9 mb 0.00 in0.0 mm 0.00 in0.0 mm 0.00 in0.0 mm
11:44 AM 31.8°F-0.1°C 26.9°F-2.8°C 82% 13.8 mph SE22.2 kmh SE 19.0 mph30.6 kmh 29.88 in1011.9 mb 0.00 in0.0 mm 0.00 in0.0 mm 0.00 in0.0 mm
11:45 AM 31.8°F-0.1°C 26.9°F-2.8°C 82% 9.0 mph SSE14.5 kmh SSE 19.0 mph30.6 kmh 29.88 in1011.9 mb 0.00 in0.0 mm 0.00 in0.0 mm 0.00 in0.0 mm
11:46 AM 31.8°F-0.1°C 26.9°F-2.8°C 82% 8.3 mph SSE13.4 kmh SSE 14.0 mph22.5 kmh 29.88 in1011.9 mb 0.00 in0.0 mm 0.00 in0.0 mm 0.00 in0.0 mm
11:47 AM 31.8°F-0.1°C 26.9°F-2.8°C 82% 13.8 mph SSE22.2 kmh SSE 19.0 mph30.6 kmh 29.88 in1011.9 mb 0.00 in0.0 mm 0.00 in0.0 mm 0.00 in0.0 mm
11:48 AM 31.8°F-0.1°C 26.9°F-2.8°C 82% 11.8 mph SSE19.0 kmh SSE 19.0 mph30.6 kmh 29.88 in1011.9 mb 0.00 in0.0 mm 0.00 in0.0 mm 0.00 in0.0 mm
11:49 AM 31.8°F-0.1°C 26.9°F-2.8°C 82% 10.4 mph SSE16.7 kmh SSE 17.0 mph27.4 kmh 29.88 in1011.9 mb 0.00 in0.0 mm 0.00 in0.0 mm 0.00 in0.0 mm
11:50 AM 31.8°F-0.1°C 26.9°F-2.8°C 82% 9.4 mph SSE15.1 kmh SSE 13.0 mph20.9 kmh 29.88 in1011.9 mb 0.00 in0.0 mm 0.00 in0.0 mm 0.00 in0.0 mm
11:51 AM 31.8°F-0.1°C 26.9°F-2.8°C 82% 11.2 mph SSE18.0 kmh SSE 15.0 mph24.1 kmh 29.88 in1011.9 mb 0.00 in0.0 mm 0.00 in0.0 mm 0.00 in0.0 mm
11:52 AM 31.8°F-0.1°C 26.9°F-2.8°C 82% 13.1 mph SSE21.1 kmh SSE 19.0 mph30.6 kmh 29.88 in1011.9 mb 0.00 in0.0 mm 0.00 in0.0 mm 0.00 in0.0 mm
11:53 AM 31.8°F-0.1°C 26.9°F-2.8°C 82% 14.7 mph SSE23.7 kmh SSE 20.0 mph32.2 kmh 29.88 in1011.9 mb 0.00 in0.0 mm 0.00 in0.0 mm 0.00 in0.0 mm
11:54 AM 31.9°F-0.1°C 27.0°F-2.8°C 82% 11.3 mph SSE18.2 kmh SSE 19.0 mph30.6 kmh 29.88 in1011.9 mb 0.00 in0.0 mm 0.00 in0.0 mm 0.00 in0.0 mm
11:55 AM 31.9°F-0.1°C 27.0°F-2.8°C 82% 12.0 mph SSE19.3 kmh SSE 16.0 mph25.7 kmh 29.88 in1011.9 mb 0.00 in0.0 mm 0.00 in0.0 mm 0.00 in0.0 mm
11:56 AM 31.8°F-0.1°C 26.9°F-2.8°C 82% 10.6 mph SSE17.1 kmh SSE 17.0 mph27.4 kmh 29.88 in1011.9 mb 0.00 in0.0 mm 0.00 in0.0 mm 0.00 in0.0 mm
11:57 AM 31.9°F-0.1°C 27.0°F-2.8°C 82% 14.5 mph SSE23.3 kmh SSE 22.0 mph35.4 kmh 29.88 in1011.9 mb 0.00 in0.0 mm 0.00 in0.0 mm 0.00 in0.0 mm
11:58 AM 31.9°F-0.1°C 27.0°F-2.8°C 82% 12.3 mph SSE19.8 kmh SSE 22.0 mph35.4 kmh 29.88 in1011.9 mb 0.00 in0.0 mm 0.00 in0.0 mm 0.00 in0.0 mm
11:59 AM 31.9°F-0.1°C 27.0°F-2.8°C 82% 14.3 mph SE23.0 kmh SE 17.0 mph27.4 kmh 29.88 in1011.9 mb 0.00 in0.0 mm 0.00 in0.0 mm 0.00 in0.0 mm
12:00 PM 31.9°F-0.1°C 27.0°F-2.8°C 82% 12.5 mph SSE20.1 kmh SSE 17.0 mph27.4 kmh 29.88 in1011.9 mb 0.00 in0.0 mm 0.00 in0.0 mm 0.00 in0.0 mm
12:01 PM 31.9°F-0.1°C 27.0°F-2.8°C 82% 11.7 mph SSE18.8 kmh SSE 18.0 mph29.0 kmh 29.88 in1011.9 mb 0.00 in0.0 mm 0.00 in0.0 mm 0.00 in0.0 mm
12:02 PM 31.9°F-0.1°C 27.0°F-2.8°C 82% 13.7 mph SSE22.0 kmh SSE 18.0 mph29.0 kmh 29.88 in1011.9 mb 0.00 in0.0 mm 0.00 in0.0 mm 0.00 in0.0 mm
12:03 PM 31.9°F-0.1°C 27.0°F-2.8°C 82% 12.1 mph SSE19.5 kmh SSE 18.0 mph29.0 kmh 29.88 in1011.9 mb 0.00 in0.0 mm 0.00 in0.0 mm 0.00 in0.0 mm
12:04 PM 31.9°F-0.1°C 27.0°F-2.8°C 82% 8.2 mph SSE13.2 kmh SSE 17.0 mph27.4 kmh 29.88 in1011.9 mb 0.00 in0.0 mm 0.00 in0.0 mm 0.00 in0.0 mm
12:05 PM 31.9°F-0.1°C 27.0°F-2.8°C 82% 11.0 mph SE17.7 kmh SE 15.0 mph24.1 kmh 29.88 in1011.9 mb 0.00 in0.0 mm 0.00 in0.0 mm 0.00 in0.0 mm
12:06 PM 31.9°F-0.1°C 27.0°F-2.8°C 82% 11.7 mph SSE18.8 kmh SSE 17.0 mph27.4 kmh 29.88 in1011.9 mb 0.00 in0.0 mm 0.00 in0.0 mm 0.00 in0.0 mm
12:07 PM 31.9°F-0.1°C 27.0°F-2.8°C 82% 10.2 mph SSE16.4 kmh SSE 17.0 mph27.4 kmh 29.88 in1011.9 mb 0.00 in0.0 mm 0.00 in0.0 mm 0.00 in0.0 mm
12:08 PM 31.9°F-0.1°C 27.0°F-2.8°C 82% 9.1 mph SSE14.6 kmh SSE 15.0 mph24.1 kmh 29.88 in1011.9 mb 0.00 in0.0 mm 0.00 in0.0 mm 0.00 in0.0 mm
12:09 PM 31.9°F-0.1°C 27.0°F-2.8°C 82% 11.5 mph SSE18.5 kmh SSE 17.0 mph27.4 kmh 29.88 in1011.9 mb 0.00 in0.0 mm 0.00 in0.0 mm 0.00 in0.0 mm
12:10 PM 32.0°F0.0°C 27.1°F-2.7°C 82% 11.6 mph SSE18.7 kmh SSE 19.0 mph30.6 kmh 29.88 in1011.9 mb 0.00 in0.0 mm 0.00 in0.0 mm 0.00 in0.0 mm
12:11 PM 32.0°F0.0°C 27.1°F-2.7°C 82% 10.3 mph SSE16.6 kmh SSE 19.0 mph30.6 kmh 29.88 in1011.9 mb 0.00 in0.0 mm 0.00 in0.0 mm 0.00 in0.0 mm
12:12 PM 32.0°F0.0°C 27.1°F-2.7°C 82% 9.6 mph SE15.4 kmh SE 15.0 mph24.1 kmh 29.88 in1011.9 mb 0.00 in0.0 mm 0.00 in0.0 mm 0.00 in0.0 mm
12:13 PM 31.9°F-0.1°C 27.0°F-2.8°C 82% 10.2 mph SSE16.4 kmh SSE 12.0 mph19.3 kmh 29.88 in1011.9 mb 0.00 in0.0 mm 0.00 in0.0 mm 0.00 in0.0 mm
12:14 PM 32.0°F0.0°C 27.1°F-2.7°C 82% 9.8 mph SSE15.8 kmh SSE 15.0 mph24.1 kmh 29.88 in1011.9 mb 0.00 in0.0 mm 0.00 in0.0 mm 0.00 in0.0 mm
12:15 PM 32.0°F0.0°C 27.1°F-2.7°C 82% 11.1 mph S17.9 kmh S 18.0 mph29.0 kmh 29.88 in1011.9 mb 0.00 in0.0 mm 0.00 in0.0 mm 0.00 in0.0 mm
12:16 PM 32.0°F0.0°C 27.1°F-2.7°C 82% 11.5 mph SSE18.5 kmh SSE 18.0 mph29.0 kmh 29.88 in1011.9 mb 0.00 in0.0 mm 0.00 in0.0 mm 0.00 in0.0 mm
12:17 PM 32.0°F0.0°C 27.1°F-2.7°C 82% 12.4 mph SSE20.0 kmh SSE 16.0 mph25.7 kmh 29.88 in1011.9 mb 0.00 in0.0 mm 0.00 in0.0 mm 0.00 in0.0 mm
12:18 PM 32.0°F0.0°C 27.1°F-2.7°C 82% 12.3 mph SSE19.8 kmh SSE 18.0 mph29.0 kmh 29.87 in1011.5 mb 0.00 in0.0 mm 0.00 in0.0 mm 0.00 in0.0 mm
12:19 PM 32.0°F0.0°C 27.1°F-2.7°C 82% 14.3 mph SE23.0 kmh SE 18.0 mph29.0 kmh 29.87 in1011.5 mb 0.00 in0.0 mm 0.00 in0.0 mm 0.00 in0.0 mm
12:20 PM 32.0°F0.0°C 26.8°F-2.9°C 81% 12.1 mph SE19.5 kmh SE 18.0 mph29.0 kmh 29.87 in1011.5 mb 0.00 in0.0 mm 0.00 in0.0 mm 0.00 in0.0 mm
12:21 PM 32.0°F0.0°C 27.1°F-2.7°C 82% 10.4 mph SSE16.7 kmh SSE 15.0 mph24.1 kmh 29.87 in1011.5 mb 0.00 in0.0 mm 0.00 in0.0 mm 0.00 in0.0 mm
12:22 PM 32.0°F0.0°C 27.1°F-2.7°C 82% 10.1 mph SSE16.3 kmh SSE 18.0 mph29.0 kmh 29.87 in1011.5 mb 0.00 in0.0 mm 0.00 in0.0 mm 0.00 in0.0 mm
12:23 PM 32.0°F0.0°C 27.1°F-2.7°C 82% 10.0 mph SSE16.1 kmh SSE 18.0 mph29.0 kmh 29.87 in1011.5 mb 0.00 in0.0 mm 0.00 in0.0 mm 0.00 in0.0 mm
12:24 PM 32.0°F0.0°C 27.1°F-2.7°C 82% 13.7 mph SSE22.0 kmh SSE 26.0 mph41.8 kmh 29.87 in1011.5 mb 0.00 in0.0 mm 0.00 in0.0 mm 0.00 in0.0 mm
12:25 PM 32.0°F0.0°C 27.1°F-2.7°C 82% 13.6 mph SSE21.9 kmh SSE 26.0 mph41.8 kmh 29.87 in1011.5 mb 0.00 in0.0 mm 0.00 in0.0 mm 0.00 in0.0 mm
12:26 PM 32.0°F0.0°C 26.8°F-2.9°C 81% 10.6 mph SSE17.1 kmh SSE 16.0 mph25.7 kmh 29.87 in1011.5 mb 0.00 in0.0 mm 0.00 in0.0 mm 0.00 in0.0 mm
12:27 PM 32.0°F0.0°C 27.1°F-2.7°C 82% 12.7 mph SE20.4 kmh SE 18.0 mph29.0 kmh 29.87 in1011.5 mb 0.00 in0.0 mm 0.00 in0.0 mm 0.00 in0.0 mm
12:28 PM 32.0°F0.0°C 27.1°F-2.7°C 82% 9.6 mph SE15.4 kmh SE 18.0 mph29.0 kmh 29.87 in1011.5 mb 0.00 in0.0 mm 0.00 in0.0 mm 0.00 in0.0 mm
12:29 PM 32.0°F0.0°C 27.1°F-2.7°C 82% 12.5 mph SE20.1 kmh SE 17.0 mph27.4 kmh 29.87 in1011.5 mb 0.00 in0.0 mm 0.00 in0.0 mm 0.00 in0.0 mm
12:30 PM 32.0°F0.0°C 27.1°F-2.7°C 82% 11.9 mph SSE19.2 kmh SSE 17.0 mph27.4 kmh 29.87 in1011.5 mb 0.00 in0.0 mm 0.00 in0.0 mm 0.00 in0.0 mm
12:31 PM 32.0°F0.0°C 27.1°F-2.7°C 82% 9.4 mph SE15.1 kmh SE 17.0 mph27.4 kmh 29.87 in1011.5 mb 0.00 in0.0 mm 0.00 in0.0 mm 0.00 in0.0 mm
12:32 PM 32.1°F0.1°C 27.2°F-2.7°C 82% 15.0 mph SSE24.1 kmh SSE 21.0 mph33.8 kmh 29.87 in1011.5 mb 0.00 in0.0 mm 0.00 in0.0 mm 0.00 in0.0 mm
12:33 PM 32.0°F0.0°C 27.1°F-2.7°C 82% 11.5 mph SSE18.5 kmh SSE 21.0 mph33.8 kmh 29.87 in1011.5 mb 0.00 in0.0 mm 0.00 in0.0 mm 0.00 in0.0 mm
12:34 PM 32.0°F0.0°C 27.1°F-2.7°C 82% 11.6 mph SE18.7 kmh SE 17.0 mph27.4 kmh 29.87 in1011.5 mb 0.00 in0.0 mm 0.00 in0.0 mm 0.00 in0.0 mm
12:35 PM 32.1°F0.1°C 27.2°F-2.7°C 82% 9.8 mph SSE15.8 kmh SSE 16.0 mph25.7 kmh 29.87 in1011.5 mb 0.00 in0.0 mm 0.00 in0.0 mm 0.00 in0.0 mm
12:36 PM 32.1°F0.1°C 27.2°F-2.7°C 82% 9.6 mph SE15.4 kmh SE 13.0 mph20.9 kmh 29.87 in1011.5 mb 0.00 in0.0 mm 0.00 in0.0 mm 0.00 in0.0 mm
12:37 PM 32.1°F0.1°C 27.2°F-2.7°C 82% 9.7 mph SSE15.6 kmh SSE 16.0 mph25.7 kmh 29.87 in1011.5 mb 0.00 in0.0 mm 0.00 in0.0 mm 0.00 in0.0 mm
12:38 PM 32.1°F0.1°C 27.2°F-2.7°C 82% 11.4 mph SE18.3 kmh SE 16.0 mph25.7 kmh 29.87 in1011.5 mb 0.00 in0.0 mm 0.00 in0.0 mm 0.00 in0.0 mm
12:39 PM 32.1°F0.1°C 27.2°F-2.7°C 82% 12.4 mph SSE20.0 kmh SSE 18.0 mph29.0 kmh 29.87 in1011.5 mb 0.00 in0.0 mm 0.00 in0.0 mm 0.00 in0.0 mm
12:40 PM 32.1°F0.1°C 27.2°F-2.7°C 82% 9.0 mph SE14.5 kmh SE 18.0 mph29.0 kmh 29.87 in1011.5 mb 0.00 in0.0 mm 0.00 in0.0 mm 0.00 in0.0 mm
12:41 PM 32.1°F0.1°C 27.2°F-2.7°C 82% 13.5 mph SE21.7 kmh SE 19.0 mph30.6 kmh 29.87 in1011.5 mb 0.00 in0.0 mm 0.00 in0.0 mm 0.00 in0.0 mm
12:42 PM 32.0°F0.0°C 27.1°F-2.7°C 82% 13.4 mph SSE21.6 kmh SSE 19.0 mph30.6 kmh 29.87 in1011.5 mb 0.00 in0.0 mm 0.00 in0.0 mm 0.00 in0.0 mm
12:43 PM 32.1°F0.1°C 27.2°F-2.7°C 82% 12.3 mph SSE19.8 kmh SSE 19.0 mph30.6 kmh 29.87 in1011.5 mb 0.00 in0.0 mm 0.00 in0.0 mm 0.00 in0.0 mm
12:44 PM 32.1°F0.1°C 26.9°F-2.8°C 81% 13.2 mph SSE21.2 kmh SSE 18.0 mph29.0 kmh 29.87 in1011.5 mb 0.00 in0.0 mm 0.00 in0.0 mm 0.00 in0.0 mm
12:45 PM 32.0°F0.0°C 26.8°F-2.9°C 81% 12.5 mph SSE20.1 kmh SSE 19.0 mph30.6 kmh 29.87 in1011.5 mb 0.00 in0.0 mm 0.00 in0.0 mm 0.00 in0.0 mm
12:46 PM 32.1°F0.1°C 26.9°F-2.8°C 81% 11.5 mph SSE18.5 kmh SSE 19.0 mph30.6 kmh 29.87 in1011.5 mb 0.00 in0.0 mm 0.00 in0.0 mm 0.00 in0.0 mm
12:47 PM 32.1°F0.1°C 26.9°F-2.8°C 81% 9.3 mph SSE15.0 kmh SSE 15.0 mph24.1 kmh 29.87 in1011.5 mb 0.00 in0.0 mm 0.00 in0.0 mm 0.00 in0.0 mm
12:48 PM 32.1°F0.1°C 27.2°F-2.7°C 82% 12.1 mph SSE19.5 kmh SSE 16.0 mph25.7 kmh 29.87 in1011.5 mb 0.00 in0.0 mm 0.00 in0.0 mm 0.00 in0.0 mm
12:49 PM 32.1°F0.1°C 27.2°F-2.7°C 82% 12.7 mph SSE20.4 kmh SSE 17.0 mph27.4 kmh 29.87 in1011.5 mb 0.00 in0.0 mm 0.00 in0.0 mm 0.00 in0.0 mm
12:50 PM 32.1°F0.1°C 26.9°F-2.8°C 81% 12.0 mph SSE19.3 kmh SSE 17.0 mph27.4 kmh 29.87 in1011.5 mb 0.00 in0.0 mm 0.00 in0.0 mm 0.00 in0.0 mm
12:51 PM 32.1°F0.1°C 27.2°F-2.7°C 82% 12.0 mph SE19.3 kmh SE 17.0 mph27.4 kmh 29.87 in1011.5 mb 0.00 in0.0 mm 0.00 in0.0 mm 0.00 in0.0 mm
12:52 PM 32.1°F0.1°C 27.2°F-2.7°C 82% 10.1 mph SSE16.3 kmh SSE 16.0 mph25.7 kmh 29.87 in1011.5 mb 0.00 in0.0 mm 0.00 in0.0 mm 0.00 in0.0 mm
12:53 PM 32.1°F0.1°C 26.9°F-2.8°C 81% 11.9 mph SSE19.2 kmh SSE 16.0 mph25.7 kmh 29.87 in1011.5 mb 0.00 in0.0 mm 0.00 in0.0 mm 0.00 in0.0 mm
12:54 PM 32.1°F0.1°C 26.9°F-2.8°C 81% 10.1 mph SE16.3 kmh SE 16.0 mph25.7 kmh 29.86 in1011.2 mb 0.00 in0.0 mm 0.00 in0.0 mm 0.00 in0.0 mm
12:55 PM 32.1°F0.1°C 27.2°F-2.7°C 82% 13.4 mph SSE21.6 kmh SSE 21.0 mph33.8 kmh 29.87 in1011.5 mb 0.00 in0.0 mm 0.00 in0.0 mm 0.00 in0.0 mm
12:56 PM 32.2°F0.1°C 27.0°F-2.8°C 81% 13.4 mph SSE21.6 kmh SSE 21.0 mph33.8 kmh 29.87 in1011.5 mb 0.00 in0.0 mm 0.00 in0.0 mm 0.00 in0.0 mm
12:57 PM 32.2°F0.1°C 27.0°F-2.8°C 81% 8.7 mph SSE14.0 kmh SSE 21.0 mph33.8 kmh 29.86 in1011.2 mb 0.00 in0.0 mm 0.00 in0.0 mm 0.00 in0.0 mm
12:58 PM 32.2°F0.1°C 27.3°F-2.6°C 82% 9.8 mph SSE15.8 kmh SSE 15.0 mph24.1 kmh 29.86 in1011.2 mb 0.00 in0.0 mm 0.00 in0.0 mm 0.00 in0.0 mm
12:59 PM 32.2°F0.1°C 27.3°F-2.6°C 82% 11.7 mph SSE18.8 kmh SSE 16.0 mph25.7 kmh 29.86 in1011.2 mb 0.00 in0.0 mm 0.00 in0.0 mm 0.00 in0.0 mm
01:00 PM 32.2°F0.1°C 27.0°F-2.8°C 81% 10.3 mph SE16.6 kmh SE 16.0 mph25.7 kmh 29.86 in1011.2 mb 0.00 in0.0 mm 0.00 in0.0 mm 0.00 in0.0 mm
01:01 PM 32.2°F0.1°C 27.0°F-2.8°C 81% 9.6 mph SE15.4 kmh SE 15.0 mph24.1 kmh 29.86 in1011.2 mb 0.00 in0.0 mm 0.00 in0.0 mm 0.00 in0.0 mm
01:02 PM 32.2°F0.1°C 27.0°F-2.8°C 81% 11.7 mph SSE18.8 kmh SSE 17.0 mph27.4 kmh 29.86 in1011.2 mb 0.00 in0.0 mm 0.00 in0.0 mm 0.00 in0.0 mm
01:03 PM 32.3°F0.2°C 27.1°F-2.7°C 81% 9.5 mph SSE15.3 kmh SSE 17.0 mph27.4 kmh 29.86 in1011.2 mb 0.00 in0.0 mm 0.00 in0.0 mm 0.00 in0.0 mm
01:04 PM 32.3°F0.2°C 27.1°F-2.7°C 81% 13.7 mph SSE22.0 kmh SSE 18.0 mph29.0 kmh 29.86 in1011.2 mb 0.00 in0.0 mm 0.00 in0.0 mm 0.00 in0.0 mm
01:05 PM 32.2°F0.1°C 27.0°F-2.8°C 81% 12.2 mph SSE19.6 kmh SSE 18.0 mph29.0 kmh 29.86 in1011.2 mb 0.00 in0.0 mm 0.00 in0.0 mm 0.00 in0.0 mm
01:06 PM 32.2°F0.1°C 27.0°F-2.8°C 81% 10.4 mph SSE16.7 kmh SSE 17.0 mph27.4 kmh 29.86 in1011.2 mb 0.00 in0.0 mm 0.00 in0.0 mm 0.00 in0.0 mm
01:07 PM 32.3°F0.2°C 27.1°F-2.7°C 81% 11.5 mph SSE18.5 kmh SSE 16.0 mph25.7 kmh 29.86 in1011.2 mb 0.00 in0.0 mm 0.00 in0.0 mm 0.00 in0.0 mm
01:08 PM 32.3°F0.2°C 27.1°F-2.7°C 81% 10.6 mph SSE17.1 kmh SSE 16.0 mph25.7 kmh 29.86 in1011.2 mb 0.00 in0.0 mm 0.00 in0.0 mm 0.00 in0.0 mm
01:09 PM 32.3°F0.2°C 27.1°F-2.7°C 81% 14.3 mph SSE23.0 kmh SSE 18.0 mph29.0 kmh 29.86 in1011.2 mb 0.00 in0.0 mm 0.00 in0.0 mm 0.00 in0.0 mm
01:10 PM 32.3°F0.2°C 27.1°F-2.7°C 81% 13.2 mph SSE21.2 kmh SSE 19.0 mph30.6 kmh 29.86 in1011.2 mb 0.00 in0.0 mm 0.00 in0.0 mm 0.00 in0.0 mm
01:11 PM 32.3°F0.2°C 27.1°F-2.7°C 81% 9.6 mph SSE15.4 kmh SSE 18.0 mph29.0 kmh 29.86 in1011.2 mb 0.00 in0.0 mm 0.00 in0.0 mm 0.00 in0.0 mm
01:12 PM 32.3°F0.2°C 27.1°F-2.7°C 81% 10.2 mph SSE16.4 kmh SSE 15.0 mph24.1 kmh 29.86 in1011.2 mb 0.00 in0.0 mm 0.00 in0.0 mm 0.00 in0.0 mm
01:13 PM 32.3°F0.2°C 27.1°F-2.7°C 81% 11.4 mph SSE18.3 kmh SSE 15.0 mph24.1 kmh 29.86 in1011.2 mb 0.00 in0.0 mm 0.00 in0.0 mm 0.00 in0.0 mm
01:14 PM 32.3°F0.2°C 27.1°F-2.7°C 81% 10.1 mph S16.3 kmh S 15.0 mph24.1 kmh 29.86 in1011.2 mb 0.00 in0.0 mm 0.00 in0.0 mm 0.00 in0.0 mm
01:15 PM 32.3°F0.2°C 27.1°F-2.7°C 81% 11.9 mph SSE19.2 kmh SSE 17.0 mph27.4 kmh 29.86 in1011.2 mb 0.00 in0.0 mm 0.00 in0.0 mm 0.00 in0.0 mm
01:16 PM 32.3°F0.2°C 27.1°F-2.7°C 81% 12.0 mph SSE19.3 kmh SSE 18.0 mph29.0 kmh 29.86 in1011.2 mb 0.00 in0.0 mm 0.00 in0.0 mm 0.00 in0.0 mm
01:17 PM 32.3°F0.2°C 27.1°F-2.7°C 81% 11.8 mph SSE19.0 kmh SSE 18.0 mph29.0 kmh 29.86 in1011.2 mb 0.00 in0.0 mm 0.00 in0.0 mm 0.00 in0.0 mm
01:18 PM 32.3°F0.2°C 27.1°F-2.7°C 81% 9.5 mph SE15.3 kmh SE 17.0 mph27.4 kmh 29.86 in1011.2 mb 0.00 in0.0 mm 0.00 in0.0 mm 0.00 in0.0 mm
01:19 PM 32.3°F0.2°C 27.4°F-2.6°C 82% 14.0 mph SSE22.5 kmh SSE 18.0 mph29.0 kmh 29.86 in1011.2 mb 0.00 in0.0 mm 0.00 in0.0 mm 0.00 in0.0 mm
01:20 PM 32.3°F0.2°C 27.1°F-2.7°C 81% 13.8 mph SSE22.2 kmh SSE 18.0 mph29.0 kmh 29.86 in1011.2 mb 0.00 in0.0 mm 0.00 in0.0 mm 0.00 in0.0 mm
01:21 PM 32.3°F0.2°C 27.1°F-2.7°C 81% 11.5 mph SE18.5 kmh SE 19.0 mph30.6 kmh 29.86 in1011.2 mb 0.00 in0.0 mm 0.00 in0.0 mm 0.00 in0.0 mm
01:22 PM 32.3°F0.2°C 27.1°F-2.7°C 81% 12.6 mph SSE20.3 kmh SSE 19.0 mph30.6 kmh 29.86 in1011.2 mb 0.00 in0.0 mm 0.00 in0.0 mm 0.00 in0.0 mm
01:23 PM 32.3°F0.2°C 27.1°F-2.7°C 81% 12.8 mph SSE20.6 kmh SSE 19.0 mph30.6 kmh 29.86 in1011.2 mb 0.00 in0.0 mm 0.00 in0.0 mm 0.00 in0.0 mm
01:24 PM 32.3°F0.2°C 27.1°F-2.7°C 81% 11.8 mph SSE19.0 kmh SSE 16.0 mph25.7 kmh 29.86 in1011.2 mb 0.00 in0.0 mm 0.00 in0.0 mm 0.00 in0.0 mm
01:25 PM 32.3°F0.2°C 27.1°F-2.7°C 81% 8.8 mph SSE14.2 kmh SSE 16.0 mph25.7 kmh 29.86 in1011.2 mb 0.00 in0.0 mm 0.00 in0.0 mm 0.00 in0.0 mm
01:26 PM 32.4°F0.2°C 27.2°F-2.7°C 81% 13.5 mph SSE21.7 kmh SSE 17.0 mph27.4 kmh 29.86 in1011.2 mb 0.00 in0.0 mm 0.00 in0.0 mm 0.00 in0.0 mm
01:27 PM 32.4°F0.2°C 27.2°F-2.7°C 81% 13.0 mph SSE20.9 kmh SSE 17.0 mph27.4 kmh 29.86 in1011.2 mb 0.00 in0.0 mm 0.00 in0.0 mm 0.00 in0.0 mm
01:28 PM 32.3°F0.2°C 27.1°F-2.7°C 81% 11.5 mph SSE18.5 kmh SSE 17.0 mph27.4 kmh 29.86 in1011.2 mb 0.00 in0.0 mm 0.00 in0.0 mm 0.00 in0.0 mm
01:29 PM 32.4°F0.2°C 27.2°F-2.7°C 81% 10.4 mph SE16.7 kmh SE 16.0 mph25.7 kmh 29.86 in1011.2 mb 0.00 in0.0 mm 0.00 in0.0 mm 0.00 in0.0 mm
01:30 PM 32.4°F0.2°C 27.5°F-2.5°C 82% 9.6 mph SE15.4 kmh SE 16.0 mph25.7 kmh 29.85 in1010.8 mb 0.00 in0.0 mm 0.00 in0.0 mm 0.00 in0.0 mm
01:31 PM 32.5°F0.3°C 27.6°F-2.4°C 82% 10.8 mph SSE17.4 kmh SSE 14.0 mph22.5 kmh 29.85 in1010.8 mb 0.00 in0.0 mm 0.00 in0.0 mm 0.00 in0.0 mm
01:32 PM 32.5°F0.3°C 27.6°F-2.4°C 82% 8.8 mph SSE14.2 kmh SSE 17.0 mph27.4 kmh 29.85 in1010.8 mb 0.00 in0.0 mm 0.00 in0.0 mm 0.00 in0.0 mm
01:33 PM 32.4°F0.2°C 27.5°F-2.5°C 82% 8.4 mph SSE13.5 kmh SSE 17.0 mph27.4 kmh 29.85 in1010.8 mb 0.00 in0.0 mm 0.00 in0.0 mm 0.00 in0.0 mm
01:34 PM 32.5°F0.3°C 27.6°F-2.4°C 82% 10.5 mph SSE16.9 kmh SSE 15.0 mph24.1 kmh 29.85 in1010.8 mb 0.00 in0.0 mm 0.00 in0.0 mm 0.00 in0.0 mm
01:35 PM 32.5°F0.3°C 27.6°F-2.4°C 82% 8.9 mph SSE14.3 kmh SSE 15.0 mph24.1 kmh 29.85 in1010.8 mb 0.00 in0.0 mm 0.00 in0.0 mm 0.00 in0.0 mm
01:36 PM 32.5°F0.3°C 27.6°F-2.4°C 82% 9.7 mph SSE15.6 kmh SSE 13.0 mph20.9 kmh 29.85 in1010.8 mb 0.00 in0.0 mm 0.00 in0.0 mm 0.00 in0.0 mm
01:37 PM 32.5°F0.3°C 27.6°F-2.4°C 82% 10.5 mph SSE16.9 kmh SSE 14.0 mph22.5 kmh 29.85 in1010.8 mb 0.00 in0.0 mm 0.00 in0.0 mm 0.00 in0.0 mm
01:38 PM 32.5°F0.3°C 27.6°F-2.4°C 82% 11.3 mph SSE18.2 kmh SSE 16.0 mph25.7 kmh 29.85 in1010.8 mb 0.00 in0.0 mm 0.00 in0.0 mm 0.00 in0.0 mm
01:39 PM 32.5°F0.3°C 27.6°F-2.4°C 82% 10.2 mph SSE16.4 kmh SSE 16.0 mph25.7 kmh 29.85 in1010.8 mb 0.00 in0.0 mm 0.00 in0.0 mm 0.00 in0.0 mm
01:40 PM 32.5°F0.3°C 27.6°F-2.4°C 82% 11.2 mph SSE18.0 kmh SSE 17.0 mph27.4 kmh 29.85 in1010.8 mb 0.00 in0.0 mm 0.00 in0.0 mm 0.00 in0.0 mm
01:41 PM 32.6°F0.3°C 27.4°F-2.6°C 81% 11.1 mph SSE17.9 kmh SSE 18.0 mph29.0 kmh 29.85 in1010.8 mb 0.00 in0.0 mm 0.00 in0.0 mm 0.00 in0.0 mm
01:42 PM 32.6°F0.3°C 27.4°F-2.6°C 81% 10.4 mph SSE16.7 kmh SSE 18.0 mph29.0 kmh 29.85 in1010.8 mb 0.00 in0.0 mm 0.00 in0.0 mm 0.00 in0.0 mm
01:43 PM 32.6°F0.3°C 27.7°F-2.4°C 82% 8.7 mph SE14.0 kmh SE 16.0 mph25.7 kmh 29.85 in1010.8 mb 0.00 in0.0 mm 0.00 in0.0 mm 0.00 in0.0 mm
01:44 PM 32.6°F0.3°C 27.7°F-2.4°C 82% 11.7 mph SSE18.8 kmh SSE 16.0 mph25.7 kmh 29.85 in1010.8 mb 0.00 in0.0 mm 0.00 in0.0 mm 0.00 in0.0 mm
01:45 PM 32.6°F0.3°C 27.7°F-2.4°C 82% 11.4 mph SSE18.3 kmh SSE 16.0 mph25.7 kmh 29.85 in1010.8 mb 0.00 in0.0 mm 0.00 in0.0 mm 0.00 in0.0 mm
01:46 PM 32.6°F0.3°C 27.4°F-2.6°C 81% 11.4 mph SSE18.3 kmh SSE 15.0 mph24.1 kmh 29.84 in1010.5 mb 0.00 in0.0 mm 0.00 in0.0 mm 0.00 in0.0 mm
01:47 PM 32.6°F0.3°C 27.4°F-2.6°C 81% 11.8 mph SSE19.0 kmh SSE 17.0 mph27.4 kmh 29.84 in1010.5 mb 0.00 in0.0 mm 0.00 in0.0 mm 0.00 in0.0 mm
01:48 PM 32.6°F0.3°C 27.4°F-2.6°C 81% 8.9 mph SSE14.3 kmh SSE 17.0 mph27.4 kmh 29.84 in1010.5 mb 0.00 in0.0 mm 0.00 in0.0 mm 0.00 in0.0 mm
01:49 PM 32.7°F0.4°C 27.5°F-2.5°C 81% 11.3 mph SSE18.2 kmh SSE 15.0 mph24.1 kmh 29.84 in1010.5 mb 0.00 in0.0 mm 0.00 in0.0 mm 0.00 in0.0 mm
01:50 PM 32.7°F0.4°C 27.5°F-2.5°C 81% 13.0 mph SSE20.9 kmh SSE 17.0 mph27.4 kmh 29.84 in1010.5 mb 0.00 in0.0 mm 0.00 in0.0 mm 0.00 in0.0 mm
01:51 PM 32.8°F0.4°C 27.6°F-2.4°C 81% 12.1 mph SE19.5 kmh SE 18.0 mph29.0 kmh 29.85 in1010.8 mb 0.00 in0.0 mm 0.00 in0.0 mm 0.00 in0.0 mm
01:52 PM 32.7°F0.4°C 27.5°F-2.5°C 81% 11.7 mph SE18.8 kmh SE 18.0 mph29.0 kmh 29.84 in1010.5 mb 0.00 in0.0 mm 0.00 in0.0 mm 0.00 in0.0 mm
01:53 PM 32.8°F0.4°C 27.6°F-2.4°C 81% 11.3 mph SSE18.2 kmh SSE 17.0 mph27.4 kmh 29.84 in1010.5 mb 0.00 in0.0 mm 0.00 in0.0 mm 0.00 in0.0 mm
01:54 PM 32.8°F0.4°C 27.6°F-2.4°C 81% 11.0 mph SSE17.7 kmh SSE 17.0 mph27.4 kmh 29.84 in1010.5 mb 0.00 in0.0 mm 0.00 in0.0 mm 0.00 in0.0 mm
01:55 PM 32.8°F0.4°C 27.6°F-2.4°C 81% 8.1 mph SSE13.0 kmh SSE 16.0 mph25.7 kmh 29.85 in1010.8 mb 0.00 in0.0 mm 0.00 in0.0 mm 0.00 in0.0 mm
01:56 PM 32.8°F0.4°C 27.6°F-2.4°C 81% 7.4 mph SSE11.9 kmh SSE 12.0 mph19.3 kmh 29.85 in1010.8 mb 0.00 in0.0 mm 0.00 in0.0 mm 0.00 in0.0 mm
01:57 PM 32.8°F0.4°C 27.6°F-2.4°C 81% 8.3 mph SSE13.4 kmh SSE 15.0 mph24.1 kmh 29.85 in1010.8 mb 0.00 in0.0 mm 0.00 in0.0 mm 0.00 in0.0 mm
01:58 PM 32.8°F0.4°C 27.6°F-2.4°C 81% 13.4 mph SSE21.6 kmh SSE 20.0 mph32.2 kmh 29.85 in1010.8 mb 0.00 in0.0 mm 0.00 in0.0 mm 0.00 in0.0 mm
01:59 PM 32.8°F0.4°C 27.6°F-2.4°C 81% 8.8 mph SSE14.2 kmh SSE 20.0 mph32.2 kmh 29.85 in1010.8 mb 0.00 in0.0 mm 0.00 in0.0 mm 0.00 in0.0 mm
02:00 PM 32.9°F0.5°C 27.7°F-2.4°C 81% 7.7 mph SSE12.4 kmh SSE 15.0 mph24.1 kmh 29.85 in1010.8 mb 0.00 in0.0 mm 0.00 in0.0 mm 0.00 in0.0 mm
02:01 PM 32.9°F0.5°C 27.7°F-2.4°C 81% 6.7 mph SSE10.8 kmh SSE 11.0 mph17.7 kmh 29.85 in1010.8 mb 0.00 in0.0 mm 0.00 in0.0 mm 0.00 in0.0 mm
02:02 PM 32.9°F0.5°C 27.7°F-2.4°C 81% 7.7 mph SSE12.4 kmh SSE 12.0 mph19.3 kmh 29.85 in1010.8 mb 0.00 in0.0 mm 0.00 in0.0 mm 0.00 in0.0 mm
02:03 PM 33.0°F0.6°C 27.8°F-2.3°C 81% 9.5 mph SSE15.3 kmh SSE 13.0 mph20.9 kmh 29.85 in1010.8 mb 0.00 in0.0 mm 0.00 in0.0 mm 0.00 in0.0 mm
02:04 PM 33.0°F0.6°C 27.8°F-2.3°C 81% 8.1 mph SSE13.0 kmh SSE 13.0 mph20.9 kmh 29.85 in1010.8 mb 0.00 in0.0 mm 0.00 in0.0 mm 0.00 in0.0 mm
02:05 PM 32.9°F0.5°C 27.7°F-2.4°C 81% 9.2 mph SSE14.8 kmh SSE 13.0 mph20.9 kmh 29.85 in1010.8 mb 0.00 in0.0 mm 0.00 in0.0 mm 0.00 in0.0 mm
02:06 PM 32.9°F0.5°C 27.7°F-2.4°C 81% 8.9 mph SSE14.3 kmh SSE 13.0 mph20.9 kmh 29.85 in1010.8 mb 0.00 in0.0 mm 0.00 in0.0 mm 0.00 in0.0 mm
02:07 PM 33.0°F0.6°C 27.8°F-2.3°C 81% 8.6 mph SE13.8 kmh SE 11.0 mph17.7 kmh 29.85 in1010.8 mb 0.00 in0.0 mm 0.00 in0.0 mm 0.00 in0.0 mm
02:08 PM 33.0°F0.6°C 27.8°F-2.3°C 81% 9.1 mph SSE14.6 kmh SSE 16.0 mph25.7 kmh 29.84 in1010.5 mb 0.00 in0.0 mm 0.00 in0.0 mm 0.00 in0.0 mm
02:09 PM 33.0°F0.6°C 27.8°F-2.3°C 81% 7.5 mph S12.1 kmh S 16.0 mph25.7 kmh 29.84 in1010.5 mb 0.00 in0.0 mm 0.00 in0.0 mm 0.00 in0.0 mm
02:10 PM 33.0°F0.6°C 27.8°F-2.3°C 81% 7.8 mph SSE12.6 kmh SSE 13.0 mph20.9 kmh 29.84 in1010.5 mb 0.00 in0.0 mm 0.00 in0.0 mm 0.00 in0.0 mm
02:11 PM 33.0°F0.6°C 27.8°F-2.3°C 81% 10.0 mph SSE16.1 kmh SSE 13.0 mph20.9 kmh 29.84 in1010.5 mb 0.00 in0.0 mm 0.00 in0.0 mm 0.00 in0.0 mm
02:12 PM 33.0°F0.6°C 27.5°F-2.5°C 80% 9.8 mph SSE15.8 kmh SSE 13.0 mph20.9 kmh 29.84 in1010.5 mb 0.00 in0.0 mm 0.00 in0.0 mm 0.00 in0.0 mm
02:13 PM 33.0°F0.6°C 27.5°F-2.5°C 80% 10.0 mph SE16.1 kmh SE 15.0 mph24.1 kmh 29.84 in1010.5 mb 0.00 in0.0 mm 0.00 in0.0 mm 0.00 in0.0 mm
02:14 PM 33.0°F0.6°C 27.5°F-2.5°C 80% 8.7 mph SSE14.0 kmh SSE 15.0 mph24.1 kmh 29.84 in1010.5 mb 0.00 in0.0 mm 0.00 in0.0 mm 0.00 in0.0 mm
02:15 PM 33.0°F0.6°C 27.5°F-2.5°C 80% 8.2 mph SSE13.2 kmh SSE 12.0 mph19.3 kmh 29.84 in1010.5 mb 0.00 in0.0 mm 0.00 in0.0 mm 0.00 in0.0 mm
02:16 PM 33.0°F0.6°C 27.5°F-2.5°C 80% 6.7 mph SSE10.8 kmh SSE 12.0 mph19.3 kmh 29.84 in1010.5 mb 0.00 in0.0 mm 0.00 in0.0 mm 0.00 in0.0 mm
02:17 PM 33.0°F0.6°C 27.5°F-2.5°C 80% 6.9 mph S11.1 kmh S 12.0 mph19.3 kmh 29.84 in1010.5 mb 0.00 in0.0 mm 0.00 in0.0 mm 0.00 in0.0 mm
02:18 PM 33.0°F0.6°C 27.5°F-2.5°C 80% 6.7 mph SSE10.8 kmh SSE 12.0 mph19.3 kmh 29.84 in1010.5 mb 0.00 in0.0 mm 0.00 in0.0 mm 0.00 in0.0 mm
02:19 PM 33.0°F0.6°C 27.5°F-2.5°C 80% 8.1 mph SE13.0 kmh SE 13.0 mph20.9 kmh 29.84 in1010.5 mb 0.00 in0.0 mm 0.00 in0.0 mm 0.00 in0.0 mm
02:20 PM 33.1°F0.6°C 27.6°F-2.4°C 80% 4.1 mph S6.6 kmh S 13.0 mph20.9 kmh 29.84 in1010.5 mb 0.00 in0.0 mm 0.00 in0.0 mm 0.00 in0.0 mm
02:21 PM 33.1°F0.6°C 27.6°F-2.4°C 80% 9.1 mph SE14.6 kmh SE 15.0 mph24.1 kmh 29.84 in1010.5 mb 0.00 in0.0 mm 0.00 in0.0 mm 0.00 in0.0 mm
02:22 PM 33.1°F0.6°C 27.6°F-2.4°C 80% 7.6 mph SSE12.2 kmh SSE 15.0 mph24.1 kmh 29.84 in1010.5 mb 0.00 in0.0 mm 0.00 in0.0 mm 0.00 in0.0 mm
02:23 PM 33.0°F0.6°C 27.5°F-2.5°C 80% 8.9 mph S14.3 kmh S 15.0 mph24.1 kmh 29.84 in1010.5 mb 0.00 in0.0 mm 0.00 in0.0 mm 0.00 in0.0 mm
02:24 PM 33.1°F0.6°C 27.6°F-2.4°C 80% 9.7 mph SSE15.6 kmh SSE 15.0 mph24.1 kmh 29.84 in1010.5 mb 0.00 in0.0 mm 0.00 in0.0 mm 0.00 in0.0 mm
02:25 PM 33.0°F0.6°C 27.5°F-2.5°C 80% 10.3 mph SSE16.6 kmh SSE 15.0 mph24.1 kmh 29.84 in1010.5 mb 0.00 in0.0 mm 0.00 in0.0 mm 0.00 in0.0 mm
02:26 PM 33.1°F0.6°C 27.6°F-2.4°C 80% 8.4 mph SSE13.5 kmh SSE 14.0 mph22.5 kmh 29.84 in1010.5 mb 0.00 in0.0 mm 0.00 in0.0 mm 0.00 in0.0 mm
02:27 PM 33.1°F0.6°C 27.6°F-2.4°C 80% 9.0 mph SE14.5 kmh SE 13.0 mph20.9 kmh 29.84 in1010.5 mb 0.00 in0.0 mm 0.00 in0.0 mm 0.00 in0.0 mm
02:28 PM 33.0°F0.6°C 27.5°F-2.5°C 80% 7.3 mph SSE11.7 kmh SSE 13.0 mph20.9 kmh 29.84 in1010.5 mb 0.00 in0.0 mm 0.00 in0.0 mm 0.00 in0.0 mm
02:29 PM 33.1°F0.6°C 27.6°F-2.4°C 80% 9.5 mph SE15.3 kmh SE 14.0 mph22.5 kmh 29.84 in1010.5 mb 0.00 in0.0 mm 0.00 in0.0 mm 0.00 in0.0 mm
02:30 PM 33.1°F0.6°C 27.6°F-2.4°C 80% 9.9 mph SSE15.9 kmh SSE 16.0 mph25.7 kmh 29.84 in1010.5 mb 0.00 in0.0 mm 0.00 in0.0 mm 0.00 in0.0 mm
02:31 PM 33.1°F0.6°C 27.6°F-2.4°C 80% 8.7 mph SSE14.0 kmh SSE 16.0 mph25.7 kmh 29.84 in1010.5 mb 0.00 in0.0 mm 0.00 in0.0 mm 0.00 in0.0 mm
02:32 PM 33.1°F0.6°C 27.6°F-2.4°C 80% 10.2 mph SSE16.4 kmh SSE 14.0 mph22.5 kmh 29.84 in1010.5 mb 0.00 in0.0 mm 0.00 in0.0 mm 0.00 in0.0 mm
02:33 PM 33.1°F0.6°C 27.6°F-2.4°C 80% 10.2 mph SSE16.4 kmh SSE 14.0 mph22.5 kmh 29.84 in1010.5 mb 0.00 in0.0 mm 0.00 in0.0 mm 0.00 in0.0 mm
02:34 PM 33.1°F0.6°C 27.6°F-2.4°C 80% 9.2 mph SSE14.8 kmh SSE 15.0 mph24.1 kmh 29.84 in1010.5 mb 0.00 in0.0 mm 0.00 in0.0 mm 0.00 in0.0 mm
02:35 PM 33.1°F0.6°C 27.6°F-2.4°C 80% 4.8 mph SE7.7 kmh SE 12.0 mph19.3 kmh 29.84 in1010.5 mb 0.00 in0.0 mm 0.00 in0.0 mm 0.00 in0.0 mm
02:36 PM 33.1°F0.6°C 27.6°F-2.4°C 80% 9.1 mph SSE14.6 kmh SSE 15.0 mph24.1 kmh 29.84 in1010.5 mb 0.00 in0.0 mm 0.00 in0.0 mm 0.00 in0.0 mm
02:37 PM 33.1°F0.6°C 27.6°F-2.4°C 80% 6.9 mph S11.1 kmh S 15.0 mph24.1 kmh 29.84 in1010.5 mb 0.00 in0.0 mm 0.00 in0.0 mm 0.00 in0.0 mm
02:38 PM 33.1°F0.6°C 27.6°F-2.4°C 80% 9.3 mph SSE15.0 kmh SSE 14.0 mph22.5 kmh 29.84 in1010.5 mb 0.00 in0.0 mm 0.00 in0.0 mm 0.00 in0.0 mm
02:39 PM 33.1°F0.6°C 27.6°F-2.4°C 80% 9.4 mph S15.1 kmh S 14.0 mph22.5 kmh 29.84 in1010.5 mb 0.00 in0.0 mm 0.00 in0.0 mm 0.00 in0.0 mm
02:40 PM 33.1°F0.6°C 27.6°F-2.4°C 80% 8.2 mph SSE13.2 kmh SSE 12.0 mph19.3 kmh 29.84 in1010.5 mb 0.00 in0.0 mm 0.00 in0.0 mm 0.00 in0.0 mm
02:41 PM 33.1°F0.6°C 27.6°F-2.4°C 80% 9.2 mph SSE14.8 kmh SSE 13.0 mph20.9 kmh 29.84 in1010.5 mb 0.00 in0.0 mm 0.00 in0.0 mm 0.00 in0.0 mm
02:42 PM 33.1°F0.6°C 27.6°F-2.4°C 80% 7.0 mph SSE11.3 kmh SSE 13.0 mph20.9 kmh 29.84 in1010.5 mb 0.00 in0.0 mm 0.00 in0.0 mm 0.00 in0.0 mm
02:43 PM 33.1°F0.6°C 27.6°F-2.4°C 80% 5.7 mph SE9.2 kmh SE 10.0 mph16.1 kmh 29.84 in1010.5 mb 0.00 in0.0 mm 0.00 in0.0 mm 0.00 in0.0 mm
02:44 PM 33.1°F0.6°C 27.6°F-2.4°C 80% 8.8 mph SSE14.2 kmh SSE 13.0 mph20.9 kmh 29.84 in1010.5 mb 0.00 in0.0 mm 0.00 in0.0 mm 0.00 in0.0 mm
02:45 PM 33.1°F0.6°C 27.6°F-2.4°C 80% 8.7 mph SSE14.0 kmh SSE 13.0 mph20.9 kmh 29.84 in1010.5 mb 0.00 in0.0 mm 0.00 in0.0 mm 0.00 in0.0 mm
02:46 PM 33.1°F0.6°C 27.6°F-2.4°C 80% 7.9 mph SSE12.7 kmh SSE 13.0 mph20.9 kmh 29.84 in1010.5 mb 0.00 in0.0 mm 0.00 in0.0 mm 0.00 in0.0 mm
02:47 PM 33.1°F0.6°C 27.6°F-2.4°C 80% 7.6 mph S12.2 kmh S 11.0 mph17.7 kmh 29.84 in1010.5 mb 0.00 in0.0 mm 0.00 in0.0 mm 0.00 in0.0 mm
02:48 PM 33.1°F0.6°C 27.6°F-2.4°C 80% 8.3 mph SSE13.4 kmh SSE 11.0 mph17.7 kmh 29.83 in1010.2 mb 0.00 in0.0 mm 0.00 in0.0 mm 0.00 in0.0 mm
02:49 PM 33.1°F0.6°C 27.6°F-2.4°C 80% 7.3 mph SSE11.7 kmh SSE 11.0 mph17.7 kmh 29.83 in1010.2 mb 0.00 in0.0 mm 0.00 in0.0 mm 0.00 in0.0 mm
02:50 PM 33.1°F0.6°C 27.6°F-2.4°C 80% 6.7 mph SSE10.8 kmh SSE 10.0 mph16.1 kmh 29.83 in1010.2 mb 0.00 in0.0 mm 0.00 in0.0 mm 0.00 in0.0 mm
02:51 PM 33.1°F0.6°C 27.6°F-2.4°C 80% 7.0 mph SE11.3 kmh SE 10.0 mph16.1 kmh 29.84 in1010.5 mb 0.00 in0.0 mm 0.00 in0.0 mm 0.00 in0.0 mm
02:52 PM 33.1°F0.6°C 27.6°F-2.4°C 80% 5.4 mph SSE8.7 kmh SSE 10.0 mph16.1 kmh 29.83 in1010.2 mb 0.00 in0.0 mm 0.00 in0.0 mm 0.00 in0.0 mm
02:53 PM 33.1°F0.6°C 27.6°F-2.4°C 80% 8.1 mph SSE13.0 kmh SSE 12.0 mph19.3 kmh 29.83 in1010.2 mb 0.00 in0.0 mm 0.00 in0.0 mm 0.00 in0.0 mm
02:54 PM 33.1°F0.6°C 27.6°F-2.4°C 80% 9.1 mph SSE14.6 kmh SSE 14.0 mph22.5 kmh 29.83 in1010.2 mb 0.00 in0.0 mm 0.00 in0.0 mm 0.00 in0.0 mm
02:55 PM 33.2°F0.7°C 27.7°F-2.4°C 80% 8.7 mph SSE14.0 kmh SSE 14.0 mph22.5 kmh 29.83 in1010.2 mb 0.00 in0.0 mm 0.00 in0.0 mm 0.00 in0.0 mm
02:56 PM 33.1°F0.6°C 27.6°F-2.4°C 80% 7.2 mph SSE11.6 kmh SSE 14.0 mph22.5 kmh 29.83 in1010.2 mb 0.00 in0.0 mm 0.00 in0.0 mm 0.00 in0.0 mm
02:57 PM 33.2°F0.7°C 27.7°F-2.4°C 80% 5.5 mph S8.9 kmh S 9.0 mph14.5 kmh 29.83 in1010.2 mb 0.00 in0.0 mm 0.00 in0.0 mm 0.00 in0.0 mm
02:58 PM 33.2°F0.7°C 27.7°F-2.4°C 80% 7.1 mph SSE11.4 kmh SSE 12.0 mph19.3 kmh 29.83 in1010.2 mb 0.00 in0.0 mm 0.00 in0.0 mm 0.00 in0.0 mm
02:59 PM 33.2°F0.7°C 28.0°F-2.2°C 81% 8.6 mph SSE13.8 kmh SSE 14.0 mph22.5 kmh 29.83 in1010.2 mb 0.00 in0.0 mm 0.00 in0.0 mm 0.00 in0.0 mm
03:00 PM 33.1°F0.6°C 27.9°F-2.3°C 81% 7.5 mph SSE12.1 kmh SSE 14.0 mph22.5 kmh 29.83 in1010.2 mb 0.00 in0.0 mm 0.00 in0.0 mm 0.00 in0.0 mm
03:01 PM 33.2°F0.7°C 28.0°F-2.2°C 81% 7.8 mph SSE12.6 kmh SSE 12.0 mph19.3 kmh 29.83 in1010.2 mb 0.00 in0.0 mm 0.00 in0.0 mm 0.00 in0.0 mm
03:02 PM 33.2°F0.7°C 28.0°F-2.2°C 81% 8.1 mph SSE13.0 kmh SSE 12.0 mph19.3 kmh 29.83 in1010.2 mb 0.00 in0.0 mm 0.00 in0.0 mm 0.00 in0.0 mm
03:03 PM 33.2°F0.7°C 28.0°F-2.2°C 81% 6.4 mph SSE10.3 kmh SSE 11.0 mph17.7 kmh 29.83 in1010.2 mb 0.00 in0.0 mm 0.00 in0.0 mm 0.00 in0.0 mm
03:04 PM 33.2°F0.7°C 28.0°F-2.2°C 81% 5.7 mph SSE9.2 kmh SSE 13.0 mph20.9 kmh 29.83 in1010.2 mb 0.00 in0.0 mm 0.00 in0.0 mm 0.00 in0.0 mm
03:05 PM 33.2°F0.7°C 28.0°F-2.2°C 81% 10.2 mph SSE16.4 kmh SSE 14.0 mph22.5 kmh 29.83 in1010.2 mb 0.00 in0.0 mm 0.00 in0.0 mm 0.00 in0.0 mm
03:06 PM 33.2°F0.7°C 28.0°F-2.2°C 81% 7.7 mph SSE12.4 kmh SSE 14.0 mph22.5 kmh 29.83 in1010.2 mb 0.00 in0.0 mm 0.00 in0.0 mm 0.00 in0.0 mm
03:07 PM 33.2°F0.7°C 28.0°F-2.2°C 81% 6.2 mph SSE10.0 kmh SSE 11.0 mph17.7 kmh 29.83 in1010.2 mb 0.00 in0.0 mm 0.00 in0.0 mm 0.00 in0.0 mm
03:08 PM 33.2°F0.7°C 28.0°F-2.2°C 81% 6.2 mph SSE10.0 kmh SSE 10.0 mph16.1 kmh 29.83 in1010.2 mb 0.00 in0.0 mm 0.00 in0.0 mm 0.00 in0.0 mm
03:09 PM 33.2°F0.7°C 28.0°F-2.2°C 81% 7.5 mph SSE12.1 kmh SSE 11.0 mph17.7 kmh 29.83 in1010.2 mb 0.00 in0.0 mm 0.00 in0.0 mm 0.00 in0.0 mm
03:10 PM 33.2°F0.7°C 28.0°F-2.2°C 81% 9.8 mph SSE15.8 kmh SSE 13.0 mph20.9 kmh 29.83 in1010.2 mb 0.00 in0.0 mm 0.00 in0.0 mm 0.00 in0.0 mm
03:11 PM 33.2°F0.7°C 28.0°F-2.2°C 81% 5.8 mph SSE9.3 kmh SSE 13.0 mph20.9 kmh 29.82 in1009.8 mb 0.00 in0.0 mm 0.00 in0.0 mm 0.00 in0.0 mm
03:12 PM 33.2°F0.7°C 28.0°F-2.2°C 81% 5.9 mph SSE9.5 kmh SSE 9.0 mph14.5 kmh 29.82 in1009.8 mb 0.00 in0.0 mm 0.00 in0.0 mm 0.00 in0.0 mm
03:13 PM 33.2°F0.7°C 28.0°F-2.2°C 81% 6.9 mph SSE11.1 kmh SSE 11.0 mph17.7 kmh 29.82 in1009.8 mb 0.00 in0.0 mm 0.00 in0.0 mm 0.00 in0.0 mm
03:14 PM 33.2°F0.7°C 28.0°F-2.2°C 81% 6.8 mph SE10.9 kmh SE 12.0 mph19.3 kmh 29.82 in1009.8 mb 0.00 in0.0 mm 0.00 in0.0 mm 0.00 in0.0 mm
03:15 PM 33.2°F0.7°C 28.0°F-2.2°C 81% 8.6 mph SSE13.8 kmh SSE 14.0 mph22.5 kmh 29.82 in1009.8 mb 0.00 in0.0 mm 0.00 in0.0 mm 0.00 in0.0 mm
03:16 PM 33.3°F0.7°C 28.1°F-2.2°C 81% 8.0 mph SE12.9 kmh SE 14.0 mph22.5 kmh 29.82 in1009.8 mb 0.00 in0.0 mm 0.00 in0.0 mm 0.00 in0.0 mm
03:17 PM 33.2°F0.7°C 28.0°F-2.2°C 81% 10.6 mph SE17.1 kmh SE 14.0 mph22.5 kmh 29.82 in1009.8 mb 0.00 in0.0 mm 0.00 in0.0 mm 0.00 in0.0 mm
03:18 PM 33.2°F0.7°C 28.0°F-2.2°C 81% 7.9 mph SSE12.7 kmh SSE 13.0 mph20.9 kmh 29.82 in1009.8 mb 0.00 in0.0 mm 0.00 in0.0 mm 0.00 in0.0 mm
03:19 PM 33.2°F0.7°C 28.0°F-2.2°C 81% 6.2 mph SSE10.0 kmh SSE 10.0 mph16.1 kmh 29.82 in1009.8 mb 0.00 in0.0 mm 0.00 in0.0 mm 0.00 in0.0 mm
03:20 PM 33.2°F0.7°C 28.0°F-2.2°C 81% 8.4 mph SSE13.5 kmh SSE 12.0 mph19.3 kmh 29.82 in1009.8 mb 0.00 in0.0 mm 0.00 in0.0 mm 0.00 in0.0 mm
03:21 PM 33.2°F0.7°C 28.0°F-2.2°C 81% 8.0 mph SSE12.9 kmh SSE 12.0 mph19.3 kmh 29.82 in1009.8 mb 0.00 in0.0 mm 0.00 in0.0 mm 0.00 in0.0 mm
03:22 PM 33.2°F0.7°C 28.0°F-2.2°C 81% 6.2 mph S10.0 kmh S 12.0 mph19.3 kmh 29.82 in1009.8 mb 0.00 in0.0 mm 0.00 in0.0 mm 0.00 in0.0 mm
03:23 PM 33.2°F0.7°C 28.0°F-2.2°C 81% 7.7 mph S12.4 kmh S 12.0 mph19.3 kmh 29.82 in1009.8 mb 0.00 in0.0 mm 0.00 in0.0 mm 0.00 in0.0 mm
03:24 PM 33.2°F0.7°C 28.0°F-2.2°C 81% 7.1 mph SSE11.4 kmh SSE 12.0 mph19.3 kmh 29.82 in1009.8 mb 0.00 in0.0 mm 0.00 in0.0 mm 0.00 in0.0 mm
03:25 PM 33.2°F0.7°C 28.0°F-2.2°C 81% 6.8 mph SSE10.9 kmh SSE 10.0 mph16.1 kmh 29.82 in1009.8 mb 0.00 in0.0 mm 0.00 in0.0 mm 0.00 in0.0 mm
03:26 PM 33.2°F0.7°C 28.3°F-2.1°C 82% 7.9 mph SSE12.7 kmh SSE 11.0 mph17.7 kmh 29.82 in1009.8 mb 0.00 in0.0 mm 0.00 in0.0 mm 0.00 in0.0 mm
03:27 PM 33.2°F0.7°C 28.0°F-2.2°C 81% 7.7 mph S12.4 kmh S 11.0 mph17.7 kmh 29.82 in1009.8 mb 0.00 in0.0 mm 0.00 in0.0 mm 0.00 in0.0 mm
03:28 PM 33.2°F0.7°C 28.3°F-2.1°C 82% 7.5 mph SSE12.1 kmh SSE 11.0 mph17.7 kmh 29.82 in1009.8 mb 0.00 in0.0 mm 0.00 in0.0 mm 0.00 in0.0 mm
03:29 PM 33.2°F0.7°C 28.3°F-2.1°C 82% 5.7 mph SSE9.2 kmh SSE 10.0 mph16.1 kmh 29.82 in1009.8 mb 0.00 in0.0 mm 0.00 in0.0 mm 0.00 in0.0 mm
03:30 PM 33.2°F0.7°C 28.3°F-2.1°C 82% 5.8 mph SSE9.3 kmh SSE 9.0 mph14.5 kmh 29.82 in1009.8 mb 0.00 in0.0 mm 0.00 in0.0 mm 0.00 in0.0 mm
03:31 PM 33.2°F0.7°C 28.3°F-2.1°C 82% 5.6 mph S9.0 kmh S 9.0 mph14.5 kmh 29.82 in1009.8 mb 0.00 in0.0 mm 0.00 in0.0 mm 0.00 in0.0 mm
03:32 PM 33.2°F0.7°C 28.3°F-2.1°C 82% 8.2 mph SSE13.2 kmh SSE 11.0 mph17.7 kmh 29.82 in1009.8 mb 0.00 in0.0 mm 0.00 in0.0 mm 0.00 in0.0 mm
03:33 PM 33.2°F0.7°C 28.3°F-2.1°C 82% 9.1 mph SSE14.6 kmh SSE 12.0 mph19.3 kmh 29.82 in1009.8 mb 0.00 in0.0 mm 0.00 in0.0 mm 0.00 in0.0 mm
03:34 PM 33.2°F0.7°C 28.3°F-2.1°C 82% 7.4 mph SSE11.9 kmh SSE 12.0 mph19.3 kmh 29.82 in1009.8 mb 0.00 in0.0 mm 0.00 in0.0 mm 0.00 in0.0 mm
03:35 PM 33.2°F0.7°C 28.3°F-2.1°C 82% 8.9 mph SSE14.3 kmh SSE 12.0 mph19.3 kmh 29.82 in1009.8 mb 0.00 in0.0 mm 0.00 in0.0 mm 0.00 in0.0 mm
03:36 PM 33.2°F0.7°C 28.3°F-2.1°C 82% 8.4 mph SSE13.5 kmh SSE 12.0 mph19.3 kmh 29.82 in1009.8 mb 0.00 in0.0 mm 0.00 in0.0 mm 0.00 in0.0 mm
03:37 PM 33.2°F0.7°C 28.3°F-2.1°C 82% 6.5 mph SSE10.5 kmh SSE 12.0 mph19.3 kmh 29.82 in1009.8 mb 0.00 in0.0 mm 0.00 in0.0 mm 0.00 in0.0 mm
03:38 PM 33.2°F0.7°C 28.3°F-2.1°C 82% 7.6 mph SSE12.2 kmh SSE 13.0 mph20.9 kmh 29.82 in1009.8 mb 0.00 in0.0 mm 0.00 in0.0 mm 0.00 in0.0 mm
03:39 PM 33.3°F0.7°C 28.4°F-2.0°C 82% 9.0 mph SSE14.5 kmh SSE 13.0 mph20.9 kmh 29.81 in1009.5 mb 0.00 in0.0 mm 0.00 in0.0 mm 0.00 in0.0 mm
03:40 PM 33.3°F0.7°C 28.4°F-2.0°C 82% 6.6 mph SSE10.6 kmh SSE 12.0 mph19.3 kmh 29.81 in1009.5 mb 0.00 in0.0 mm 0.00 in0.0 mm 0.00 in0.0 mm
03:41 PM 33.2°F0.7°C 28.3°F-2.1°C 82% 8.1 mph SSE13.0 kmh SSE 12.0 mph19.3 kmh 29.81 in1009.5 mb 0.00 in0.0 mm 0.00 in0.0 mm 0.00 in0.0 mm
03:42 PM 33.3°F0.7°C 28.4°F-2.0°C 82% 8.9 mph SE14.3 kmh SE 13.0 mph20.9 kmh 29.81 in1009.5 mb 0.00 in0.0 mm 0.00 in0.0 mm 0.00 in0.0 mm
03:43 PM 33.3°F0.7°C 28.4°F-2.0°C 82% 8.7 mph SE14.0 kmh SE 13.0 mph20.9 kmh 29.81 in1009.5 mb 0.00 in0.0 mm 0.00 in0.0 mm 0.00 in0.0 mm
03:44 PM 33.2°F0.7°C 28.3°F-2.1°C 82% 8.3 mph SSE13.4 kmh SSE 12.0 mph19.3 kmh 29.81 in1009.5 mb 0.00 in0.0 mm 0.00 in0.0 mm 0.00 in0.0 mm
03:45 PM 33.3°F0.7°C 28.4°F-2.0°C 82% 8.4 mph SE13.5 kmh SE 12.0 mph19.3 kmh 29.81 in1009.5 mb 0.00 in0.0 mm 0.00 in0.0 mm 0.00 in0.0 mm
03:46 PM 33.2°F0.7°C 28.3°F-2.1°C 82% 5.8 mph SSE9.3 kmh SSE 12.0 mph19.3 kmh 29.81 in1009.5 mb 0.00 in0.0 mm 0.00 in0.0 mm 0.00 in0.0 mm
03:47 PM 33.3°F0.7°C 28.4°F-2.0°C 82% 6.8 mph SSE10.9 kmh SSE 10.0 mph16.1 kmh 29.81 in1009.5 mb 0.00 in0.0 mm 0.00 in0.0 mm 0.00 in0.0 mm
03:48 PM 33.3°F0.7°C 28.4°F-2.0°C 82% 8.7 mph SE14.0 kmh SE 11.0 mph17.7 kmh 29.81 in1009.5 mb 0.00 in0.0 mm 0.00 in0.0 mm 0.00 in0.0 mm
03:49 PM 33.2°F0.7°C 28.3°F-2.1°C 82% 9.2 mph SE14.8 kmh SE 12.0 mph19.3 kmh 29.81 in1009.5 mb 0.00 in0.0 mm 0.00 in0.0 mm 0.00 in0.0 mm
03:50 PM 33.3°F0.7°C 28.4°F-2.0°C 82% 7.9 mph SE12.7 kmh SE 12.0 mph19.3 kmh 29.81 in1009.5 mb 0.00 in0.0 mm 0.00 in0.0 mm 0.00 in0.0 mm
03:51 PM 33.2°F0.7°C 28.3°F-2.1°C 82% 9.4 mph SE15.1 kmh SE 12.0 mph19.3 kmh 29.81 in1009.5 mb 0.00 in0.0 mm 0.00 in0.0 mm 0.00 in0.0 mm
03:52 PM 33.2°F0.7°C 28.6°F-1.9°C 83% 9.2 mph SE14.8 kmh SE 13.0 mph20.9 kmh 29.81 in1009.5 mb 0.00 in0.0 mm 0.00 in0.0 mm 0.00 in0.0 mm
03:53 PM 33.2°F0.7°C 28.3°F-2.1°C 82% 9.4 mph SE15.1 kmh SE 14.0 mph22.5 kmh 29.81 in1009.5 mb 0.00 in0.0 mm 0.00 in0.0 mm 0.00 in0.0 mm
03:54 PM 33.2°F0.7°C 28.6°F-1.9°C 83% 8.9 mph SE14.3 kmh SE 14.0 mph22.5 kmh 29.80 in1009.1 mb 0.00 in0.0 mm 0.00 in0.0 mm 0.00 in0.0 mm
03:55 PM 33.3°F0.7°C 28.7°F-1.8°C 83% 7.8 mph SE12.6 kmh SE 13.0 mph20.9 kmh 29.80 in1009.1 mb 0.00 in0.0 mm 0.00 in0.0 mm 0.00 in0.0 mm
03:56 PM 33.3°F0.7°C 28.7°F-1.8°C 83% 9.4 mph SE15.1 kmh SE 16.0 mph25.7 kmh 29.80 in1009.1 mb 0.00 in0.0 mm 0.00 in0.0 mm 0.00 in0.0 mm
03:57 PM 33.2°F0.7°C 28.6°F-1.9°C 83% 8.8 mph SSE14.2 kmh SSE 16.0 mph25.7 kmh 29.80 in1009.1 mb 0.00 in0.0 mm 0.00 in0.0 mm 0.00 in0.0 mm
03:58 PM 33.2°F0.7°C 28.6°F-1.9°C 83% 8.7 mph SSE14.0 kmh SSE 12.0 mph19.3 kmh 29.80 in1009.1 mb 0.00 in0.0 mm 0.00 in0.0 mm 0.00 in0.0 mm
03:59 PM 33.2°F0.7°C 28.6°F-1.9°C 83% 9.1 mph SE14.6 kmh SE 12.0 mph19.3 kmh 29.80 in1009.1 mb 0.00 in0.0 mm 0.00 in0.0 mm 0.00 in0.0 mm
04:00 PM 33.3°F0.7°C 28.7°F-1.8°C 83% 8.9 mph SE14.3 kmh SE 12.0 mph19.3 kmh 29.80 in1009.1 mb 0.00 in0.0 mm 0.00 in0.0 mm 0.00 in0.0 mm
04:01 PM 33.2°F0.7°C 28.6°F-1.9°C 83% 8.2 mph SE13.2 kmh SE 12.0 mph19.3 kmh 29.80 in1009.1 mb 0.00 in0.0 mm 0.00 in0.0 mm 0.00 in0.0 mm
04:02 PM 33.3°F0.7°C 28.7°F-1.8°C 83% 7.3 mph SSE11.7 kmh SSE 11.0 mph17.7 kmh 29.80 in1009.1 mb 0.00 in0.0 mm 0.00 in0.0 mm 0.00 in0.0 mm
04:03 PM 33.2°F0.7°C 28.6°F-1.9°C 83% 7.7 mph SE12.4 kmh SE 11.0 mph17.7 kmh 29.80 in1009.1 mb 0.00 in0.0 mm 0.00 in0.0 mm 0.00 in0.0 mm
04:04 PM 33.3°F0.7°C 28.7°F-1.8°C 83% 8.4 mph SSE13.5 kmh SSE 11.0 mph17.7 kmh 29.80 in1009.1 mb 0.00 in0.0 mm 0.00 in0.0 mm 0.00 in0.0 mm
04:05 PM 33.2°F0.7°C 28.6°F-1.9°C 83% 6.6 mph SE10.6 kmh SE 12.0 mph19.3 kmh 29.80 in1009.1 mb 0.00 in0.0 mm 0.00 in0.0 mm 0.00 in0.0 mm
04:06 PM 33.3°F0.7°C 28.7°F-1.8°C 83% 8.9 mph SE14.3 kmh SE 12.0 mph19.3 kmh 29.80 in1009.1 mb 0.00 in0.0 mm 0.00 in0.0 mm 0.00 in0.0 mm
04:07 PM 33.2°F0.7°C 28.6°F-1.9°C 83% 6.7 mph SSE10.8 kmh SSE 11.0 mph17.7 kmh 29.80 in1009.1 mb 0.00 in0.0 mm 0.00 in0.0 mm 0.00 in0.0 mm
04:08 PM 33.2°F0.7°C 28.6°F-1.9°C 83% 7.8 mph SSE12.6 kmh SSE 13.0 mph20.9 kmh 29.80 in1009.1 mb 0.00 in0.0 mm 0.00 in0.0 mm 0.00 in0.0 mm
04:09 PM 33.2°F0.7°C 28.6°F-1.9°C 83% 4.7 mph SE7.6 kmh SE 13.0 mph20.9 kmh 29.80 in1009.1 mb 0.00 in0.0 mm 0.00 in0.0 mm 0.00 in0.0 mm
04:10 PM 33.2°F0.7°C 28.6°F-1.9°C 83% 8.1 mph SSE13.0 kmh SSE 10.0 mph16.1 kmh 29.80 in1009.1 mb 0.00 in0.0 mm 0.00 in0.0 mm 0.00 in0.0 mm
04:11 PM 33.2°F0.7°C 28.6°F-1.9°C 83% 8.4 mph SSE13.5 kmh SSE 11.0 mph17.7 kmh 29.80 in1009.1 mb 0.00 in0.0 mm 0.00 in0.0 mm 0.00 in0.0 mm
04:12 PM 33.2°F0.7°C 28.6°F-1.9°C 83% 7.0 mph SE11.3 kmh SE 11.0 mph17.7 kmh 29.80 in1009.1 mb 0.00 in0.0 mm 0.00 in0.0 mm 0.00 in0.0 mm
04:13 PM 33.2°F0.7°C 28.6°F-1.9°C 83% 7.5 mph SSE12.1 kmh SSE 11.0 mph17.7 kmh 29.80 in1009.1 mb 0.00 in0.0 mm 0.00 in0.0 mm 0.00 in0.0 mm
04:14 PM 33.2°F0.7°C 28.6°F-1.9°C 83% 8.7 mph SE14.0 kmh SE 11.0 mph17.7 kmh 29.80 in1009.1 mb 0.00 in0.0 mm 0.00 in0.0 mm 0.00 in0.0 mm
04:15 PM 33.2°F0.7°C 28.6°F-1.9°C 83% 9.9 mph SSE15.9 kmh SSE 15.0 mph24.1 kmh 29.80 in1009.1 mb 0.00 in0.0 mm 0.00 in0.0 mm 0.00 in0.0 mm
04:16 PM 33.2°F0.7°C 28.6°F-1.9°C 83% 7.3 mph SE11.7 kmh SE 15.0 mph24.1 kmh 29.80 in1009.1 mb 0.00 in0.0 mm 0.00 in0.0 mm 0.00 in0.0 mm
04:17 PM 33.2°F0.7°C 28.6°F-1.9°C 83% 10.5 mph SE16.9 kmh SE 14.0 mph22.5 kmh 29.80 in1009.1 mb 0.00 in0.0 mm 0.00 in0.0 mm 0.00 in0.0 mm
04:18 PM 33.3°F0.7°C 28.7°F-1.8°C 83% 9.7 mph SSE15.6 kmh SSE 14.0 mph22.5 kmh 29.80 in1009.1 mb 0.00 in0.0 mm 0.00 in0.0 mm 0.00 in0.0 mm
04:19 PM 33.3°F0.7°C 28.7°F-1.8°C 83% 9.5 mph SSE15.3 kmh SSE 14.0 mph22.5 kmh 29.80 in1009.1 mb 0.00 in0.0 mm 0.00 in0.0 mm 0.00 in0.0 mm
04:20 PM 33.3°F0.7°C 28.7°F-1.8°C 83% 7.6 mph SSE12.2 kmh SSE 13.0 mph20.9 kmh 29.80 in1009.1 mb 0.00 in0.0 mm 0.00 in0.0 mm 0.00 in0.0 mm
04:21 PM 33.3°F0.7°C 28.7°F-1.8°C 83% 8.2 mph SSE13.2 kmh SSE 12.0 mph19.3 kmh 29.80 in1009.1 mb 0.00 in0.0 mm 0.00 in0.0 mm 0.00 in0.0 mm
04:22 PM 33.3°F0.7°C 28.7°F-1.8°C 83% 7.5 mph SSE12.1 kmh SSE 12.0 mph19.3 kmh 29.80 in1009.1 mb 0.00 in0.0 mm 0.00 in0.0 mm 0.00 in0.0 mm
04:23 PM 33.3°F0.7°C 28.7°F-1.8°C 83% 9.2 mph SSE14.8 kmh SSE 13.0 mph20.9 kmh 29.80 in1009.1 mb 0.00 in0.0 mm 0.00 in0.0 mm 0.00 in0.0 mm
04:24 PM 33.3°F0.7°C 28.7°F-1.8°C 83% 8.3 mph SE13.4 kmh SE 13.0 mph20.9 kmh 29.80 in1009.1 mb 0.00 in0.0 mm 0.00 in0.0 mm 0.00 in0.0 mm
04:25 PM 33.3°F0.7°C 28.7°F-1.8°C 83% 7.2 mph SSE11.6 kmh SSE 12.0 mph19.3 kmh 29.80 in1009.1 mb 0.00 in0.0 mm 0.00 in0.0 mm 0.00 in0.0 mm
04:26 PM 33.3°F0.7°C 28.7°F-1.8°C 83% 8.5 mph SSE13.7 kmh SSE 13.0 mph20.9 kmh 29.80 in1009.1 mb 0.00 in0.0 mm 0.00 in0.0 mm 0.00 in0.0 mm
04:27 PM 33.3°F0.7°C 28.7°F-1.8°C 83% 7.2 mph SE11.6 kmh SE 13.0 mph20.9 kmh 29.80 in1009.1 mb 0.00 in0.0 mm 0.00 in0.0 mm 0.00 in0.0 mm
04:28 PM 33.2°F0.7°C 28.6°F-1.9°C 83% 7.6 mph SSE12.2 kmh SSE 12.0 mph19.3 kmh 29.80 in1009.1 mb 0.00 in0.0 mm 0.00 in0.0 mm 0.00 in0.0 mm
04:29 PM 33.3°F0.7°C 28.7°F-1.8°C 83% 6.1 mph SSE9.8 kmh SSE 12.0 mph19.3 kmh 29.80 in1009.1 mb 0.00 in0.0 mm 0.00 in0.0 mm 0.00 in0.0 mm
04:30 PM 33.3°F0.7°C 28.7°F-1.8°C 83% 8.8 mph SSE14.2 kmh SSE 12.0 mph19.3 kmh 29.80 in1009.1 mb 0.00 in0.0 mm 0.00 in0.0 mm 0.00 in0.0 mm
04:31 PM 33.3°F0.7°C 28.7°F-1.8°C 83% 11.5 mph SSE18.5 kmh SSE 16.0 mph25.7 kmh 29.80 in1009.1 mb 0.00 in0.0 mm 0.00 in0.0 mm 0.00 in0.0 mm
04:32 PM 33.3°F0.7°C 28.7°F-1.8°C 83% 9.5 mph SSE15.3 kmh SSE 16.0 mph25.7 kmh 29.80 in1009.1 mb 0.00 in0.0 mm 0.00 in0.0 mm 0.00 in0.0 mm
04:33 PM 33.3°F0.7°C 28.7°F-1.8°C 83% 9.0 mph SSE14.5 kmh SSE 14.0 mph22.5 kmh 29.80 in1009.1 mb 0.00 in0.0 mm 0.00 in0.0 mm 0.00 in0.0 mm
04:34 PM 33.3°F0.7°C 28.7°F-1.8°C 83% 9.3 mph SSE15.0 kmh SSE 14.0 mph22.5 kmh 29.80 in1009.1 mb 0.00 in0.0 mm 0.00 in0.0 mm 0.00 in0.0 mm
04:35 PM 33.3°F0.7°C 28.7°F-1.8°C 83% 7.2 mph SE11.6 kmh SE 14.0 mph22.5 kmh 29.80 in1009.1 mb 0.00 in0.0 mm 0.00 in0.0 mm 0.00 in0.0 mm
04:36 PM 33.3°F0.7°C 28.7°F-1.8°C 83% 8.9 mph SSE14.3 kmh SSE 13.0 mph20.9 kmh 29.80 in1009.1 mb 0.00 in0.0 mm 0.00 in0.0 mm 0.00 in0.0 mm
04:37 PM 33.4°F0.8°C 28.8°F-1.8°C 83% 8.7 mph SSE14.0 kmh SSE 13.0 mph20.9 kmh 29.80 in1009.1 mb 0.00 in0.0 mm 0.00 in0.0 mm 0.00 in0.0 mm
04:38 PM 33.3°F0.7°C 28.7°F-1.8°C 83% 7.7 mph SSE12.4 kmh SSE 13.0 mph20.9 kmh 29.80 in1009.1 mb 0.00 in0.0 mm 0.00 in0.0 mm 0.00 in0.0 mm
04:39 PM 33.4°F0.8°C 28.8°F-1.8°C 83% 9.4 mph SSE15.1 kmh SSE 13.0 mph20.9 kmh 29.80 in1009.1 mb 0.00 in0.0 mm 0.00 in0.0 mm 0.00 in0.0 mm
04:40 PM 33.4°F0.8°C 28.8°F-1.8°C 83% 7.6 mph SSE12.2 kmh SSE 13.0 mph20.9 kmh 29.80 in1009.1 mb 0.00 in0.0 mm 0.00 in0.0 mm 0.00 in0.0 mm
04:41 PM 33.4°F0.8°C 28.8°F-1.8°C 83% 10.9 mph SSE17.5 kmh SSE 16.0 mph25.7 kmh 29.80 in1009.1 mb 0.00 in0.0 mm 0.00 in0.0 mm 0.00 in0.0 mm
04:42 PM 33.4°F0.8°C 28.8°F-1.8°C 83% 8.5 mph SSE13.7 kmh SSE 16.0 mph25.7 kmh 29.80 in1009.1 mb 0.00 in0.0 mm 0.00 in0.0 mm 0.00 in0.0 mm
04:43 PM 33.3°F0.7°C 28.7°F-1.8°C 83% 8.1 mph SSE13.0 kmh SSE 12.0 mph19.3 kmh 29.80 in1009.1 mb 0.00 in0.0 mm 0.00 in0.0 mm 0.00 in0.0 mm
04:44 PM 33.3°F0.7°C 28.7°F-1.8°C 83% 9.2 mph SSE14.8 kmh SSE 12.0 mph19.3 kmh 29.80 in1009.1 mb 0.00 in0.0 mm 0.00 in0.0 mm 0.00 in0.0 mm
04:45 PM 33.3°F0.7°C 28.7°F-1.8°C 83% 10.0 mph SSE16.1 kmh SSE 16.0 mph25.7 kmh 29.80 in1009.1 mb 0.00 in0.0 mm 0.00 in0.0 mm 0.00 in0.0 mm
04:46 PM 33.3°F0.7°C 28.7°F-1.8°C 83% 9.5 mph SSE15.3 kmh SSE 16.0 mph25.7 kmh 29.80 in1009.1 mb 0.00 in0.0 mm 0.00 in0.0 mm 0.00 in0.0 mm
04:47 PM 33.4°F0.8°C 28.8°F-1.8°C 83% 6.4 mph SSE10.3 kmh SSE 14.0 mph22.5 kmh 29.80 in1009.1 mb 0.00 in0.0 mm 0.00 in0.0 mm 0.00 in0.0 mm
04:48 PM 33.3°F0.7°C 28.7°F-1.8°C 83% 7.6 mph SSE12.2 kmh SSE 12.0 mph19.3 kmh 29.80 in1009.1 mb 0.00 in0.0 mm 0.00 in0.0 mm 0.00 in0.0 mm
04:49 PM 33.4°F0.8°C 28.8°F-1.8°C 83% 8.0 mph SSE12.9 kmh SSE 12.0 mph19.3 kmh 29.80 in1009.1 mb 0.00 in0.0 mm 0.00 in0.0 mm 0.00 in0.0 mm
04:50 PM 33.3°F0.7°C 28.7°F-1.8°C 83% 6.2 mph SE10.0 kmh SE 11.0 mph17.7 kmh 29.80 in1009.1 mb 0.00 in0.0 mm 0.00 in0.0 mm 0.00 in0.0 mm
04:51 PM 33.3°F0.7°C 29.0°F-1.7°C 84% 9.0 mph SSE14.5 kmh SSE 14.0 mph22.5 kmh 29.80 in1009.1 mb 0.00 in0.0 mm 0.00 in0.0 mm 0.00 in0.0 mm
04:52 PM 33.3°F0.7°C 29.0°F-1.7°C 84% 7.4 mph SSE11.9 kmh SSE 14.0 mph22.5 kmh 29.80 in1009.1 mb 0.00 in0.0 mm 0.00 in0.0 mm 0.00 in0.0 mm
04:53 PM 33.4°F0.8°C 29.1°F-1.6°C 84% 9.4 mph SSE15.1 kmh SSE 14.0 mph22.5 kmh 29.80 in1009.1 mb 0.00 in0.0 mm 0.00 in0.0 mm 0.00 in0.0 mm
04:54 PM 33.3°F0.7°C 29.0°F-1.7°C 84% 9.0 mph SSE14.5 kmh SSE 14.0 mph22.5 kmh 29.80 in1009.1 mb 0.00 in0.0 mm 0.00 in0.0 mm 0.00 in0.0 mm
04:55 PM 33.3°F0.7°C 29.0°F-1.7°C 84% 9.8 mph SE15.8 kmh SE 14.0 mph22.5 kmh 29.80 in1009.1 mb 0.00 in0.0 mm 0.00 in0.0 mm 0.00 in0.0 mm
04:56 PM 33.3°F0.7°C 29.0°F-1.7°C 84% 8.0 mph SSE12.9 kmh SSE 13.0 mph20.9 kmh 29.80 in1009.1 mb 0.00 in0.0 mm 0.00 in0.0 mm 0.00 in0.0 mm
04:57 PM 33.3°F0.7°C 29.0°F-1.7°C 84% 9.2 mph SE14.8 kmh SE 13.0 mph20.9 kmh 29.80 in1009.1 mb 0.00 in0.0 mm 0.00 in0.0 mm 0.00 in0.0 mm
04:58 PM 33.3°F0.7°C 29.0°F-1.7°C 84% 8.5 mph SSE13.7 kmh SSE 13.0 mph20.9 kmh 29.80 in1009.1 mb 0.00 in0.0 mm 0.00 in0.0 mm 0.00 in0.0 mm
04:59 PM 33.4°F0.8°C 29.1°F-1.6°C 84% 6.4 mph SSE10.3 kmh SSE 11.0 mph17.7 kmh 29.80 in1009.1 mb 0.00 in0.0 mm 0.00 in0.0 mm 0.00 in0.0 mm
05:00 PM 33.3°F0.7°C 29.0°F-1.7°C 84% 8.5 mph SSE13.7 kmh SSE 13.0 mph20.9 kmh 29.80 in1009.1 mb 0.00 in0.0 mm 0.00 in0.0 mm 0.00 in0.0 mm
05:01 PM 33.3°F0.7°C 29.0°F-1.7°C 84% 5.2 mph SSE8.4 kmh SSE 13.0 mph20.9 kmh 29.80 in1009.1 mb 0.00 in0.0 mm 0.00 in0.0 mm 0.00 in0.0 mm
05:02 PM 33.3°F0.7°C 29.0°F-1.7°C 84% 9.4 mph SSE15.1 kmh SSE 14.0 mph22.5 kmh 29.79 in1008.8 mb 0.00 in0.0 mm 0.00 in0.0 mm 0.00 in0.0 mm
05:03 PM 33.3°F0.7°C 29.0°F-1.7°C 84% 8.6 mph SSE13.8 kmh SSE 14.0 mph22.5 kmh 29.79 in1008.8 mb 0.00 in0.0 mm 0.00 in0.0 mm 0.00 in0.0 mm
05:04 PM 33.3°F0.7°C 29.0°F-1.7°C 84% 5.4 mph SSE8.7 kmh SSE 14.0 mph22.5 kmh 29.79 in1008.8 mb 0.00 in0.0 mm 0.00 in0.0 mm 0.00 in0.0 mm
05:05 PM 33.3°F0.7°C 29.0°F-1.7°C 84% 10.1 mph SSE16.3 kmh SSE 15.0 mph24.1 kmh 29.79 in1008.8 mb 0.00 in0.0 mm 0.00 in0.0 mm 0.00 in0.0 mm
05:06 PM 33.3°F0.7°C 29.0°F-1.7°C 84% 7.3 mph SSE11.7 kmh SSE 15.0 mph24.1 kmh 29.79 in1008.8 mb 0.00 in0.0 mm 0.00 in0.0 mm 0.00 in0.0 mm
05:07 PM 33.3°F0.7°C 29.0°F-1.7°C 84% 7.3 mph SSE11.7 kmh SSE 12.0 mph19.3 kmh 29.79 in1008.8 mb 0.00 in0.0 mm 0.00 in0.0 mm 0.00 in0.0 mm
05:08 PM 33.3°F0.7°C 29.0°F-1.7°C 84% 8.9 mph SSE14.3 kmh SSE 12.0 mph19.3 kmh 29.79 in1008.8 mb 0.00 in0.0 mm 0.00 in0.0 mm 0.00 in0.0 mm
05:09 PM 33.3°F0.7°C 29.0°F-1.7°C 84% 10.2 mph SSE16.4 kmh SSE 15.0 mph24.1 kmh 29.79 in1008.8 mb 0.00 in0.0 mm 0.00 in0.0 mm 0.00 in0.0 mm
05:10 PM 33.3°F0.7°C 29.0°F-1.7°C 84% 6.6 mph SSE10.6 kmh SSE 15.0 mph24.1 kmh 29.79 in1008.8 mb 0.00 in0.0 mm 0.00 in0.0 mm 0.00 in0.0 mm
05:11 PM 33.3°F0.7°C 29.0°F-1.7°C 84% 8.6 mph SSE13.8 kmh SSE 13.0 mph20.9 kmh 29.79 in1008.8 mb 0.00 in0.0 mm 0.00 in0.0 mm 0.00 in0.0 mm
05:12 PM 33.3°F0.7°C 29.0°F-1.7°C 84% 8.1 mph SSE13.0 kmh SSE 13.0 mph20.9 kmh 29.79 in1008.8 mb 0.00 in0.0 mm 0.00 in0.0 mm 0.00 in0.0 mm
05:13 PM 33.3°F0.7°C 29.0°F-1.7°C 84% 5.8 mph SE9.3 kmh SE 13.0 mph20.9 kmh 29.79 in1008.8 mb 0.00 in0.0 mm 0.00 in0.0 mm 0.00 in0.0 mm
05:14 PM 33.3°F0.7°C 29.0°F-1.7°C 84% 7.9 mph SSE12.7 kmh SSE 11.0 mph17.7 kmh 29.79 in1008.8 mb 0.00 in0.0 mm 0.00 in0.0 mm 0.00 in0.0 mm
05:15 PM 33.3°F0.7°C 29.0°F-1.7°C 84% 7.7 mph SSE12.4 kmh SSE 12.0 mph19.3 kmh 29.79 in1008.8 mb 0.00 in0.0 mm 0.00 in0.0 mm 0.00 in0.0 mm
05:16 PM 33.3°F0.7°C 29.0°F-1.7°C 84% 9.3 mph SE15.0 kmh SE 13.0 mph20.9 kmh 29.79 in1008.8 mb 0.00 in0.0 mm 0.00 in0.0 mm 0.00 in0.0 mm
05:17 PM 33.3°F0.7°C 29.0°F-1.7°C 84% 9.5 mph SSE15.3 kmh SSE 13.0 mph20.9 kmh 29.79 in1008.8 mb 0.00 in0.0 mm 0.00 in0.0 mm 0.00 in0.0 mm
05:18 PM 33.2°F0.7°C 28.9°F-1.7°C 84% 7.2 mph SSE11.6 kmh SSE 12.0 mph19.3 kmh 29.79 in1008.8 mb 0.00 in0.0 mm 0.00 in0.0 mm 0.00 in0.0 mm
05:19 PM 33.2°F0.7°C 28.9°F-1.7°C 84% 7.8 mph SSE12.6 kmh SSE 12.0 mph19.3 kmh 29.79 in1008.8 mb 0.00 in0.0 mm 0.00 in0.0 mm 0.00 in0.0 mm
05:20 PM 33.2°F0.7°C 28.9°F-1.7°C 84% 8.9 mph SE14.3 kmh SE 11.0 mph17.7 kmh 29.78 in1008.5 mb 0.00 in0.0 mm 0.00 in0.0 mm 0.00 in0.0 mm
05:21 PM 33.3°F0.7°C 29.0°F-1.7°C 84% 8.3 mph SSE13.4 kmh SSE 12.0 mph19.3 kmh 29.78 in1008.5 mb 0.00 in0.0 mm 0.00 in0.0 mm 0.00 in0.0 mm
05:22 PM 33.2°F0.7°C 28.9°F-1.7°C 84% 8.3 mph SSE13.4 kmh SSE 12.0 mph19.3 kmh 29.78 in1008.5 mb 0.00 in0.0 mm 0.00 in0.0 mm 0.00 in0.0 mm
05:23 PM 33.3°F0.7°C 29.0°F-1.7°C 84% 8.7 mph SSE14.0 kmh SSE 13.0 mph20.9 kmh 29.78 in1008.5 mb 0.00 in0.0 mm 0.00 in0.0 mm 0.00 in0.0 mm
05:24 PM 33.3°F0.7°C 29.0°F-1.7°C 84% 8.5 mph SSE13.7 kmh SSE 13.0 mph20.9 kmh 29.79 in1008.8 mb 0.00 in0.0 mm 0.00 in0.0 mm 0.00 in0.0 mm
05:25 PM 33.3°F0.7°C 29.0°F-1.7°C 84% 8.1 mph SE13.0 kmh SE 12.0 mph19.3 kmh 29.78 in1008.5 mb 0.00 in0.0 mm 0.00 in0.0 mm 0.00 in0.0 mm
05:26 PM 33.2°F0.7°C 28.9°F-1.7°C 84% 8.9 mph SE14.3 kmh SE 12.0 mph19.3 kmh 29.78 in1008.5 mb 0.00 in0.0 mm 0.00 in0.0 mm 0.00 in0.0 mm
05:27 PM 33.2°F0.7°C 28.9°F-1.7°C 84% 7.9 mph SSE12.7 kmh SSE 12.0 mph19.3 kmh 29.78 in1008.5 mb 0.00 in0.0 mm 0.00 in0.0 mm 0.00 in0.0 mm
05:28 PM 33.3°F0.7°C 29.3°F-1.5°C 85% 7.1 mph SE11.4 kmh SE 11.0 mph17.7 kmh 29.78 in1008.5 mb 0.00 in0.0 mm 0.00 in0.0 mm 0.00 in0.0 mm
05:29 PM 33.3°F0.7°C 29.3°F-1.5°C 85% 8.4 mph SE13.5 kmh SE 11.0 mph17.7 kmh 29.78 in1008.5 mb 0.00 in0.0 mm 0.00 in0.0 mm 0.00 in0.0 mm
05:30 PM 33.3°F0.7°C 29.3°F-1.5°C 85% 8.9 mph SSE14.3 kmh SSE 14.0 mph22.5 kmh 29.78 in1008.5 mb 0.00 in0.0 mm 0.00 in0.0 mm 0.00 in0.0 mm
05:31 PM 33.2°F0.7°C 29.2°F-1.6°C 85% 9.8 mph SE15.8 kmh SE 14.0 mph22.5 kmh 29.78 in1008.5 mb 0.00 in0.0 mm 0.00 in0.0 mm 0.00 in0.0 mm
05:32 PM 33.2°F0.7°C 29.2°F-1.6°C 85% 8.7 mph SE14.0 kmh SE 14.0 mph22.5 kmh 29.78 in1008.5 mb 0.00 in0.0 mm 0.00 in0.0 mm 0.00 in0.0 mm
05:33 PM 33.2°F0.7°C 29.2°F-1.6°C 85% 7.5 mph SSE12.1 kmh SSE 11.0 mph17.7 kmh 29.78 in1008.5 mb 0.00 in0.0 mm 0.00 in0.0 mm 0.00 in0.0 mm
05:34 PM 33.2°F0.7°C 29.2°F-1.6°C 85% 7.3 mph SE11.7 kmh SE 11.0 mph17.7 kmh 29.78 in1008.5 mb 0.00 in0.0 mm 0.00 in0.0 mm 0.00 in0.0 mm
05:35 PM 33.2°F0.7°C 29.2°F-1.6°C 85% 10.1 mph SE16.3 kmh SE 14.0 mph22.5 kmh 29.78 in1008.5 mb 0.00 in0.0 mm 0.00 in0.0 mm 0.00 in0.0 mm
05:36 PM 33.2°F0.7°C 29.2°F-1.6°C 85% 10.4 mph SE16.7 kmh SE 15.0 mph24.1 kmh 29.78 in1008.5 mb 0.00 in0.0 mm 0.00 in0.0 mm 0.00 in0.0 mm
05:37 PM 33.3°F0.7°C 29.3°F-1.5°C 85% 8.8 mph SSE14.2 kmh SSE 15.0 mph24.1 kmh 29.78 in1008.5 mb 0.00 in0.0 mm 0.00 in0.0 mm 0.00 in0.0 mm
05:38 PM 33.2°F0.7°C 29.2°F-1.6°C 85% 10.1 mph SSE16.3 kmh SSE 14.0 mph22.5 kmh 29.78 in1008.5 mb 0.00 in0.0 mm 0.00 in0.0 mm 0.00 in0.0 mm
05:39 PM 33.3°F0.7°C 29.3°F-1.5°C 85% 9.5 mph SSE15.3 kmh SSE 15.0 mph24.1 kmh 29.78 in1008.5 mb 0.00 in0.0 mm 0.00 in0.0 mm 0.00 in0.0 mm
05:40 PM 33.2°F0.7°C 29.2°F-1.6°C 85% 9.4 mph SE15.1 kmh SE 15.0 mph24.1 kmh 29.78 in1008.5 mb 0.00 in0.0 mm 0.00 in0.0 mm 0.00 in0.0 mm
05:41 PM 33.3°F0.7°C 29.3°F-1.5°C 85% 9.3 mph SE15.0 kmh SE 13.0 mph20.9 kmh 29.78 in1008.5 mb 0.00 in0.0 mm 0.00 in0.0 mm 0.00 in0.0 mm
05:42 PM 33.2°F0.7°C 29.2°F-1.6°C 85% 8.7 mph SE14.0 kmh SE 14.0 mph22.5 kmh 29.78 in1008.5 mb 0.00 in0.0 mm 0.00 in0.0 mm 0.00 in0.0 mm
05:43 PM 33.2°F0.7°C 29.2°F-1.6°C 85% 11.4 mph SSE18.3 kmh SSE 15.0 mph24.1 kmh 29.78 in1008.5 mb 0.00 in0.0 mm 0.00 in0.0 mm 0.00 in0.0 mm
05:44 PM 33.2°F0.7°C 29.2°F-1.6°C 85% 11.1 mph SSE17.9 kmh SSE 15.0 mph24.1 kmh 29.78 in1008.5 mb 0.00 in0.0 mm 0.00 in0.0 mm 0.00 in0.0 mm
05:45 PM 33.2°F0.7°C 29.2°F-1.6°C 85% 8.8 mph SE14.2 kmh SE 13.0 mph20.9 kmh 29.78 in1008.5 mb 0.00 in0.0 mm 0.00 in0.0 mm 0.00 in0.0 mm
05:46 PM 33.2°F0.7°C 29.2°F-1.6°C 85% 7.5 mph SE12.1 kmh SE 12.0 mph19.3 kmh 29.78 in1008.5 mb 0.00 in0.0 mm 0.00 in0.0 mm 0.00 in0.0 mm
05:47 PM 33.3°F0.7°C 29.3°F-1.5°C 85% 8.4 mph SE13.5 kmh SE 12.0 mph19.3 kmh 29.78 in1008.5 mb 0.00 in0.0 mm 0.00 in0.0 mm 0.00 in0.0 mm
05:48 PM 33.2°F0.7°C 29.2°F-1.6°C 85% 6.9 mph SSE11.1 kmh SSE 11.0 mph17.7 kmh 29.78 in1008.5 mb 0.00 in0.0 mm 0.00 in0.0 mm 0.00 in0.0 mm
05:49 PM 33.3°F0.7°C 29.3°F-1.5°C 85% 6.6 mph SSE10.6 kmh SSE 10.0 mph16.1 kmh 29.78 in1008.5 mb 0.00 in0.0 mm 0.00 in0.0 mm 0.00 in0.0 mm
05:50 PM 33.3°F0.7°C 29.3°F-1.5°C 85% 8.2 mph SE13.2 kmh SE 11.0 mph17.7 kmh 29.78 in1008.5 mb 0.00 in0.0 mm 0.00 in0.0 mm 0.00 in0.0 mm
05:51 PM 33.3°F0.7°C 29.3°F-1.5°C 85% 6.7 mph SSE10.8 kmh SSE 11.0 mph17.7 kmh 29.78 in1008.5 mb 0.00 in0.0 mm 0.00 in0.0 mm 0.00 in0.0 mm
05:52 PM 33.2°F0.7°C 29.2°F-1.6°C 85% 6.7 mph SSE10.8 kmh SSE 11.0 mph17.7 kmh 29.78 in1008.5 mb 0.00 in0.0 mm 0.00 in0.0 mm 0.00 in0.0 mm
05:53 PM 33.2°F0.7°C 29.2°F-1.6°C 85% 9.5 mph SSE15.3 kmh SSE 12.0 mph19.3 kmh 29.78 in1008.5 mb 0.00 in0.0 mm 0.00 in0.0 mm 0.00 in0.0 mm
05:54 PM 33.3°F0.7°C 29.3°F-1.5°C 85% 7.0 mph SSE11.3 kmh SSE 12.0 mph19.3 kmh 29.78 in1008.5 mb 0.00 in0.0 mm 0.00 in0.0 mm 0.00 in0.0 mm
05:55 PM 33.2°F0.7°C 29.2°F-1.6°C 85% 7.8 mph SE12.6 kmh SE 10.0 mph16.1 kmh 29.78 in1008.5 mb 0.00 in0.0 mm 0.00 in0.0 mm 0.00 in0.0 mm
05:56 PM 33.2°F0.7°C 29.2°F-1.6°C 85% 8.8 mph SE14.2 kmh SE 15.0 mph24.1 kmh 29.78 in1008.5 mb 0.00 in0.0 mm 0.00 in0.0 mm 0.00 in0.0 mm
05:57 PM 33.3°F0.7°C 29.3°F-1.5°C 85% 9.8 mph SE15.8 kmh SE 15.0 mph24.1 kmh 29.77 in1008.1 mb 0.00 in0.0 mm 0.00 in0.0 mm 0.00 in0.0 mm
05:58 PM 33.3°F0.7°C 29.3°F-1.5°C 85% 9.8 mph SSE15.8 kmh SSE 13.0 mph20.9 kmh 29.77 in1008.1 mb 0.00 in0.0 mm 0.00 in0.0 mm 0.00 in0.0 mm
05:59 PM 33.2°F0.7°C 29.2°F-1.6°C 85% 8.8 mph SE14.2 kmh SE 12.0 mph19.3 kmh 29.77 in1008.1 mb 0.00 in0.0 mm 0.00 in0.0 mm 0.00 in0.0 mm
06:00 PM 33.2°F0.7°C 29.2°F-1.6°C 85% 7.5 mph SSE12.1 kmh SSE 10.0 mph16.1 kmh 29.77 in1008.1 mb 0.00 in0.0 mm 0.00 in0.0 mm 0.00 in0.0 mm
06:01 PM 33.2°F0.7°C 29.2°F-1.6°C 85% 7.7 mph SE12.4 kmh SE 11.0 mph17.7 kmh 29.77 in1008.1 mb 0.00 in0.0 mm 0.00 in0.0 mm 0.00 in0.0 mm
06:02 PM 33.2°F0.7°C 29.2°F-1.6°C 85% 7.8 mph SSE12.6 kmh SSE 12.0 mph19.3 kmh 29.77 in1008.1 mb 0.00 in0.0 mm 0.00 in0.0 mm 0.00 in0.0 mm
06:03 PM 33.2°F0.7°C 29.2°F-1.6°C 85% 9.2 mph SE14.8 kmh SE 12.0 mph19.3 kmh 29.77 in1008.1 mb 0.00 in0.0 mm 0.00 in0.0 mm 0.00 in0.0 mm
06:04 PM 33.2°F0.7°C 29.2°F-1.6°C 85% 7.9 mph SE12.7 kmh SE 12.0 mph19.3 kmh 29.77 in1008.1 mb 0.00 in0.0 mm 0.00 in0.0 mm 0.00 in0.0 mm
06:05 PM 33.2°F0.7°C 29.2°F-1.6°C 85% 10.6 mph SE17.1 kmh SE 14.0 mph22.5 kmh 29.77 in1008.1 mb 0.00 in0.0 mm 0.00 in0.0 mm 0.00 in0.0 mm
06:06 PM 33.2°F0.7°C 29.2°F-1.6°C 85% 5.8 mph SE9.3 kmh SE 14.0 mph22.5 kmh 29.77 in1008.1 mb 0.00 in0.0 mm 0.00 in0.0 mm 0.00 in0.0 mm
06:07 PM 33.2°F0.7°C 29.2°F-1.6°C 85% 6.2 mph SE10.0 kmh SE 10.0 mph16.1 kmh 29.77 in1008.1 mb 0.00 in0.0 mm 0.00 in0.0 mm 0.00 in0.0 mm
06:08 PM 33.2°F0.7°C 29.2°F-1.6°C 85% 7.9 mph SE12.7 kmh SE 12.0 mph19.3 kmh 29.77 in1008.1 mb 0.00 in0.0 mm 0.00 in0.0 mm 0.00 in0.0 mm
06:09 PM 33.2°F0.7°C 29.2°F-1.6°C 85% 8.9 mph SE14.3 kmh SE 14.0 mph22.5 kmh 29.77 in1008.1 mb 0.00 in0.0 mm 0.00 in0.0 mm 0.00 in0.0 mm
06:10 PM 33.2°F0.7°C 29.2°F-1.6°C 85% 8.5 mph SE13.7 kmh SE 14.0 mph22.5 kmh 29.77 in1008.1 mb 0.00 in0.0 mm 0.00 in0.0 mm 0.00 in0.0 mm
06:11 PM 33.2°F0.7°C 29.2°F-1.6°C 85% 6.9 mph SE11.1 kmh SE 11.0 mph17.7 kmh 29.77 in1008.1 mb 0.00 in0.0 mm 0.00 in0.0 mm 0.00 in0.0 mm
06:12 PM 33.2°F0.7°C 29.2°F-1.6°C 85% 9.7 mph SE15.6 kmh SE 16.0 mph25.7 kmh 29.77 in1008.1 mb 0.00 in0.0 mm 0.00 in0.0 mm 0.00 in0.0 mm
06:13 PM 33.2°F0.7°C 29.2°F-1.6°C 85% 8.1 mph SE13.0 kmh SE 16.0 mph25.7 kmh 29.77 in1008.1 mb 0.00 in0.0 mm 0.00 in0.0 mm 0.00 in0.0 mm
06:14 PM 33.2°F0.7°C 29.5°F-1.4°C 86% 8.6 mph SE13.8 kmh SE 12.0 mph19.3 kmh 29.77 in1008.1 mb 0.00 in0.0 mm 0.00 in0.0 mm 0.00 in0.0 mm
06:15 PM 33.2°F0.7°C 29.5°F-1.4°C 86% 7.9 mph SE12.7 kmh SE 12.0 mph19.3 kmh 29.77 in1008.1 mb 0.00 in0.0 mm 0.00 in0.0 mm 0.00 in0.0 mm
06:16 PM 33.1°F0.6°C 29.4°F-1.4°C 86% 7.0 mph SE11.3 kmh SE 12.0 mph19.3 kmh 29.77 in1008.1 mb 0.00 in0.0 mm 0.00 in0.0 mm 0.00 in0.0 mm
06:17 PM 33.2°F0.7°C 29.5°F-1.4°C 86% 8.8 mph SE14.2 kmh SE 12.0 mph19.3 kmh 29.77 in1008.1 mb 0.00 in0.0 mm 0.00 in0.0 mm 0.00 in0.0 mm
06:18 PM 33.2°F0.7°C 29.5°F-1.4°C 86% 6.5 mph SE10.5 kmh SE 12.0 mph19.3 kmh 29.77 in1008.1 mb 0.00 in0.0 mm 0.00 in0.0 mm 0.00 in0.0 mm
06:19 PM 33.1°F0.6°C 29.4°F-1.4°C 86% 8.9 mph SE14.3 kmh SE 12.0 mph19.3 kmh 29.77 in1008.1 mb 0.00 in0.0 mm 0.00 in0.0 mm 0.00 in0.0 mm
06:20 PM 33.1°F0.6°C 29.4°F-1.4°C 86% 7.3 mph SE11.7 kmh SE 12.0 mph19.3 kmh 29.77 in1008.1 mb 0.00 in0.0 mm 0.00 in0.0 mm 0.00 in0.0 mm
06:21 PM 33.1°F0.6°C 29.4°F-1.4°C 86% 8.3 mph SE13.4 kmh SE 11.0 mph17.7 kmh 29.77 in1008.1 mb 0.00 in0.0 mm 0.00 in0.0 mm 0.00 in0.0 mm
06:22 PM 33.1°F0.6°C 29.4°F-1.4°C 86% 8.0 mph SE12.9 kmh SE 11.0 mph17.7 kmh 29.77 in1008.1 mb 0.00 in0.0 mm 0.00 in0.0 mm 0.00 in0.0 mm
06:23 PM 33.1°F0.6°C 29.4°F-1.4°C 86% 8.0 mph SE12.9 kmh SE 11.0 mph17.7 kmh 29.77 in1008.1 mb 0.00 in0.0 mm 0.00 in0.0 mm 0.00 in0.0 mm
06:24 PM 33.1°F0.6°C 29.4°F-1.4°C 86% 8.5 mph SE13.7 kmh SE 11.0 mph17.7 kmh 29.77 in1008.1 mb 0.00 in0.0 mm 0.00 in0.0 mm 0.00 in0.0 mm
06:25 PM 33.1°F0.6°C 29.4°F-1.4°C 86% 8.6 mph SE13.8 kmh SE 11.0 mph17.7 kmh 29.77 in1008.1 mb 0.00 in0.0 mm 0.00 in0.0 mm 0.00 in0.0 mm
06:26 PM 33.1°F0.6°C 29.4°F-1.4°C 86% 8.4 mph SE13.5 kmh SE 13.0 mph20.9 kmh 29.77 in1008.1 mb 0.00 in0.0 mm 0.00 in0.0 mm 0.00 in0.0 mm
06:27 PM 33.1°F0.6°C 29.4°F-1.4°C 86% 9.3 mph SSE15.0 kmh SSE 13.0 mph20.9 kmh 29.77 in1008.1 mb 0.00 in0.0 mm 0.00 in0.0 mm 0.00 in0.0 mm
06:28 PM 33.1°F0.6°C 29.4°F-1.4°C 86% 8.8 mph SE14.2 kmh SE 13.0 mph20.9 kmh 29.77 in1008.1 mb 0.00 in0.0 mm 0.00 in0.0 mm 0.00 in0.0 mm
06:29 PM 33.1°F0.6°C 29.4°F-1.4°C 86% 8.2 mph SE13.2 kmh SE 12.0 mph19.3 kmh 29.77 in1008.1 mb 0.00 in0.0 mm 0.00 in0.0 mm 0.00 in0.0 mm
06:30 PM 33.1°F0.6°C 29.4°F-1.4°C 86% 5.3 mph SE8.5 kmh SE 10.0 mph16.1 kmh 29.77 in1008.1 mb 0.00 in0.0 mm 0.00 in0.0 mm 0.00 in0.0 mm
06:31 PM 33.1°F0.6°C 29.4°F-1.4°C 86% 8.0 mph SSE12.9 kmh SSE 11.0 mph17.7 kmh 29.77 in1008.1 mb 0.00 in0.0 mm 0.00 in0.0 mm 0.00 in0.0 mm
06:32 PM 33.1°F0.6°C 29.4°F-1.4°C 86% 7.8 mph SSE12.6 kmh SSE 11.0 mph17.7 kmh 29.77 in1008.1 mb 0.00 in0.0 mm 0.00 in0.0 mm 0.00 in0.0 mm
06:33 PM 33.1°F0.6°C 29.4°F-1.4°C 86% 9.5 mph SSE15.3 kmh SSE 13.0 mph20.9 kmh 29.77 in1008.1 mb 0.00 in0.0 mm 0.00 in0.0 mm 0.00 in0.0 mm
06:34 PM 33.1°F0.6°C 29.4°F-1.4°C 86% 7.2 mph SSE11.6 kmh SSE 13.0 mph20.9 kmh 29.77 in1008.1 mb 0.00 in0.0 mm 0.00 in0.0 mm 0.00 in0.0 mm
06:35 PM 33.1°F0.6°C 29.4°F-1.4°C 86% 9.1 mph SE14.6 kmh SE 12.0 mph19.3 kmh 29.77 in1008.1 mb 0.00 in0.0 mm 0.00 in0.0 mm 0.00 in0.0 mm
06:36 PM 33.0°F0.6°C 29.3°F-1.5°C 86% 8.7 mph SE14.0 kmh SE 12.0 mph19.3 kmh 29.77 in1008.1 mb 0.00 in0.0 mm 0.00 in0.0 mm 0.00 in0.0 mm
06:37 PM 33.1°F0.6°C 29.4°F-1.4°C 86% 8.7 mph SE14.0 kmh SE 13.0 mph20.9 kmh 29.77 in1008.1 mb 0.00 in0.0 mm 0.00 in0.0 mm 0.00 in0.0 mm
06:38 PM 33.1°F0.6°C 29.4°F-1.4°C 86% 7.0 mph SSE11.3 kmh SSE 13.0 mph20.9 kmh 29.77 in1008.1 mb 0.00 in0.0 mm 0.00 in0.0 mm 0.00 in0.0 mm
06:39 PM 33.1°F0.6°C 29.4°F-1.4°C 86% 6.3 mph SE10.1 kmh SE 11.0 mph17.7 kmh 29.76 in1007.8 mb 0.00 in0.0 mm 0.00 in0.0 mm 0.00 in0.0 mm
06:40 PM 33.1°F0.6°C 29.4°F-1.4°C 86% 5.5 mph SE8.9 kmh SE 12.0 mph19.3 kmh 29.77 in1008.1 mb 0.00 in0.0 mm 0.00 in0.0 mm 0.00 in0.0 mm
06:41 PM 33.1°F0.6°C 29.4°F-1.4°C 86% 8.0 mph SE12.9 kmh SE 12.0 mph19.3 kmh 29.77 in1008.1 mb 0.00 in0.0 mm 0.00 in0.0 mm 0.00 in0.0 mm
06:42 PM 33.1°F0.6°C 29.4°F-1.4°C 86% 7.8 mph SSE12.6 kmh SSE 12.0 mph19.3 kmh 29.77 in1008.1 mb 0.00 in0.0 mm 0.00 in0.0 mm 0.00 in0.0 mm
06:43 PM 33.0°F0.6°C 29.3°F-1.5°C 86% 9.5 mph SE15.3 kmh SE 13.0 mph20.9 kmh 29.77 in1008.1 mb 0.00 in0.0 mm 0.00 in0.0 mm 0.00 in0.0 mm
06:44 PM 33.0°F0.6°C 29.3°F-1.5°C 86% 7.9 mph SSE12.7 kmh SSE 13.0 mph20.9 kmh 29.77 in1008.1 mb 0.00 in0.0 mm 0.00 in0.0 mm 0.00 in0.0 mm
06:45 PM 33.0°F0.6°C 29.3°F-1.5°C 86% 6.5 mph SE10.5 kmh SE 10.0 mph16.1 kmh 29.77 in1008.1 mb 0.00 in0.0 mm 0.00 in0.0 mm 0.00 in0.0 mm
06:46 PM 33.1°F0.6°C 29.4°F-1.4°C 86% 5.3 mph SSE8.5 kmh SSE 10.0 mph16.1 kmh 29.77 in1008.1 mb 0.00 in0.0 mm 0.00 in0.0 mm 0.00 in0.0 mm
06:47 PM 33.0°F0.6°C 29.3°F-1.5°C 86% 5.1 mph SE8.2 kmh SE 8.0 mph12.9 kmh 29.77 in1008.1 mb 0.00 in0.0 mm 0.00 in0.0 mm 0.00 in0.0 mm
06:48 PM 33.0°F0.6°C 29.3°F-1.5°C 86% 5.1 mph SSE8.2 kmh SSE 8.0 mph12.9 kmh 29.77 in1008.1 mb 0.00 in0.0 mm 0.00 in0.0 mm 0.00 in0.0 mm
06:49 PM 33.0°F0.6°C 29.3°F-1.5°C 86% 9.2 mph SSE14.8 kmh SSE 12.0 mph19.3 kmh 29.77 in1008.1 mb 0.00 in0.0 mm 0.00 in0.0 mm 0.00 in0.0 mm
06:50 PM 33.0°F0.6°C 29.3°F-1.5°C 86% 8.5 mph SSE13.7 kmh SSE 12.0 mph19.3 kmh 29.76 in1007.8 mb 0.00 in0.0 mm 0.00 in0.0 mm 0.00 in0.0 mm
06:51 PM 33.0°F0.6°C 29.3°F-1.5°C 86% 7.2 mph SSE11.6 kmh SSE 11.0 mph17.7 kmh 29.76 in1007.8 mb 0.00 in0.0 mm 0.00 in0.0 mm 0.00 in0.0 mm
06:52 PM 33.0°F0.6°C 29.3°F-1.5°C 86% 9.1 mph SSE14.6 kmh SSE 13.0 mph20.9 kmh 29.76 in1007.8 mb 0.00 in0.0 mm 0.00 in0.0 mm 0.00 in0.0 mm
06:53 PM 33.0°F0.6°C 29.3°F-1.5°C 86% 8.1 mph SE13.0 kmh SE 13.0 mph20.9 kmh 29.76 in1007.8 mb 0.00 in0.0 mm 0.00 in0.0 mm 0.00 in0.0 mm
06:54 PM 33.0°F0.6°C 29.3°F-1.5°C 86% 7.8 mph SE12.6 kmh SE 13.0 mph20.9 kmh 29.76 in1007.8 mb 0.00 in0.0 mm 0.00 in0.0 mm 0.00 in0.0 mm
06:55 PM 32.9°F0.5°C 29.2°F-1.6°C 86% 8.5 mph SE13.7 kmh SE 13.0 mph20.9 kmh 29.76 in1007.8 mb 0.00 in0.0 mm 0.00 in0.0 mm 0.00 in0.0 mm
06:56 PM 33.0°F0.6°C 29.3°F-1.5°C 86% 6.6 mph SSE10.6 kmh SSE 13.0 mph20.9 kmh 29.76 in1007.8 mb 0.00 in0.0 mm 0.00 in0.0 mm 0.00 in0.0 mm
06:57 PM 32.9°F0.5°C 29.2°F-1.6°C 86% 8.7 mph SE14.0 kmh SE 12.0 mph19.3 kmh 29.76 in1007.8 mb 0.00 in0.0 mm 0.00 in0.0 mm 0.00 in0.0 mm
06:58 PM 32.9°F0.5°C 29.2°F-1.6°C 86% 7.3 mph SSE11.7 kmh SSE 12.0 mph19.3 kmh 29.76 in1007.8 mb 0.00 in0.0 mm 0.00 in0.0 mm 0.00 in0.0 mm
06:59 PM 32.9°F0.5°C 29.2°F-1.6°C 86% 8.3 mph SE13.4 kmh SE 14.0 mph22.5 kmh 29.76 in1007.8 mb 0.00 in0.0 mm 0.00 in0.0 mm 0.00 in0.0 mm
07:00 PM 32.9°F0.5°C 29.5°F-1.4°C 87% 9.9 mph SSE15.9 kmh SSE 14.0 mph22.5 kmh 29.76 in1007.8 mb 0.00 in0.0 mm 0.00 in0.0 mm 0.00 in0.0 mm
07:01 PM 32.9°F0.5°C 29.5°F-1.4°C 87% 10.3 mph SE16.6 kmh SE 14.0 mph22.5 kmh 29.76 in1007.8 mb 0.00 in0.0 mm 0.00 in0.0 mm 0.00 in0.0 mm
07:02 PM 32.9°F0.5°C 29.5°F-1.4°C 87% 9.2 mph SE14.8 kmh SE 14.0 mph22.5 kmh 29.76 in1007.8 mb 0.00 in0.0 mm 0.00 in0.0 mm 0.00 in0.0 mm
07:03 PM 32.9°F0.5°C 29.5°F-1.4°C 87% 9.8 mph SSE15.8 kmh SSE 15.0 mph24.1 kmh 29.76 in1007.8 mb 0.00 in0.0 mm 0.00 in0.0 mm 0.00 in0.0 mm
07:04 PM 33.0°F0.6°C 29.6°F-1.3°C 87% 8.8 mph SE14.2 kmh SE 15.0 mph24.1 kmh 29.76 in1007.8 mb 0.00 in0.0 mm 0.00 in0.0 mm 0.00 in0.0 mm
07:05 PM 32.9°F0.5°C 29.5°F-1.4°C 87% 10.4 mph SSE16.7 kmh SSE 13.0 mph20.9 kmh 29.76 in1007.8 mb 0.00 in0.0 mm 0.00 in0.0 mm 0.00 in0.0 mm
07:06 PM 33.0°F0.6°C 29.6°F-1.3°C 87% 10.7 mph SE17.2 kmh SE 13.0 mph20.9 kmh 29.76 in1007.8 mb 0.00 in0.0 mm 0.00 in0.0 mm 0.00 in0.0 mm
07:07 PM 32.9°F0.5°C 29.5°F-1.4°C 87% 11.3 mph SSE18.2 kmh SSE 14.0 mph22.5 kmh 29.76 in1007.8 mb 0.00 in0.0 mm 0.00 in0.0 mm 0.00 in0.0 mm
07:08 PM 33.0°F0.6°C 29.6°F-1.3°C 87% 6.5 mph SSE10.5 kmh SSE 14.0 mph22.5 kmh 29.76 in1007.8 mb 0.00 in0.0 mm 0.00 in0.0 mm 0.00 in0.0 mm
07:09 PM 33.0°F0.6°C 29.6°F-1.3°C 87% 7.5 mph SSE12.1 kmh SSE 12.0 mph19.3 kmh 29.76 in1007.8 mb 0.00 in0.0 mm 0.00 in0.0 mm 0.00 in0.0 mm
07:10 PM 33.0°F0.6°C 29.6°F-1.3°C 87% 8.1 mph SE13.0 kmh SE 12.0 mph19.3 kmh 29.76 in1007.8 mb 0.00 in0.0 mm 0.00 in0.0 mm 0.00 in0.0 mm
07:11 PM 32.9°F0.5°C 29.5°F-1.4°C 87% 6.6 mph SSE10.6 kmh SSE 10.0 mph16.1 kmh 29.76 in1007.8 mb 0.00 in0.0 mm 0.00 in0.0 mm 0.00 in0.0 mm
07:12 PM 32.9°F0.5°C 29.5°F-1.4°C 87% 8.0 mph SSE12.9 kmh SSE 10.0 mph16.1 kmh 29.76 in1007.8 mb 0.00 in0.0 mm 0.00 in0.0 mm 0.00 in0.0 mm
07:13 PM 32.9°F0.5°C 29.5°F-1.4°C 87% 8.8 mph SE14.2 kmh SE 12.0 mph19.3 kmh 29.75 in1007.5 mb 0.00 in0.0 mm 0.00 in0.0 mm 0.00 in0.0 mm
07:14 PM 32.9°F0.5°C 29.5°F-1.4°C 87% 8.2 mph SSE13.2 kmh SSE 12.0 mph19.3 kmh 29.76 in1007.8 mb 0.00 in0.0 mm 0.00 in0.0 mm 0.00 in0.0 mm
07:15 PM 32.9°F0.5°C 29.5°F-1.4°C 87% 10.6 mph SE17.1 kmh SE 14.0 mph22.5 kmh 29.75 in1007.5 mb 0.00 in0.0 mm 0.00 in0.0 mm 0.00 in0.0 mm
07:16 PM 32.9°F0.5°C 29.5°F-1.4°C 87% 7.5 mph SSE12.1 kmh SSE 14.0 mph22.5 kmh 29.75 in1007.5 mb 0.00 in0.0 mm 0.00 in0.0 mm 0.00 in0.0 mm
07:17 PM 32.9°F0.5°C 29.5°F-1.4°C 87% 8.7 mph SSE14.0 kmh SSE 13.0 mph20.9 kmh 29.75 in1007.5 mb 0.00 in0.0 mm 0.00 in0.0 mm 0.00 in0.0 mm
07:18 PM 33.0°F0.6°C 29.6°F-1.3°C 87% 7.7 mph SSE12.4 kmh SSE 12.0 mph19.3 kmh 29.75 in1007.5 mb 0.00 in0.0 mm 0.00 in0.0 mm 0.00 in0.0 mm
07:19 PM 32.9°F0.5°C 29.5°F-1.4°C 87% 7.3 mph SE11.7 kmh SE 14.0 mph22.5 kmh 29.75 in1007.5 mb 0.00 in0.0 mm 0.00 in0.0 mm 0.00 in0.0 mm
07:20 PM 32.9°F0.5°C 29.5°F-1.4°C 87% 9.1 mph SSE14.6 kmh SSE 14.0 mph22.5 kmh 29.75 in1007.5 mb 0.00 in0.0 mm 0.00 in0.0 mm 0.00 in0.0 mm
07:21 PM 32.9°F0.5°C 29.5°F-1.4°C 87% 9.8 mph SSE15.8 kmh SSE 14.0 mph22.5 kmh 29.75 in1007.5 mb 0.00 in0.0 mm 0.00 in0.0 mm 0.00 in0.0 mm
07:22 PM 32.9°F0.5°C 29.5°F-1.4°C 87% 8.3 mph SE13.4 kmh SE 14.0 mph22.5 kmh 29.75 in1007.5 mb 0.00 in0.0 mm 0.00 in0.0 mm 0.00 in0.0 mm
07:23 PM 32.9°F0.5°C 29.5°F-1.4°C 87% 9.1 mph SSE14.6 kmh SSE 13.0 mph20.9 kmh 29.75 in1007.5 mb 0.00 in0.0 mm 0.00 in0.0 mm 0.00 in0.0 mm
07:24 PM 32.9°F0.5°C 29.5°F-1.4°C 87% 8.8 mph SSE14.2 kmh SSE 12.0 mph19.3 kmh 29.75 in1007.5 mb 0.00 in0.0 mm 0.00 in0.0 mm 0.00 in0.0 mm
07:25 PM 32.9°F0.5°C 29.5°F-1.4°C 87% 8.0 mph SSE12.9 kmh SSE 12.0 mph19.3 kmh 29.75 in1007.5 mb 0.00 in0.0 mm 0.00 in0.0 mm 0.00 in0.0 mm
07:26 PM 32.9°F0.5°C 29.5°F-1.4°C 87% 9.3 mph SSE15.0 kmh SSE 14.0 mph22.5 kmh 29.75 in1007.5 mb 0.00 in0.0 mm 0.00 in0.0 mm 0.00 in0.0 mm
07:27 PM 32.9°F0.5°C 29.5°F-1.4°C 87% 9.8 mph SSE15.8 kmh SSE 14.0 mph22.5 kmh 29.75 in1007.5 mb 0.00 in0.0 mm 0.00 in0.0 mm 0.00 in0.0 mm
07:28 PM 32.9°F0.5°C 29.5°F-1.4°C 87% 7.3 mph SSE11.7 kmh SSE 13.0 mph20.9 kmh 29.75 in1007.5 mb 0.00 in0.0 mm 0.00 in0.0 mm 0.00 in0.0 mm
07:29 PM 32.9°F0.5°C 29.5°F-1.4°C 87% 8.7 mph SE14.0 kmh SE 12.0 mph19.3 kmh 29.75 in1007.5 mb 0.00 in0.0 mm 0.00 in0.0 mm 0.00 in0.0 mm
07:30 PM 32.9°F0.5°C 29.5°F-1.4°C 87% 8.4 mph SSE13.5 kmh SSE 12.0 mph19.3 kmh 29.75 in1007.5 mb 0.00 in0.0 mm 0.00 in0.0 mm 0.00 in0.0 mm
07:31 PM 32.9°F0.5°C 29.5°F-1.4°C 87% 10.3 mph SSE16.6 kmh SSE 16.0 mph25.7 kmh 29.75 in1007.5 mb